Darstellungsparameter: Aktuell verwendete Einstellungen:
Skalierung der Graphiken ... ?
xyx+y,   Skalierungsfaktor:      Skalierung: Modus: x, Faktor: 1
Darstellungszeitraum ... ?
Vom - - bis: - -   Zeitraum: 19.05.2009 - 18.08.2009
Min/Max/Avg-Anzeige ... ?
Zeige MMA aktuell
Zeige MMA Monat
Zeige MMA alles
Zeige --A aktuell
Zeige --A Monat
Zeige --A alles
Keine MMA-Anzeige
MMA:
Average (ber die Originaldaten)
MMA-Basis: 17.04.2019 - 19.05.2019
Quicknavigation für Darstellung... ?
Tage:      1T, 2T, 3T, 5T -1T -2T -3T -5T +1T +2T +3T +5T
Wochen: 1W, 2W, 3W -1W -2W -3W +1W +2W +3W
Monate: 1M, 3M, 6M -1M -3M -6M +1M +3M +6M
Jahre:    1J, 3J, 5J, 10J -1J -3J -5J -10J +1J +3J +5J +10J
Nutze für die Darstellung ... ?
Originaldaten oder Mittelwerte auf ...
Stundenbasis Tagesbasis Wochenbasis
Monatsbasis Jahresbasis      Datenbasis: Original-Daten
Darstellen als:
Statistik (Auto) Statistik J:M      Darstellung:
Zur Graphik,    zurück zur Übersicht aller Sensoren.
 
Tabellarische Datenbersicht: ?
 
Sensor: Nr:Datum:Temp:Abs-Feuchte:Windchill:Wind:
Aussen-T/F 1 19-05-2009 00:04:20 12.8 C 6.72 g/m*3 12.8 C 0 km/h
2 19-05-2009 00:16:20 12.6 C 6.75 g/m*3 12.6 C 0 km/h
3 19-05-2009 00:28:20 12.5 C 6.71 g/m*3 12.5 C 0 km/h
4 19-05-2009 00:40:20 12.4 C 6.66 g/m*3 12.4 C 0 km/h
5 19-05-2009 00:52:20 12.1 C 6.43 g/m*3 12.1 C 0 km/h
6 19-05-2009 01:04:20 12 C 6.5 g/m*3 12 C 0 km/h
7 19-05-2009 01:16:20 11.6 C 6.65 g/m*3 11.6 C 0 km/h
8 19-05-2009 01:28:20 11.4 C 6.57 g/m*3 11.4 C 0 km/h
9 19-05-2009 01:40:20 11.2 C 6.49 g/m*3 11.2 C 0 km/h
10 19-05-2009 01:52:21 11 C 6.51 g/m*3 11 C 0 km/h
11 19-05-2009 02:04:21 10.9 C 6.47 g/m*3 10.9 C 0 km/h
12 19-05-2009 02:16:21 10.7 C 6.48 g/m*3 10.7 C 0 km/h
13 19-05-2009 02:28:21 10.4 C 6.46 g/m*3 10.4 C 0 km/h
14 19-05-2009 02:40:21 10.2 C 6.47 g/m*3 10.2 C 0 km/h
15 19-05-2009 02:52:21 10 C 6.58 g/m*3 10 C 0 km/h
16 19-05-2009 03:04:21 9.9 C 6.63 g/m*3 9.9 C 0 km/h
17 19-05-2009 03:16:21 9.8 C 6.59 g/m*3 9.8 C 0 km/h
18 19-05-2009 03:28:21 9.7 C 6.64 g/m*3 9.7 C 0 km/h
19 19-05-2009 03:40:21 9.4 C 6.51 g/m*3 9.4 C 0 km/h
20 19-05-2009 03:52:21 9.3 C 6.56 g/m*3 9.3 C 0 km/h
21 19-05-2009 04:04:21 9.3 C 6.56 g/m*3 9.3 C 0 km/h
22 19-05-2009 04:16:21 9.1 C 6.65 g/m*3 9.1 C 0 km/h
23 19-05-2009 04:28:21 8.9 C 6.66 g/m*3 8.9 C 0 km/h
24 19-05-2009 04:40:21 8.8 C 6.7 g/m*3 8.8 C 0 km/h
25 19-05-2009 04:52:21 8.6 C 6.7 g/m*3 8.6 C 0 km/h
Sensor: Nr:Datum:Temp:Abs-Feuchte:Windchill:Wind:
Aussen-T/F 26 19-05-2009 05:04:21 8.5 C 6.57 g/m*3 8.5 C 0 km/h
27 19-05-2009 05:16:21 8.4 C 6.62 g/m*3 8.4 C 0 km/h
28 19-05-2009 05:28:21 8.2 C 6.62 g/m*3 8.2 C 0 km/h
29 19-05-2009 05:40:22 8.2 C 6.62 g/m*3 8.2 C 0 km/h
30 19-05-2009 05:52:22 8.1 C 6.57 g/m*3 8.1 C 0 km/h
31 19-05-2009 06:04:22 8.1 C 6.57 g/m*3 8.1 C 0 km/h
32 19-05-2009 06:16:20 8.1 C 6.57 g/m*3 8.1 C 0 km/h
33 19-05-2009 06:28:20 8.1 C 6.66 g/m*3 8.1 C 0 km/h
34 19-05-2009 06:40:19 8.2 C 6.7 g/m*3 8.2 C 0 km/h
35 19-05-2009 06:52:19 9 C 7.05 g/m*3 9 C 0 km/h
36 19-05-2009 07:04:20 9.5 C 7.01 g/m*3 9.5 C 0 km/h
37 19-05-2009 07:16:19 9.7 C 6.91 g/m*3 9.7 C 0 km/h
38 19-05-2009 07:28:19 9.6 C 6.87 g/m*3 9.6 C 0 km/h
39 19-05-2009 07:40:19 9.6 C 6.78 g/m*3 9.6 C 0 km/h
40 19-05-2009 07:52:19 9.7 C 6.82 g/m*3 9.7 C 0 km/h
41 19-05-2009 08:04:19 10.3 C 6.9 g/m*3 10.3 C 0 km/h
42 19-05-2009 08:16:18 10.5 C 6.69 g/m*3 10.5 C 0 km/h
43 19-05-2009 08:28:18 10.5 C 6.69 g/m*3 10.5 C 0 km/h
44 19-05-2009 08:40:18 10.8 C 6.72 g/m*3 10.8 C 0 km/h
45 19-05-2009 08:52:18 11.5 C 6.82 g/m*3 11.5 C 0 km/h
46 19-05-2009 09:04:18 12.5 C 6.93 g/m*3 12.5 C 0 km/h
47 19-05-2009 09:16:18 13.1 C 6.85 g/m*3 13.1 C 0 km/h
48 19-05-2009 09:28:18 14.1 C 7.04 g/m*3 14.1 C 0 km/h
49 19-05-2009 09:40:18 14.3 C 7.25 g/m*3 14.3 C 0 km/h
50 19-05-2009 09:52:18 15.8 C 7.27 g/m*3 15.8 C 0 km/h
Sensor: Nr:Datum:Temp:Abs-Feuchte:Windchill:Wind:
Aussen-T/F 51 19-05-2009 10:04:17 15.8 C 7.27 g/m*3 15.8 C 0 km/h
52 19-05-2009 10:16:17 16.2 C 7.45 g/m*3 16.2 C 0 km/h
53 19-05-2009 10:28:18 16.8 C 7.29 g/m*3 16.8 C 0 km/h
54 19-05-2009 10:40:17 17.7 C 7.54 g/m*3 17.7 C 0 km/h
55 19-05-2009 10:52:17 18.9 C 7.29 g/m*3 18.9 C 0 km/h
56 19-05-2009 11:04:16 19.7 C 7.3 g/m*3 19.7 C 0 km/h
57 19-05-2009 11:16:17 19.9 C 7.04 g/m*3 19.9 C 0 km/h
58 19-05-2009 11:28:17 20.4 C 6.72 g/m*3 20.4 C 0 km/h
59 19-05-2009 11:40:17 21 C 6.05 g/m*3 21 C 0 km/h
60 19-05-2009 11:52:16 21.2 C 6.12 g/m*3 21.2 C 0 km/h
61 19-05-2009 12:04:17 22.1 C 6.05 g/m*3 22.1 C 0 km/h
62 19-05-2009 12:16:16 22.8 C 5.69 g/m*3 22.8 C 0 km/h
63 19-05-2009 12:28:16 22.4 C 5.56 g/m*3 22.4 C 0 km/h
64 19-05-2009 12:40:16 21.9 C 5.4 g/m*3 21.9 C 0 km/h
65 19-05-2009 12:52:15 25.1 C 5.09 g/m*3 25.1 C 0 km/h
66 19-05-2009 13:04:16 23.5 C 5.92 g/m*3 23.5 C 0 km/h
67 19-05-2009 13:16:16 23.6 C 5.32 g/m*3 23.6 C 0 km/h
68 19-05-2009 13:28:16 23.9 C 4.76 g/m*3 23.9 C 0 km/h
69 19-05-2009 13:40:15 24.8 C 4.55 g/m*3 24.8 C 0 km/h
70 19-05-2009 13:52:16 24.2 C 5.06 g/m*3 24.2 C 0 km/h
71 19-05-2009 14:04:15 23.8 C 5.16 g/m*3 23.8 C 0 km/h
72 19-05-2009 14:16:15 23.5 C 6.56 g/m*3 23.5 C 0 km/h
73 19-05-2009 14:28:16 23.7 C 7.06 g/m*3 23.7 C 0 km/h
74 19-05-2009 14:40:14 22.7 C 7.27 g/m*3 22.7 C 0 km/h
75 19-05-2009 14:52:15 24.1 C 6.35 g/m*3 24.1 C 0 km/h
Sensor: Nr:Datum:Temp:Abs-Feuchte:Windchill:Wind:
Aussen-T/F 76 19-05-2009 15:04:14 25.4 C 5.18 g/m*3 25.4 C 0 km/h
77 19-05-2009 15:16:14 24.1 C 6.78 g/m*3 24.1 C 0 km/h
78 19-05-2009 15:28:14 23.2 C 7.48 g/m*3 23.2 C 0 km/h
79 19-05-2009 15:40:15 26 C 5.6 g/m*3 26 C 0 km/h
80 19-05-2009 15:52:14 27.4 C 5.79 g/m*3 27.4 C 0 km/h
81 19-05-2009 16:04:14 27.7 C 5.35 g/m*3 27.7 C 0 km/h
82 19-05-2009 16:16:13 28.2 C 5.5 g/m*3 28.2 C 0 km/h
83 19-05-2009 16:28:13 27.9 C 5.41 g/m*3 27.9 C 0 km/h
84 19-05-2009 16:40:14 27.3 C 6.54 g/m*3 27.3 C 0 km/h
85 19-05-2009 16:52:13 26.5 C 6.01 g/m*3 26.5 C 0 km/h
86 19-05-2009 17:04:13 25.9 C 6.29 g/m*3 25.9 C 0 km/h
87 19-05-2009 17:16:14 24.9 C 7.1 g/m*3 24.9 C 0 km/h
88 19-05-2009 17:28:14 21.6 C 10.05 g/m*3 21.6 C 0 km/h
89 19-05-2009 17:40:13 23.8 C 10.54 g/m*3 23.8 C 0 km/h
90 19-05-2009 17:52:13 23.6 C 9.57 g/m*3 23.6 C 0 km/h
91 19-05-2009 18:04:13 23.7 C 8.98 g/m*3 23.7 C 0 km/h
92 19-05-2009 18:16:13 25.1 C 7.18 g/m*3 25.1 C 0 km/h
93 19-05-2009 18:28:14 24.9 C 8.7 g/m*3 24.9 C 0 km/h
94 19-05-2009 18:40:12 24.1 C 8.53 g/m*3 24.1 C 0 km/h
95 19-05-2009 18:52:12 23.7 C 9.41 g/m*3 23.7 C 0 km/h
96 19-05-2009 19:04:12 23.1 C 9.3 g/m*3 23.1 C 0 km/h
97 19-05-2009 19:16:12 22 C 8.93 g/m*3 22 C 0 km/h
98 19-05-2009 19:28:12 21.6 C 8.72 g/m*3 21.6 C 0 km/h
99 19-05-2009 19:40:12 21.2 C 9.08 g/m*3 21.2 C 0 km/h
100 19-05-2009 19:52:12 20.6 C 9.31 g/m*3 20.6 C 0 km/h
Sensor: Nr:Datum:Temp:Abs-Feuchte:Windchill:Wind:
Aussen-T/F 101 19-05-2009 20:04:12 18.5 C 8.54 g/m*3 18.5 C 0 km/h
102 19-05-2009 20:16:11 16.9 C 9.21 g/m*3 16.9 C 0 km/h
103 19-05-2009 20:28:11 15.7 C 9.63 g/m*3 15.7 C 0 km/h
104 19-05-2009 20:40:12 15.6 C 10.24 g/m*3 15.6 C 0 km/h
105 19-05-2009 20:52:11 16.1 C 10.55 g/m*3 16.1 C 0 km/h
106 19-05-2009 21:04:11 15.9 C 10.56 g/m*3 15.9 C 0 km/h
107 19-05-2009 21:16:11 15.9 C 10.7 g/m*3 15.9 C 0 km/h
108 19-05-2009 21:28:12 15.8 C 10.36 g/m*3 15.8 C 0 km/h
109 19-05-2009 21:40:10 15.7 C 10.17 g/m*3 15.7 C 0 km/h
110 19-05-2009 21:52:11 15.6 C 10.11 g/m*3 15.6 C 0 km/h
111 19-05-2009 22:04:10 15.3 C 9.79 g/m*3 15.3 C 0 km/h
112 19-05-2009 22:16:10 15.3 C 9.66 g/m*3 15.3 C 0 km/h
113 19-05-2009 22:28:10 15 C 9.49 g/m*3 15 C 0 km/h
114 19-05-2009 22:41:13 14.7 C 9.44 g/m*3 14.7 C 0 km/h
115 19-05-2009 22:53:13 14.7 C 9.44 g/m*3 14.7 C 0 km/h
116 19-05-2009 23:05:13 14.4 C 9.27 g/m*3 14.4 C 0 km/h
117 19-05-2009 23:17:13 14.2 C 9.28 g/m*3 14.2 C 0 km/h
118 19-05-2009 23:29:13 14.1 C 9.22 g/m*3 14.1 C 0 km/h
119 19-05-2009 23:41:13 13.9 C 9.47 g/m*3 13.9 C 0 km/h
120 19-05-2009 23:53:13 13.7 C 9.24 g/m*3 13.7 C 0 km/h
121 20-05-2009 00:05:13 13.6 C 9.3 g/m*3 13.6 C 0 km/h
122 20-05-2009 00:17:13 13.3 C 9.01 g/m*3 13.3 C 0 km/h
123 20-05-2009 00:29:13 13.4 C 9.07 g/m*3 13.4 C 0 km/h
124 20-05-2009 00:41:13 13.2 C 8.96 g/m*3 13.2 C 0 km/h
125 20-05-2009 00:53:14 13.1 C 8.9 g/m*3 13.1 C 0 km/h
Sensor: Nr:Datum:Temp:Abs-Feuchte:Windchill:Wind:
Aussen-T/F 126 20-05-2009 01:05:14 13 C 8.85 g/m*3 13 C 0 km/h
127 20-05-2009 01:17:14 12.8 C 8.85 g/m*3 12.8 C 0 km/h
128 20-05-2009 01:29:14 12.6 C 8.74 g/m*3 12.6 C 0 km/h
129 20-05-2009 01:41:14 12.5 C 8.69 g/m*3 12.5 C 0 km/h
130 20-05-2009 01:53:14 12.4 C 8.74 g/m*3 12.4 C 0 km/h
131 20-05-2009 02:05:14 12.2 C 8.63 g/m*3 12.2 C 0 km/h
132 20-05-2009 02:17:14 12.1 C 8.69 g/m*3 12.1 C 0 km/h
133 20-05-2009 02:29:14 12 C 8.63 g/m*3 12 C 0 km/h
134 20-05-2009 02:41:14 11.8 C 8.53 g/m*3 11.8 C 0 km/h
135 20-05-2009 02:53:14 11.8 C 8.63 g/m*3 11.8 C 0 km/h
136 20-05-2009 03:05:14 11.8 C 8.74 g/m*3 11.8 C 0 km/h
137 20-05-2009 03:17:14 11.5 C 8.68 g/m*3 11.5 C 0 km/h
138 20-05-2009 03:29:14 11.3 C 8.67 g/m*3 11.3 C 0 km/h
139 20-05-2009 03:41:14 11.1 C 8.56 g/m*3 11.1 C 0 km/h
140 20-05-2009 03:53:14 11.1 C 8.66 g/m*3 11.1 C 0 km/h
141 20-05-2009 04:05:14 11 C 8.61 g/m*3 11 C 0 km/h
142 20-05-2009 04:17:14 10.9 C 8.55 g/m*3 10.9 C 0 km/h
143 20-05-2009 04:29:15 10.8 C 8.5 g/m*3 10.8 C 0 km/h
144 20-05-2009 04:41:15 10.6 C 8.39 g/m*3 10.6 C 0 km/h
145 20-05-2009 04:53:15 10.4 C 8.38 g/m*3 10.4 C 0 km/h
146 20-05-2009 05:05:15 10.3 C 8.33 g/m*3 10.3 C 0 km/h
147 20-05-2009 05:17:15 10.3 C 8.43 g/m*3 10.3 C 0 km/h
148 20-05-2009 05:29:15 10.2 C 8.37 g/m*3 10.2 C 0 km/h
149 20-05-2009 05:41:15 10 C 8.27 g/m*3 10 C 0 km/h
150 20-05-2009 05:53:15 10.1 C 8.32 g/m*3 10.1 C 0 km/h
Sensor: Nr:Datum:Temp:Abs-Feuchte:Windchill:Wind:
Aussen-T/F 151 20-05-2009 06:05:15 10.2 C 8.37 g/m*3 10.2 C 0 km/h
152 20-05-2009 06:17:15 10.4 C 8.48 g/m*3 10.4 C 0 km/h
153 20-05-2009 06:29:15 10.6 C 8.49 g/m*3 10.6 C 0 km/h
154 20-05-2009 06:41:15 10.7 C 8.55 g/m*3 10.7 C 0 km/h
155 20-05-2009 06:53:12 10.8 C 8.5 g/m*3 10.8 C 0 km/h
156 20-05-2009 07:05:12 10.9 C 8.55 g/m*3 10.9 C 0 km/h
157 20-05-2009 07:17:11 11 C 8.61 g/m*3 11 C 0 km/h
158 20-05-2009 07:29:11 11 C 8.61 g/m*3 11 C 0 km/h
159 20-05-2009 07:41:12 11.4 C 8.72 g/m*3 11.4 C 0 km/h
160 20-05-2009 07:53:11 11.5 C 8.68 g/m*3 11.5 C 0 km/h
161 20-05-2009 08:05:11 11.7 C 8.79 g/m*3 11.7 C 0 km/h
162 20-05-2009 08:17:10 12.1 C 8.79 g/m*3 12.1 C 0 km/h
163 20-05-2009 08:29:10 12.8 C 8.85 g/m*3 12.8 C 0 km/h
164 20-05-2009 08:41:11 13.2 C 8.73 g/m*3 13.2 C 0 km/h
165 20-05-2009 08:53:10 13.9 C 8.87 g/m*3 13.9 C 0 km/h
166 20-05-2009 09:05:10 14 C 8.68 g/m*3 14 C 0 km/h
167 20-05-2009 09:17:11 14.4 C 8.9 g/m*3 14.4 C 0 km/h
168 20-05-2009 09:29:11 15 C 8.98 g/m*3 15 C 0 km/h
169 20-05-2009 09:41:10 15.9 C 9.21 g/m*3 15.9 C 0 km/h
170 20-05-2009 09:53:10 16.6 C 9.04 g/m*3 16.6 C 0 km/h
171 20-05-2009 10:05:10 17 C 9.26 g/m*3 17 C 0 km/h
172 20-05-2009 10:17:10 17.5 C 9.54 g/m*3 17.5 C 0 km/h
173 20-05-2009 10:29:10 17.8 C 9.71 g/m*3 17.8 C 0 km/h
174 20-05-2009 10:41:10 17.9 C 9.31 g/m*3 17.9 C 0 km/h
175 20-05-2009 10:53:10 18.6 C 9.39 g/m*3 18.6 C 0 km/h
Sensor: Nr:Datum:Temp:Abs-Feuchte:Windchill:Wind:
Aussen-T/F 176 20-05-2009 11:05:10 19.2 C 8.9 g/m*3 19.2 C 0 km/h
177 20-05-2009 11:17:09 20.4 C 8.85 g/m*3 20.4 C 0 km/h
178 20-05-2009 11:29:09 20.8 C 8.69 g/m*3 20.8 C 0 km/h
179 20-05-2009 11:41:09 21.6 C 8.53 g/m*3 21.6 C 0 km/h
180 20-05-2009 11:53:09 22.5 C 8.39 g/m*3 22.5 C 0 km/h
181 20-05-2009 12:05:09 23.1 C 8.27 g/m*3 23.1 C 0 km/h
182 20-05-2009 12:17:08 23.4 C 7.99 g/m*3 23.4 C 0 km/h
183 20-05-2009 12:29:08 24.2 C 7.7 g/m*3 24.2 C 0 km/h
184 20-05-2009 12:41:08 24.7 C 7.24 g/m*3 24.7 C 0 km/h
185 20-05-2009 12:53:08 25.2 C 7.45 g/m*3 25.2 C 0 km/h
186 20-05-2009 13:05:08 25.5 C 7.1 g/m*3 25.5 C 0 km/h
187 20-05-2009 13:17:08 26.6 C 7.3 g/m*3 26.6 C 0 km/h
188 20-05-2009 13:29:08 26.8 C 6.62 g/m*3 26.8 C 0 km/h
189 20-05-2009 13:41:08 26.3 C 6.68 g/m*3 26.3 C 0 km/h
190 20-05-2009 13:53:08 26 C 6.57 g/m*3 26 C 0 km/h
191 20-05-2009 14:05:07 25.4 C 7.06 g/m*3 25.4 C 0 km/h
192 20-05-2009 14:17:08 25.5 C 7.1 g/m*3 25.5 C 0 km/h
193 20-05-2009 14:29:08 26.4 C 7.22 g/m*3 26.4 C 0 km/h
194 20-05-2009 14:41:07 27.2 C 7.03 g/m*3 27.2 C 0 km/h
195 20-05-2009 14:53:07 28 C 6.8 g/m*3 28 C 0 km/h
196 20-05-2009 15:05:07 28.1 C 7.11 g/m*3 28.1 C 0 km/h
197 20-05-2009 15:17:07 27.9 C 7.57 g/m*3 27.9 C 0 km/h
198 20-05-2009 15:29:07 28.4 C 6.95 g/m*3 28.4 C 0 km/h
199 20-05-2009 15:41:07 28.6 C 7.31 g/m*3 28.6 C 0 km/h
200 20-05-2009 15:53:06 28.7 C 7.35 g/m*3 28.7 C 0 km/h
Sensor: Nr:Datum:Temp:Abs-Feuchte:Windchill:Wind:
Aussen-T/F 201 20-05-2009 16:05:07 28 C 7.07 g/m*3 28 C 0 km/h
202 20-05-2009 16:17:06 27.7 C 7.49 g/m*3 27.7 C 0 km/h
203 20-05-2009 16:29:06 26.4 C 7.97 g/m*3 26.4 C 0 km/h
204 20-05-2009 16:41:06 27 C 6.95 g/m*3 27 C 0 km/h
205 20-05-2009 16:53:06 28.2 C 7.42 g/m*3 28.2 C 0 km/h
206 20-05-2009 17:05:06 28.8 C 7.1 g/m*3 28.8 C 0 km/h
207 20-05-2009 17:17:06 28.2 C 8.25 g/m*3 28.2 C 0 km/h
208 20-05-2009 17:29:06 27.7 C 8.29 g/m*3 27.7 C 0 km/h
209 20-05-2009 17:41:05 27.4 C 8.68 g/m*3 27.4 C 0 km/h
210 20-05-2009 17:53:06 26.8 C 8.65 g/m*3 26.8 C 0 km/h
211 20-05-2009 18:05:05 27.7 C 8.56 g/m*3 27.7 C 0 km/h
212 20-05-2009 18:17:05 26.5 C 8.76 g/m*3 26.5 C 0 km/h
213 20-05-2009 18:29:06 26.3 C 8.91 g/m*3 26.3 C 0 km/h
214 20-05-2009 18:41:05 26.1 C 8.81 g/m*3 26.1 C 0 km/h
215 20-05-2009 18:53:05 25.5 C 9.71 g/m*3 25.5 C 0 km/h
216 20-05-2009 19:05:05 24.8 C 9.79 g/m*3 24.8 C 0 km/h
217 20-05-2009 19:17:04 24.5 C 9.85 g/m*3 24.5 C 0 km/h
218 20-05-2009 19:29:04 23.9 C 9.95 g/m*3 23.9 C 0 km/h
219 20-05-2009 19:41:05 23.8 C 9.9 g/m*3 23.8 C 0 km/h
220 20-05-2009 19:53:04 23.5 C 10.15 g/m*3 23.5 C 0 km/h
221 20-05-2009 20:05:04 23.1 C 10.13 g/m*3 23.1 C 0 km/h
222 20-05-2009 20:17:04 22.2 C 10.41 g/m*3 22.2 C 0 km/h
223 20-05-2009 20:29:04 21.8 C 10.55 g/m*3 21.8 C 0 km/h
224 20-05-2009 20:41:04 21.5 C 10.37 g/m*3 21.5 C 0 km/h
225 20-05-2009 20:53:03 21.3 C 10.62 g/m*3 21.3 C 0 km/h
Sensor: Nr:Datum:Temp:Abs-Feuchte:Windchill:Wind:
Aussen-T/F 226 20-05-2009 21:05:04 20.8 C 10.5 g/m*3 20.8 C 0 km/h
227 20-05-2009 21:17:04 20.4 C 10.26 g/m*3 20.4 C 0 km/h
228 20-05-2009 21:29:04 20.3 C 10.38 g/m*3 20.3 C 0 km/h
229 20-05-2009 21:41:03 19.8 C 10.42 g/m*3 19.8 C 0 km/h
230 20-05-2009 21:53:04 19.5 C 10.24 g/m*3 19.5 C 0 km/h
231 20-05-2009 22:05:03 19.2 C 10.22 g/m*3 19.2 C 0 km/h
232 20-05-2009 22:17:03 19.1 C 10.33 g/m*3 19.1 C 0 km/h
233 20-05-2009 22:29:03 19 C 10.27 g/m*3 19 C 0 km/h
234 20-05-2009 22:41:02 18.9 C 10.53 g/m*3 18.9 C 0 km/h
235 20-05-2009 22:54:04 18.7 C 10.73 g/m*3 18.7 C 0 km/h
236 20-05-2009 23:06:04 18.4 C 10.54 g/m*3 18.4 C 0 km/h
237 20-05-2009 23:18:04 18.3 C 10.79 g/m*3 18.3 C 0 km/h
238 20-05-2009 23:30:04 18.2 C 10.72 g/m*3 18.2 C 0 km/h
239 20-05-2009 23:42:04 18.2 C 11.04 g/m*3 18.2 C 0 km/h
240 20-05-2009 23:54:04 18.1 C 10.82 g/m*3 18.1 C 0 km/h
241 21-05-2009 00:06:04 17.7 C 10.86 g/m*3 17.7 C 0 km/h
242 21-05-2009 00:18:04 17.5 C 10.73 g/m*3 17.5 C 0 km/h
243 21-05-2009 00:30:04 17.5 C 10.88 g/m*3 17.5 C 0 km/h
244 21-05-2009 00:42:04 17.4 C 10.82 g/m*3 17.4 C 0 km/h
245 21-05-2009 00:54:04 17.1 C 10.77 g/m*3 17.1 C 0 km/h
246 21-05-2009 01:06:04 16.9 C 10.79 g/m*3 16.9 C 0 km/h
247 21-05-2009 01:18:04 16.8 C 10.87 g/m*3 16.8 C 0 km/h
248 21-05-2009 01:30:04 16.4 C 10.61 g/m*3 16.4 C 0 km/h
249 21-05-2009 01:42:04 16.2 C 10.62 g/m*3 16.2 C 0 km/h
250 21-05-2009 01:54:04 16.2 C 10.48 g/m*3 16.2 C 0 km/h
Sensor: Nr:Datum:Temp:Abs-Feuchte:Windchill:Wind:
Aussen-T/F 251 21-05-2009 02:06:04 16 C 10.49 g/m*3 16 C 0 km/h
252 21-05-2009 02:18:05 15.7 C 10.44 g/m*3 15.7 C 0 km/h
253 21-05-2009 02:30:05 15.6 C 10.51 g/m*3 15.6 C 0 km/h
254 21-05-2009 02:42:05 15.4 C 10.38 g/m*3 15.4 C 0 km/h
255 21-05-2009 02:54:05 15.2 C 10.25 g/m*3 15.2 C 0 km/h
256 21-05-2009 03:06:05 15.2 C 10.25 g/m*3 15.2 C 0 km/h
257 21-05-2009 03:18:05 15.2 C 10.25 g/m*3 15.2 C 0 km/h
258 21-05-2009 03:30:05 15 C 10.26 g/m*3 15 C 0 km/h
259 21-05-2009 03:42:05 15 C 10.26 g/m*3 15 C 0 km/h
260 21-05-2009 03:54:05 15 C 10.13 g/m*3 15 C 0 km/h
261 21-05-2009 04:06:05 14.9 C 10.32 g/m*3 14.9 C 0 km/h
262 21-05-2009 04:18:05 14.7 C 10.32 g/m*3 14.7 C 0 km/h
263 21-05-2009 04:30:05 14.7 C 10.32 g/m*3 14.7 C 0 km/h
264 21-05-2009 04:42:05 14.7 C 10.32 g/m*3 14.7 C 0 km/h
265 21-05-2009 04:54:05 14.7 C 10.2 g/m*3 14.7 C 0 km/h
266 21-05-2009 05:06:05 14.7 C 10.2 g/m*3 14.7 C 0 km/h
267 21-05-2009 05:18:05 14.6 C 10.14 g/m*3 14.6 C 0 km/h
268 21-05-2009 05:30:05 14.5 C 10.07 g/m*3 14.5 C 0 km/h
269 21-05-2009 05:42:05 14.6 C 10.14 g/m*3 14.6 C 0 km/h
270 21-05-2009 05:54:05 14.6 C 10.14 g/m*3 14.6 C 0 km/h
271 21-05-2009 06:06:06 14.6 C 10.26 g/m*3 14.6 C 0 km/h
272 21-05-2009 06:18:06 14.3 C 10.2 g/m*3 14.3 C 0 km/h
273 21-05-2009 06:30:06 14.4 C 10.26 g/m*3 14.4 C 0 km/h
274 21-05-2009 06:42:06 14.5 C 10.32 g/m*3 14.5 C 0 km/h
275 21-05-2009 06:54:06 14.5 C 10.32 g/m*3 14.5 C 0 km/h
Sensor: Nr:Datum:Temp:Abs-Feuchte:Windchill:Wind:
Aussen-T/F 276 21-05-2009 07:06:06 14.6 C 10.39 g/m*3 14.6 C 0 km/h
277 21-05-2009 07:18:03 14.4 C 10.38 g/m*3 14.4 C 0 km/h
278 21-05-2009 07:30:04 14.6 C 10.64 g/m*3 14.6 C 0 km/h
279 21-05-2009 07:42:04 14.7 C 10.7 g/m*3 14.7 C 0 km/h
280 21-05-2009 07:54:03 14.8 C 10.64 g/m*3 14.8 C 0 km/h
281 21-05-2009 08:06:03 15.1 C 10.71 g/m*3 15.1 C 0 km/h
282 21-05-2009 08:18:04 15.6 C 10.91 g/m*3 15.6 C 0 km/h
283 21-05-2009 08:30:03 16 C 10.63 g/m*3 16 C 0 km/h
284 21-05-2009 08:42:03 16.3 C 10.54 g/m*3 16.3 C 0 km/h
285 21-05-2009 08:54:03 16.6 C 10.59 g/m*3 16.6 C 0 km/h
286 21-05-2009 09:06:03 16.3 C 10.68 g/m*3 16.3 C 0 km/h
287 21-05-2009 09:18:03 16.6 C 11.02 g/m*3 16.6 C 0 km/h
288 21-05-2009 09:30:03 17.3 C 10.9 g/m*3 17.3 C 0 km/h
289 21-05-2009 09:42:03 18.1 C 10.66 g/m*3 18.1 C 0 km/h
290 21-05-2009 09:54:03 18.6 C 10.82 g/m*3 18.6 C 0 km/h
291 21-05-2009 10:06:02 19.5 C 10.74 g/m*3 19.5 C 0 km/h
292 21-05-2009 10:18:02 20.3 C 10.55 g/m*3 20.3 C 0 km/h
293 21-05-2009 10:30:02 20.9 C 10.56 g/m*3 20.9 C 0 km/h
294 21-05-2009 10:42:02 21.7 C 10.87 g/m*3 21.7 C 0 km/h
295 21-05-2009 10:54:02 22.5 C 10.59 g/m*3 22.5 C 0 km/h
296 21-05-2009 11:06:01 22.4 C 9.73 g/m*3 22.4 C 0 km/h
297 21-05-2009 11:18:02 22.3 C 9.48 g/m*3 22.3 C 0 km/h
298 21-05-2009 11:30:01 23.2 C 9.36 g/m*3 23.2 C 0 km/h
299 21-05-2009 11:42:01 23 C 9.25 g/m*3 23 C 0 km/h
300 21-05-2009 11:54:02 23.7 C 9.2 g/m*3 23.7 C 0 km/h
Sensor: Nr:Datum:Temp:Abs-Feuchte:Windchill:Wind:
Aussen-T/F 301 21-05-2009 12:06:01 24.5 C 9.18 g/m*3 24.5 C 0 km/h
302 21-05-2009 12:18:01 24.3 C 9.52 g/m*3 24.3 C 0 km/h
303 21-05-2009 12:30:01 25.2 C 9.31 g/m*3 25.2 C 0 km/h
304 21-05-2009 12:42:01 26.1 C 9.06 g/m*3 26.1 C 0 km/h
305 21-05-2009 12:54:01 27.4 C 9.21 g/m*3 27.4 C 0 km/h
306 21-05-2009 13:06:01 27.2 C 8.85 g/m*3 27.2 C 0 km/h
307 21-05-2009 13:18:00 26.4 C 8.96 g/m*3 26.4 C 0 km/h
308 21-05-2009 13:30:01 26.7 C 9.37 g/m*3 26.7 C 0 km/h
309 21-05-2009 13:42:01 26.7 C 9.37 g/m*3 26.7 C 0 km/h
310 21-05-2009 13:54:00 25.1 C 9.26 g/m*3 25.1 C 0 km/h
311 21-05-2009 14:06:00 24.6 C 9.45 g/m*3 24.6 C 0 km/h
312 21-05-2009 14:18:00 24.6 C 9.23 g/m*3 24.6 C 0 km/h
313 21-05-2009 14:30:00 24.1 C 9.41 g/m*3 24.1 C 0 km/h
314 21-05-2009 14:42:00 25.3 C 9.13 g/m*3 25.3 C 0 km/h
315 21-05-2009 14:54:59 26.9 C 8.96 g/m*3 26.9 C 0 km/h
316 21-05-2009 15:05:59 26.4 C 8.71 g/m*3 26.4 C 0 km/h
317 21-05-2009 15:18:00 25.4 C 9.18 g/m*3 25.4 C 0 km/h
318 21-05-2009 15:30:59 24.5 C 9.18 g/m*3 24.5 C 0 km/h
319 21-05-2009 15:42:59 24.2 C 9.02 g/m*3 24.2 C 0 km/h
320 21-05-2009 15:54:59 25 C 9.21 g/m*3 25 C 0 km/h
321 21-05-2009 16:06:59 24.8 C 9.1 g/m*3 24.8 C 0 km/h
322 21-05-2009 16:18:59 24.1 C 8.53 g/m*3 24.1 C 0 km/h
323 21-05-2009 16:30:59 24.6 C 9 g/m*3 24.6 C 0 km/h
324 21-05-2009 16:42:59 25.8 C 9.39 g/m*3 25.8 C 0 km/h
325 21-05-2009 16:54:58 24.7 C 9.05 g/m*3 24.7 C 0 km/h
Sensor: Nr:Datum:Temp:Abs-Feuchte:Windchill:Wind:
Aussen-T/F 326 21-05-2009 17:06:58 25.1 C 9.03 g/m*3 25.1 C 0 km/h
327 21-05-2009 17:18:59 25.1 C 9.03 g/m*3 25.1 C 0 km/h
328 21-05-2009 17:30:58 24.8 C 9.1 g/m*3 24.8 C 0 km/h
329 21-05-2009 17:42:58 24.4 C 9.79 g/m*3 24.4 C 0 km/h
330 21-05-2009 17:54:58 23.5 C 9.94 g/m*3 23.5 C 0 km/h
331 21-05-2009 18:06:58 23.3 C 9.41 g/m*3 23.3 C 0 km/h
332 21-05-2009 18:18:58 23.1 C 10.54 g/m*3 23.1 C 0 km/h
333 21-05-2009 18:30:57 22.7 C 10.3 g/m*3 22.7 C 0 km/h
334 21-05-2009 18:42:57 22.4 C 10.13 g/m*3 22.4 C 0 km/h
335 21-05-2009 18:54:58 22.3 C 10.07 g/m*3 22.3 C 0 km/h
336 21-05-2009 19:06:57 22 C 9.9 g/m*3 22 C 0 km/h
337 21-05-2009 19:18:57 21.9 C 9.84 g/m*3 21.9 C 0 km/h
338 21-05-2009 19:30:57 21.9 C 9.84 g/m*3 21.9 C 0 km/h
339 21-05-2009 19:42:57 21.7 C 9.92 g/m*3 21.7 C 0 km/h
340 21-05-2009 19:54:57 21.6 C 9.67 g/m*3 21.6 C 0 km/h
341 21-05-2009 20:06:56 20.9 C 9.29 g/m*3 20.9 C 0 km/h
342 21-05-2009 20:18:56 19.4 C 9.18 g/m*3 19.4 C 0 km/h
343 21-05-2009 20:30:57 19.3 C 9.79 g/m*3 19.3 C 0 km/h
344 21-05-2009 20:42:57 17.4 C 11.41 g/m*3 17.4 C 0 km/h
345 21-05-2009 20:54:56 16.4 C 11.86 g/m*3 16.4 C 0 km/h
346 21-05-2009 21:06:56 16.2 C 12 g/m*3 16.2 C 0 km/h
347 21-05-2009 21:18:55 16.1 C 12.06 g/m*3 16.1 C 0 km/h
348 21-05-2009 21:30:56 16.1 C 12.2 g/m*3 16.1 C 0 km/h
349 21-05-2009 21:42:56 16.2 C 12.27 g/m*3 16.2 C 0 km/h
350 21-05-2009 21:54:55 16.2 C 12.27 g/m*3 16.2 C 0 km/h
Sensor: Nr:Datum:Temp:Abs-Feuchte:Windchill:Wind:
Aussen-T/F 351 21-05-2009 22:06:55 15.8 C 12.11 g/m*3 15.8 C 0 km/h
352 21-05-2009 22:18:56 15.8 C 12.11 g/m*3 15.8 C 0 km/h
353 21-05-2009 22:30:55 15.8 C 12.11 g/m*3 15.8 C 0 km/h
354 21-05-2009 22:42:55 15.7 C 12.04 g/m*3 15.7 C 0 km/h
355 21-05-2009 22:54:55 15.4 C 11.69 g/m*3 15.4 C 0 km/h
356 21-05-2009 23:06:55 15 C 11.16 g/m*3 15 C 0 km/h
357 21-05-2009 23:18:55 14.6 C 10.89 g/m*3 14.6 C 0 km/h
358 21-05-2009 23:30:54 14.1 C 10.44 g/m*3 14.1 C 0 km/h
359 21-05-2009 23:42:54 13.7 C 10.07 g/m*3 13.7 C 0 km/h
360 21-05-2009 23:54:54 13.8 C 10.13 g/m*3 13.8 C 0 km/h
361 22-05-2009 00:06:54 13.5 C 9.83 g/m*3 13.5 C 0 km/h
362 22-05-2009 00:18:55 13.4 C 9.65 g/m*3 13.4 C 0 km/h
363 22-05-2009 00:30:54 13.3 C 9.7 g/m*3 13.3 C 0 km/h
364 22-05-2009 00:42:54 13.3 C 9.7 g/m*3 13.3 C 0 km/h
365 22-05-2009 00:54:54 13.4 C 9.88 g/m*3 13.4 C 0 km/h
366 22-05-2009 01:06:53 13.3 C 9.82 g/m*3 13.3 C 0 km/h
367 22-05-2009 01:18:54 13.4 C 9.88 g/m*3 13.4 C 0 km/h
368 22-05-2009 01:30:53 13.2 C 9.64 g/m*3 13.2 C 0 km/h
369 22-05-2009 01:42:53 13.1 C 9.47 g/m*3 13.1 C 0 km/h
370 22-05-2009 01:54:53 13.3 C 9.7 g/m*3 13.3 C 0 km/h
371 22-05-2009 02:06:53 13.4 C 9.65 g/m*3 13.4 C 0 km/h
372 22-05-2009 02:18:53 13.4 C 9.42 g/m*3 13.4 C 0 km/h
373 22-05-2009 02:30:53 13.5 C 9.36 g/m*3 13.5 C 0 km/h
374 22-05-2009 02:42:53 13.3 C 9.24 g/m*3 13.3 C 0 km/h
375 22-05-2009 02:56:01 13.2 C 9.19 g/m*3 13.2 C 0 km/h
Sensor: Nr:Datum:Temp:Abs-Feuchte:Windchill:Wind:
Aussen-T/F 376 22-05-2009 03:08:01 13.1 C 9.01 g/m*3 13.1 C 0 km/h
377 22-05-2009 03:20:02 13.2 C 9.07 g/m*3 13.2 C 0 km/h
378 22-05-2009 03:32:01 13.4 C 9.18 g/m*3 13.4 C 0 km/h
379 22-05-2009 03:44:01 13.5 C 9.24 g/m*3 13.5 C 0 km/h
380 22-05-2009 03:56:01 13.2 C 9.19 g/m*3 13.2 C 0 km/h
381 22-05-2009 04:07:53 13.1 C 9.24 g/m*3 13.1 C 0 km/h
382 22-05-2009 04:19:54 13 C 9.07 g/m*3 13 C 0 km/h
383 22-05-2009 04:31:54 13.1 C 9.01 g/m*3 13.1 C 0 km/h
384 22-05-2009 04:43:54 13 C 8.85 g/m*3 13 C 0 km/h
385 22-05-2009 04:55:54 12.8 C 8.85 g/m*3 12.8 C 0 km/h
386 22-05-2009 05:07:53 12.9 C 8.9 g/m*3 12.9 C 0 km/h
387 22-05-2009 05:19:53 13 C 8.96 g/m*3 13 C 0 km/h
388 22-05-2009 05:31:53 12.9 C 8.9 g/m*3 12.9 C 0 km/h
389 22-05-2009 05:43:53 13 C 8.85 g/m*3 13 C 0 km/h
390 22-05-2009 05:55:53 12.8 C 8.74 g/m*3 12.8 C 0 km/h
391 22-05-2009 06:07:53 12.7 C 8.79 g/m*3 12.7 C 0 km/h
392 22-05-2009 06:19:52 12.4 C 8.52 g/m*3 12.4 C 0 km/h
393 22-05-2009 06:31:52 12.5 C 8.58 g/m*3 12.5 C 0 km/h
394 22-05-2009 06:43:52 12.5 C 8.69 g/m*3 12.5 C 0 km/h
395 22-05-2009 06:55:52 12.7 C 8.91 g/m*3 12.7 C 0 km/h
396 22-05-2009 07:07:52 13.2 C 9.19 g/m*3 13.2 C 0 km/h
397 22-05-2009 07:19:52 13.5 C 9.47 g/m*3 13.5 C 0 km/h
398 22-05-2009 07:31:52 13.7 C 9.35 g/m*3 13.7 C 0 km/h
399 22-05-2009 07:43:52 13.9 C 9.23 g/m*3 13.9 C 0 km/h
400 22-05-2009 07:55:52 13.8 C 9.17 g/m*3 13.8 C 0 km/h
Sensor: Nr:Datum:Temp:Abs-Feuchte:Windchill:Wind:
Aussen-T/F 401 22-05-2009 08:07:51 13.8 C 9.17 g/m*3 13.8 C 0 km/h
402 22-05-2009 08:19:51 14.1 C 9.22 g/m*3 14.1 C 0 km/h
403 22-05-2009 08:31:51 14.5 C 9.58 g/m*3 14.5 C 0 km/h
404 22-05-2009 08:43:51 14.9 C 9.05 g/m*3 14.9 C 0 km/h
405 22-05-2009 08:55:51 15.3 C 8.49 g/m*3 15.3 C 0 km/h
406 22-05-2009 09:07:51 16 C 8.17 g/m*3 16 C 0 km/h
407 22-05-2009 09:19:51 16.3 C 8.32 g/m*3 16.3 C 0 km/h
408 22-05-2009 09:31:50 16.5 C 8 g/m*3 16.5 C 0 km/h
409 22-05-2009 09:43:51 17.1 C 7.42 g/m*3 17.1 C 0 km/h
410 22-05-2009 09:55:51 16.9 C 6.62 g/m*3 16.9 C 0 km/h
411 22-05-2009 10:07:50 17.2 C 6.59 g/m*3 17.2 C 0 km/h
412 22-05-2009 10:19:51 17.7 C 6.49 g/m*3 17.7 C 0 km/h
413 22-05-2009 10:31:51 17.6 C 6.75 g/m*3 17.6 C 0 km/h
414 22-05-2009 10:43:50 18.7 C 7.68 g/m*3 18.7 C 0 km/h
415 22-05-2009 10:55:50 19.5 C 7.22 g/m*3 19.5 C 0 km/h
416 22-05-2009 11:07:50 20 C 6.91 g/m*3 20 C 0 km/h
417 22-05-2009 11:19:49 20.3 C 7.03 g/m*3 20.3 C 0 km/h
418 22-05-2009 11:31:50 20.7 C 7.2 g/m*3 20.7 C 0 km/h
419 22-05-2009 11:43:49 20.7 C 6.66 g/m*3 20.7 C 0 km/h
420 22-05-2009 11:55:49 20.2 C 6.29 g/m*3 20.2 C 0 km/h
421 22-05-2009 12:07:49 20.2 C 6.47 g/m*3 20.2 C 0 km/h
422 22-05-2009 12:19:49 20 C 6.39 g/m*3 20 C 0 km/h
423 22-05-2009 12:31:49 21.7 C 6.68 g/m*3 21.7 C 0 km/h
424 22-05-2009 12:43:49 21.7 C 6.29 g/m*3 21.7 C 0 km/h
425 22-05-2009 12:55:49 22.3 C 5.53 g/m*3 22.3 C 0 km/h
Sensor: Nr:Datum:Temp:Abs-Feuchte:Windchill:Wind:
Aussen-T/F 426 22-05-2009 13:07:49 22.8 C 4.47 g/m*3 22.8 C 0 km/h
427 22-05-2009 13:19:49 23.1 C 4.13 g/m*3 23.1 C 0 km/h
428 22-05-2009 13:31:48 22.4 C 3.97 g/m*3 22.4 C 0 km/h
429 22-05-2009 13:43:49 22.5 C 5.19 g/m*3 22.5 C 0 km/h
430 22-05-2009 13:55:49 22.7 C 4.65 g/m*3 22.7 C 0 km/h
431 22-05-2009 14:07:48 23 C 4.11 g/m*3 23 C 0 km/h
432 22-05-2009 14:19:48 22.9 C 4.09 g/m*3 22.9 C 0 km/h
433 22-05-2009 14:31:48 22.9 C 4.09 g/m*3 22.9 C 0 km/h
434 22-05-2009 14:43:48 22.9 C 4.09 g/m*3 22.9 C 0 km/h
435 22-05-2009 14:55:48 23.2 C 4.16 g/m*3 23.2 C 0 km/h
436 22-05-2009 15:07:48 23.8 C 4.73 g/m*3 23.8 C 0 km/h
437 22-05-2009 15:19:47 23.6 C 4.25 g/m*3 23.6 C 0 km/h
438 22-05-2009 15:31:48 23.8 C 4.3 g/m*3 23.8 C 0 km/h
439 22-05-2009 15:43:47 24.5 C 4.48 g/m*3 24.5 C 0 km/h
440 22-05-2009 15:55:47 23.8 C 4.3 g/m*3 23.8 C 0 km/h
441 22-05-2009 16:07:47 24.7 C 4.53 g/m*3 24.7 C 0 km/h
442 22-05-2009 16:19:46 24.4 C 4.45 g/m*3 24.4 C 0 km/h
443 22-05-2009 16:31:47 22.5 C 3.99 g/m*3 22.5 C 0 km/h
444 22-05-2009 16:43:46 21.9 C 4.05 g/m*3 21.9 C 0 km/h
445 22-05-2009 16:55:46 23 C 4.32 g/m*3 23 C 0 km/h
446 22-05-2009 17:07:47 23.1 C 4.13 g/m*3 23.1 C 0 km/h
447 22-05-2009 17:19:46 22.8 C 4.27 g/m*3 22.8 C 0 km/h
448 22-05-2009 17:31:46 23.6 C 4.25 g/m*3 23.6 C 0 km/h
449 22-05-2009 17:43:45 23.8 C 4.3 g/m*3 23.8 C 0 km/h
450 22-05-2009 17:55:45 23.7 C 4.28 g/m*3 23.7 C 0 km/h
Sensor: Nr:Datum:Temp:Abs-Feuchte:Windchill:Wind:
Aussen-T/F 451 22-05-2009 18:07:46 24.1 C 4.38 g/m*3 24.1 C 0 km/h
452 22-05-2009 18:19:46 24.5 C 4.48 g/m*3 24.5 C 0 km/h
453 22-05-2009 18:31:45 23.9 C 4.33 g/m*3 23.9 C 0 km/h
454 22-05-2009 18:43:46 23.2 C 4.16 g/m*3 23.2 C 0 km/h
455 22-05-2009 18:55:46 24.4 C 4.45 g/m*3 24.4 C 0 km/h
456 22-05-2009 19:07:45 23.7 C 4.28 g/m*3 23.7 C 0 km/h
457 22-05-2009 19:19:45 24.1 C 4.38 g/m*3 24.1 C 0 km/h
458 22-05-2009 19:31:44 23.4 C 4.21 g/m*3 23.4 C 0 km/h
459 22-05-2009 19:43:45 23.8 C 4.3 g/m*3 23.8 C 0 km/h
460 22-05-2009 19:55:45 23.8 C 4.3 g/m*3 23.8 C 0 km/h
461 22-05-2009 20:07:44 22.8 C 4.06 g/m*3 22.8 C 0 km/h
462 22-05-2009 20:19:44 21.8 C 3.84 g/m*3 21.8 C 0 km/h
463 22-05-2009 20:31:45 21.2 C 4.26 g/m*3 21.2 C 0 km/h
464 22-05-2009 20:43:44 20.3 C 4.22 g/m*3 20.3 C 0 km/h
465 22-05-2009 20:55:44 19.6 C 4.56 g/m*3 19.6 C 0 km/h
466 22-05-2009 21:07:44 19.3 C 4.98 g/m*3 19.3 C 0 km/h
467 22-05-2009 21:19:44 18.6 C 4.62 g/m*3 18.6 C 0 km/h
468 22-05-2009 21:31:44 18.3 C 5 g/m*3 18.3 C 0 km/h
469 22-05-2009 21:43:44 18.1 C 4.64 g/m*3 18.1 C 0 km/h
470 22-05-2009 21:55:44 17.7 C 4.68 g/m*3 17.7 C 0 km/h
471 22-05-2009 22:07:43 17.5 C 4.92 g/m*3 17.5 C 0 km/h
472 22-05-2009 22:19:44 17.2 C 4.69 g/m*3 17.2 C 0 km/h
473 22-05-2009 22:32:44 16.8 C 5 g/m*3 16.8 C 0 km/h
474 22-05-2009 22:44:44 16.3 C 4.99 g/m*3 16.3 C 0 km/h
475 22-05-2009 22:56:44 16.1 C 5.21 g/m*3 16.1 C 0 km/h
Sensor: Nr:Datum:Temp:Abs-Feuchte:Windchill:Wind:
Aussen-T/F 476 22-05-2009 23:08:44 15.9 C 5.42 g/m*3 15.9 C 0 km/h
477 22-05-2009 23:20:44 15.5 C 5.55 g/m*3 15.5 C 0 km/h
478 22-05-2009 23:32:44 14.8 C 5.83 g/m*3 14.8 C 0 km/h
479 22-05-2009 23:44:44 14.4 C 5.93 g/m*3 14.4 C 0 km/h
480 22-05-2009 23:56:44 14.2 C 5.86 g/m*3 14.2 C 0 km/h
481 23-05-2009 00:08:44 13.8 C 5.96 g/m*3 13.8 C 0 km/h
482 23-05-2009 00:20:45 13.5 C 6.08 g/m*3 13.5 C 0 km/h
483 23-05-2009 00:32:45 13.4 C 6.16 g/m*3 13.4 C 0 km/h
484 23-05-2009 00:44:45 13.2 C 6.2 g/m*3 13.2 C 0 km/h
485 23-05-2009 00:56:45 13 C 6.12 g/m*3 13 C 0 km/h
486 23-05-2009 01:08:45 12.9 C 6.31 g/m*3 12.9 C 0 km/h
487 23-05-2009 01:20:45 12.5 C 6.27 g/m*3 12.5 C 0 km/h
488 23-05-2009 01:32:45 12.3 C 6.3 g/m*3 12.3 C 0 km/h
489 23-05-2009 01:44:45 12.1 C 6.33 g/m*3 12.1 C 0 km/h
490 23-05-2009 01:56:45 12 C 6.5 g/m*3 12 C 0 km/h
491 23-05-2009 02:08:45 11.8 C 6.53 g/m*3 11.8 C 0 km/h
492 23-05-2009 02:20:45 11.5 C 6.51 g/m*3 11.5 C 0 km/h
493 23-05-2009 02:32:45 11.1 C 6.55 g/m*3 11.1 C 0 km/h
494 23-05-2009 02:44:45 10.9 C 6.66 g/m*3 10.9 C 0 km/h
495 23-05-2009 02:56:45 10.6 C 6.64 g/m*3 10.6 C 0 km/h
496 23-05-2009 03:08:45 10.6 C 6.73 g/m*3 10.6 C 0 km/h
497 23-05-2009 03:20:45 10.5 C 6.79 g/m*3 10.5 C 0 km/h
498 23-05-2009 03:32:45 10.4 C 6.65 g/m*3 10.4 C 0 km/h
499 23-05-2009 03:44:45 10.3 C 6.61 g/m*3 10.3 C 0 km/h
500 23-05-2009 03:56:45 10.2 C 6.66 g/m*3 10.2 C 0 km/h
Sensor: Nr:Datum:Temp:Abs-Feuchte:Windchill:Wind:
Aussen-T/F 501 23-05-2009 04:08:46 10.1 C 6.62 g/m*3 10.1 C 0 km/h
502 23-05-2009 04:20:46 9.9 C 6.72 g/m*3 9.9 C 0 km/h
503 23-05-2009 04:32:46 9.6 C 6.6 g/m*3 9.6 C 0 km/h
504 23-05-2009 04:44:46 9.5 C 6.64 g/m*3 9.5 C 0 km/h
505 23-05-2009 04:56:46 9.5 C 6.64 g/m*3 9.5 C 0 km/h
506 23-05-2009 05:08:46 9.4 C 6.69 g/m*3 9.4 C 0 km/h
507 23-05-2009 05:20:46 9.2 C 6.61 g/m*3 9.2 C 0 km/h
508 23-05-2009 05:32:46 9.2 C 6.7 g/m*3 9.2 C 0 km/h
509 23-05-2009 05:44:46 9.1 C 6.57 g/m*3 9.1 C 0 km/h
510 23-05-2009 05:56:46 9 C 6.52 g/m*3 9 C 0 km/h
511 23-05-2009 06:08:46 8.8 C 6.7 g/m*3 8.8 C 0 km/h
512 23-05-2009 06:20:46 8.9 C 6.83 g/m*3 8.9 C 0 km/h
513 23-05-2009 06:32:46 9 C 6.88 g/m*3 9 C 0 km/h
514 23-05-2009 06:44:46 9 C 6.88 g/m*3 9 C 0 km/h
515 23-05-2009 06:56:46 9 C 6.88 g/m*3 9 C 0 km/h
516 23-05-2009 07:08:44 9.2 C 6.97 g/m*3 9.2 C 0 km/h
517 23-05-2009 07:20:44 9.1 C 6.92 g/m*3 9.1 C 0 km/h
518 23-05-2009 07:32:45 9.2 C 6.97 g/m*3 9.2 C 0 km/h
519 23-05-2009 07:44:44 9.6 C 7.15 g/m*3 9.6 C 0 km/h
520 23-05-2009 07:56:44 9.8 C 6.96 g/m*3 9.8 C 0 km/h
521 23-05-2009 08:08:44 10.2 C 7.04 g/m*3 10.2 C 0 km/h
522 23-05-2009 08:20:44 10.6 C 7.12 g/m*3 10.6 C 0 km/h
523 23-05-2009 08:32:44 11 C 7.11 g/m*3 11 C 0 km/h
524 23-05-2009 08:44:43 11.4 C 7.29 g/m*3 11.4 C 0 km/h
525 23-05-2009 08:56:43 12 C 7.14 g/m*3 12 C 0 km/h
Sensor: Nr:Datum:Temp:Abs-Feuchte:Windchill:Wind:
Aussen-T/F 526 23-05-2009 09:08:44 12.6 C 7.3 g/m*3 12.6 C 0 km/h
527 23-05-2009 09:20:43 13.2 C 7.23 g/m*3 13.2 C 0 km/h
528 23-05-2009 09:32:43 13.8 C 7.39 g/m*3 13.8 C 0 km/h
529 23-05-2009 09:44:43 14.2 C 7.33 g/m*3 14.2 C 0 km/h
530 23-05-2009 09:56:43 15.2 C 7.66 g/m*3 15.2 C 0 km/h
531 23-05-2009 10:08:43 16 C 7.77 g/m*3 16 C 0 km/h
532 23-05-2009 10:20:43 16.9 C 7.19 g/m*3 16.9 C 0 km/h
533 23-05-2009 10:32:02 17.8 C 6.68 g/m*3 17.8 C 0 km/h
534 23-05-2009 10:44:02 18.6 C 6.37 g/m*3 18.6 C 0 km/h
535 23-05-2009 10:56:02 18.9 C 5.99 g/m*3 18.9 C 0 km/h
536 23-05-2009 11:08:02 19.5 C 6.21 g/m*3 19.5 C 0 km/h
537 23-05-2009 11:20:02 19.7 C 6.11 g/m*3 19.7 C 0 km/h
538 23-05-2009 11:32:03 19.8 C 5.98 g/m*3 19.8 C 0 km/h
539 23-05-2009 11:44:03 20.8 C 6.16 g/m*3 20.8 C 0 km/h
540 23-05-2009 11:56:02 21.6 C 5.88 g/m*3 21.6 C 0 km/h
541 23-05-2009 12:08:02 22 C 5.43 g/m*3 22 C 0 km/h
542 23-05-2009 12:20:01 23.1 C 5.17 g/m*3 23.1 C 0 km/h
543 23-05-2009 12:32:01 23.9 C 5.41 g/m*3 23.9 C 0 km/h
544 23-05-2009 12:44:01 24.5 C 5.37 g/m*3 24.5 C 0 km/h
545 23-05-2009 12:56:01 24.2 C 4.84 g/m*3 24.2 C 0 km/h
546 23-05-2009 13:08:01 24.9 C 5.04 g/m*3 24.9 C 0 km/h
547 23-05-2009 13:20:01 26.2 C 4.92 g/m*3 26.2 C 0 km/h
548 23-05-2009 13:32:00 25.8 C 4.82 g/m*3 25.8 C 0 km/h
549 23-05-2009 13:44:00 26.8 C 5.09 g/m*3 26.8 C 0 km/h
550 23-05-2009 13:56:01 26.3 C 4.95 g/m*3 26.3 C 0 km/h
Sensor: Nr:Datum:Temp:Abs-Feuchte:Windchill:Wind:
Aussen-T/F 551 23-05-2009 14:08:00 26 C 5.11 g/m*3 26 C 0 km/h
552 23-05-2009 14:20:00 25.7 C 5.03 g/m*3 25.7 C 0 km/h
553 23-05-2009 14:32:00 26.1 C 4.9 g/m*3 26.1 C 0 km/h
554 23-05-2009 14:44:00 26.7 C 5.32 g/m*3 26.7 C 0 km/h
555 23-05-2009 14:56:00 27.4 C 5.26 g/m*3 27.4 C 0 km/h
556 23-05-2009 15:08:00 27.3 C 5.23 g/m*3 27.3 C 0 km/h
557 23-05-2009 15:20:59 27.6 C 5.32 g/m*3 27.6 C 0 km/h
558 23-05-2009 15:44:00 28.5 C 5.59 g/m*3 28.5 C 0 km/h
559 23-05-2009 15:44:59 29.3 C 5.84 g/m*3 29.3 C 0 km/h
560 23-05-2009 15:56:59 28.9 C 5.71 g/m*3 28.9 C 0 km/h
561 23-05-2009 16:08:59 29.9 C 6.03 g/m*3 29.9 C 0 km/h
562 23-05-2009 16:19:59 29.2 C 5.81 g/m*3 29.2 C 0 km/h
563 23-05-2009 16:32:59 30.1 C 6.1 g/m*3 30.1 C 0 km/h
564 23-05-2009 16:44:59 30.4 C 6.2 g/m*3 30.4 C 0 km/h
565 23-05-2009 16:56:59 30.9 C 6.37 g/m*3 30.9 C 0 km/h
566 23-05-2009 17:08:58 30.4 C 6.2 g/m*3 30.4 C 0 km/h
567 23-05-2009 17:20:59 30.8 C 6.33 g/m*3 30.8 C 0 km/h
568 23-05-2009 17:32:58 30.8 C 6.33 g/m*3 30.8 C 0 km/h
569 23-05-2009 17:44:59 31.2 C 6.47 g/m*3 31.2 C 0 km/h
570 23-05-2009 17:56:59 30.7 C 6.3 g/m*3 30.7 C 0 km/h
571 23-05-2009 18:08:58 30.1 C 6.1 g/m*3 30.1 C 0 km/h
572 23-05-2009 18:20:58 30.5 C 6.23 g/m*3 30.5 C 0 km/h
573 23-05-2009 18:32:57 29.9 C 6.03 g/m*3 29.9 C 0 km/h
574 23-05-2009 18:44:58 28.6 C 5.9 g/m*3 28.6 C 0 km/h
575 23-05-2009 18:56:59 28.3 C 7.74 g/m*3 28.3 C 0 km/h
Sensor: Nr:Datum:Temp:Abs-Feuchte:Windchill:Wind:
Aussen-T/F 576 23-05-2009 19:08:57 26.8 C 7.38 g/m*3 26.8 C 0 km/h
577 23-05-2009 19:20:57 25.5 C 7.58 g/m*3 25.5 C 0 km/h
578 23-05-2009 19:32:58 24.6 C 7.43 g/m*3 24.6 C 0 km/h
579 23-05-2009 19:44:57 24 C 6.96 g/m*3 24 C 0 km/h
580 23-05-2009 19:56:57 23.8 C 7.53 g/m*3 23.8 C 0 km/h
581 23-05-2009 20:08:57 23.4 C 7.15 g/m*3 23.4 C 0 km/h
582 23-05-2009 20:20:57 23.1 C 7.03 g/m*3 23.1 C 0 km/h
583 23-05-2009 20:32:57 22.8 C 7.11 g/m*3 22.8 C 0 km/h
584 23-05-2009 20:44:56 22.4 C 6.75 g/m*3 22.4 C 0 km/h
585 23-05-2009 20:56:56 22 C 6.99 g/m*3 22 C 0 km/h
586 23-05-2009 21:08:56 21.5 C 7.54 g/m*3 21.5 C 0 km/h
587 23-05-2009 21:20:56 21 C 7.51 g/m*3 21 C 0 km/h
588 23-05-2009 21:32:56 20.7 C 7.56 g/m*3 20.7 C 0 km/h
589 23-05-2009 21:44:56 20.6 C 7.52 g/m*3 20.6 C 0 km/h
590 23-05-2009 21:56:56 20.3 C 7.56 g/m*3 20.3 C 0 km/h
591 23-05-2009 22:08:55 20.2 C 7.34 g/m*3 20.2 C 0 km/h
592 23-05-2009 22:20:56 20 C 7.43 g/m*3 20 C 0 km/h
593 23-05-2009 22:32:56 20 C 7.43 g/m*3 20 C 0 km/h
594 23-05-2009 22:45:03 19.7 C 7.64 g/m*3 19.7 C 0 km/h
595 23-05-2009 22:57:03 19.6 C 7.6 g/m*3 19.6 C 0 km/h
596 23-05-2009 23:09:03 19.4 C 7.84 g/m*3 19.4 C 0 km/h
597 23-05-2009 23:21:03 19.1 C 8.03 g/m*3 19.1 C 0 km/h
598 23-05-2009 23:33:03 19.1 C 8.2 g/m*3 19.1 C 0 km/h
599 23-05-2009 23:45:04 18.9 C 7.94 g/m*3 18.9 C 0 km/h
600 23-05-2009 23:57:04 18.5 C 7.59 g/m*3 18.5 C 0 km/h
Sensor: Nr:Datum:Temp:Abs-Feuchte:Windchill:Wind:
Aussen-T/F 601 24-05-2009 00:09:04 18.3 C 7.66 g/m*3 18.3 C 0 km/h
602 24-05-2009 00:21:04 17.9 C 7.63 g/m*3 17.9 C 0 km/h
603 24-05-2009 00:33:04 17.7 C 7.85 g/m*3 17.7 C 0 km/h
604 24-05-2009 00:45:04 17.7 C 7.85 g/m*3 17.7 C 0 km/h
605 24-05-2009 00:57:04 17.6 C 7.8 g/m*3 17.6 C 0 km/h
606 24-05-2009 01:09:04 17.5 C 7.75 g/m*3 17.5 C 0 km/h
607 24-05-2009 01:21:04 17.2 C 7.91 g/m*3 17.2 C 0 km/h
608 24-05-2009 01:33:04 17 C 7.96 g/m*3 17 C 0 km/h
609 24-05-2009 01:45:04 17 C 8.1 g/m*3 17 C 0 km/h
610 24-05-2009 01:57:04 16.8 C 8.29 g/m*3 16.8 C 0 km/h
611 24-05-2009 02:09:04 16.7 C 8.38 g/m*3 16.7 C 0 km/h
612 24-05-2009 02:21:04 16.4 C 8.37 g/m*3 16.4 C 0 km/h
613 24-05-2009 02:33:04 16 C 8.31 g/m*3 16 C 0 km/h
614 24-05-2009 02:45:04 15.9 C 8.53 g/m*3 15.9 C 0 km/h
615 24-05-2009 02:57:04 15.7 C 8.43 g/m*3 15.7 C 0 km/h
616 24-05-2009 03:09:04 15.3 C 8.36 g/m*3 15.3 C 0 km/h
617 24-05-2009 03:21:04 15.2 C 8.44 g/m*3 15.2 C 0 km/h
618 24-05-2009 03:33:05 14.9 C 8.41 g/m*3 14.9 C 0 km/h
619 24-05-2009 03:45:05 14.8 C 8.49 g/m*3 14.8 C 0 km/h
620 24-05-2009 03:57:05 14.6 C 8.63 g/m*3 14.6 C 0 km/h
621 24-05-2009 04:09:05 14.2 C 8.67 g/m*3 14.2 C 0 km/h
622 24-05-2009 04:21:05 14.1 C 8.62 g/m*3 14.1 C 0 km/h
623 24-05-2009 04:33:05 13.9 C 8.51 g/m*3 13.9 C 0 km/h
624 24-05-2009 04:45:05 13.9 C 8.51 g/m*3 13.9 C 0 km/h
625 24-05-2009 04:57:05 13.8 C 8.46 g/m*3 13.8 C 0 km/h
Sensor: Nr:Datum:Temp:Abs-Feuchte:Windchill:Wind:
Aussen-T/F 626 24-05-2009 05:09:05 13.5 C 8.42 g/m*3 13.5 C 0 km/h
627 24-05-2009 05:21:05 13.5 C 8.66 g/m*3 13.5 C 0 km/h
628 24-05-2009 05:33:05 13.3 C 8.55 g/m*3 13.3 C 0 km/h
629 24-05-2009 05:45:05 13.3 C 8.55 g/m*3 13.3 C 0 km/h
630 24-05-2009 05:57:05 13.3 C 8.55 g/m*3 13.3 C 0 km/h
631 24-05-2009 06:09:05 13.4 C 8.6 g/m*3 13.4 C 0 km/h
632 24-05-2009 06:21:05 13.5 C 8.77 g/m*3 13.5 C 0 km/h
633 24-05-2009 06:33:05 13.5 C 8.89 g/m*3 13.5 C 0 km/h
634 24-05-2009 06:45:05 13.4 C 8.95 g/m*3 13.4 C 0 km/h
635 24-05-2009 06:57:05 13.3 C 8.9 g/m*3 13.3 C 0 km/h
636 24-05-2009 07:09:05 13.4 C 8.95 g/m*3 13.4 C 0 km/h
637 24-05-2009 07:21:56 13.5 C 9.01 g/m*3 13.5 C 0 km/h
638 24-05-2009 07:33:57 13.8 C 9.17 g/m*3 13.8 C 0 km/h
639 24-05-2009 07:45:56 13.9 C 9.11 g/m*3 13.9 C 0 km/h
640 24-05-2009 07:57:56 14.3 C 9.09 g/m*3 14.3 C 0 km/h
641 24-05-2009 08:09:56 14.7 C 9.19 g/m*3 14.7 C 0 km/h
642 24-05-2009 08:21:56 15.2 C 9.09 g/m*3 15.2 C 0 km/h
643 24-05-2009 08:33:56 15.6 C 9.18 g/m*3 15.6 C 0 km/h
644 24-05-2009 08:45:56 16.1 C 9.32 g/m*3 16.1 C 0 km/h
645 24-05-2009 08:57:56 16.8 C 9.44 g/m*3 16.8 C 0 km/h
646 24-05-2009 09:09:55 17.4 C 9.19 g/m*3 17.4 C 0 km/h
647 24-05-2009 09:21:56 17.9 C 8.86 g/m*3 17.9 C 0 km/h
648 24-05-2009 09:33:55 18.7 C 8.97 g/m*3 18.7 C 0 km/h
649 24-05-2009 09:45:56 19.3 C 8.46 g/m*3 19.3 C 0 km/h
650 24-05-2009 09:57:56 19.9 C 8.76 g/m*3 19.9 C 0 km/h
Sensor: Nr:Datum:Temp:Abs-Feuchte:Windchill:Wind:
Aussen-T/F 651 24-05-2009 10:09:55 20.1 C 8.34 g/m*3 20.1 C 0 km/h
652 24-05-2009 10:21:55 21 C 8.24 g/m*3 21 C 0 km/h
653 24-05-2009 10:33:55 21.2 C 8.34 g/m*3 21.2 C 0 km/h
654 24-05-2009 10:45:55 22.2 C 8.44 g/m*3 22.2 C 0 km/h
655 24-05-2009 10:57:55 22.6 C 8.44 g/m*3 22.6 C 0 km/h
656 24-05-2009 11:09:55 23.8 C 9.46 g/m*3 23.8 C 0 km/h
657 24-05-2009 11:21:54 24.2 C 8.14 g/m*3 24.2 C 0 km/h
658 24-05-2009 11:33:55 25.3 C 7.96 g/m*3 25.3 C 0 km/h
659 24-05-2009 11:45:54 25.5 C 7.81 g/m*3 25.5 C 0 km/h
660 24-05-2009 11:57:54 26 C 8.03 g/m*3 26 C 0 km/h
661 24-05-2009 12:09:54 25.6 C 7.14 g/m*3 25.6 C 0 km/h
662 24-05-2009 12:21:54 26.9 C 7.68 g/m*3 26.9 C 0 km/h
663 24-05-2009 12:33:54 27.6 C 7.18 g/m*3 27.6 C 0 km/h
664 24-05-2009 12:45:53 28.6 C 7.59 g/m*3 28.6 C 0 km/h
665 24-05-2009 12:57:53 29.7 C 7.46 g/m*3 29.7 C 0 km/h
666 24-05-2009 13:09:53 30.1 C 7.01 g/m*3 30.1 C 0 km/h
667 24-05-2009 13:21:54 30.6 C 6.89 g/m*3 30.6 C 0 km/h
668 24-05-2009 13:33:53 30.3 C 6.78 g/m*3 30.3 C 0 km/h
669 24-05-2009 13:45:53 29.2 C 6.1 g/m*3 29.2 C 0 km/h
670 24-05-2009 13:57:53 29.1 C 6.64 g/m*3 29.1 C 0 km/h
671 24-05-2009 14:09:53 29.1 C 6.64 g/m*3 29.1 C 0 km/h
672 24-05-2009 14:21:53 28.5 C 6.99 g/m*3 28.5 C 0 km/h
673 24-05-2009 14:33:52 28.8 C 7.1 g/m*3 28.8 C 0 km/h
674 24-05-2009 14:45:53 29 C 6.89 g/m*3 29 C 0 km/h
675 24-05-2009 14:57:54 30.6 C 6.89 g/m*3 30.6 C 0 km/h
Sensor: Nr:Datum:Temp:Abs-Feuchte:Windchill:Wind:
Aussen-T/F 676 24-05-2009 15:09:52 30.3 C 6.78 g/m*3 30.3 C 0 km/h
677 24-05-2009 15:21:52 31.2 C 6.47 g/m*3 31.2 C 0 km/h
678 24-05-2009 15:33:52 31.4 C 6.54 g/m*3 31.4 C 0 km/h
679 24-05-2009 15:45:52 31.9 C 6.72 g/m*3 31.9 C 0 km/h
680 24-05-2009 15:57:52 31.9 C 6.72 g/m*3 31.9 C 0 km/h
681 24-05-2009 16:09:52 32.1 C 6.79 g/m*3 32.1 C 0 km/h
682 24-05-2009 16:21:52 31.9 C 6.72 g/m*3 31.9 C 0 km/h
683 24-05-2009 16:33:52 31.7 C 6.64 g/m*3 31.7 C 0 km/h
684 24-05-2009 16:45:51 31.5 C 6.9 g/m*3 31.5 C 0 km/h
685 24-05-2009 16:57:51 31.5 C 6.9 g/m*3 31.5 C 0 km/h
686 24-05-2009 17:09:52 30.7 C 7.24 g/m*3 30.7 C 0 km/h
687 24-05-2009 17:21:51 31 C 7.04 g/m*3 31 C 0 km/h
688 24-05-2009 17:33:51 31.3 C 6.83 g/m*3 31.3 C 0 km/h
689 24-05-2009 17:45:51 31.9 C 6.72 g/m*3 31.9 C 0 km/h
690 24-05-2009 17:57:51 32 C 6.75 g/m*3 32 C 0 km/h
691 24-05-2009 18:09:51 31.3 C 6.83 g/m*3 31.3 C 0 km/h
692 24-05-2009 18:21:51 31.5 C 6.9 g/m*3 31.5 C 0 km/h
693 24-05-2009 18:33:50 31.7 C 6.98 g/m*3 31.7 C 0 km/h
694 24-05-2009 18:45:50 31.7 C 6.64 g/m*3 31.7 C 0 km/h
695 24-05-2009 18:57:50 31.2 C 6.79 g/m*3 31.2 C 0 km/h
696 24-05-2009 19:09:50 31.1 C 7.4 g/m*3 31.1 C 0 km/h
697 24-05-2009 19:21:50 30.9 C 7 g/m*3 30.9 C 0 km/h
698 24-05-2009 19:33:50 30.9 C 7.64 g/m*3 30.9 C 0 km/h
699 24-05-2009 19:45:50 30.2 C 7.66 g/m*3 30.2 C 0 km/h
700 24-05-2009 19:57:50 30 C 7.88 g/m*3 30 C 0 km/h
Sensor: Nr:Datum:Temp:Abs-Feuchte:Windchill:Wind:
Aussen-T/F 701 24-05-2009 20:09:50 28.9 C 8 g/m*3 28.9 C 0 km/h
702 24-05-2009 20:21:49 28.7 C 8.48 g/m*3 28.7 C 0 km/h
703 24-05-2009 20:33:49 28.2 C 8.8 g/m*3 28.2 C 0 km/h
704 24-05-2009 20:45:49 27.2 C 9.37 g/m*3 27.2 C 0 km/h
705 24-05-2009 20:57:49 26 C 9.25 g/m*3 26 C 0 km/h
706 24-05-2009 21:09:49 25.2 C 9.31 g/m*3 25.2 C 0 km/h
707 24-05-2009 21:21:49 24.3 C 9.29 g/m*3 24.3 C 0 km/h
708 24-05-2009 21:33:48 24 C 9.14 g/m*3 24 C 0 km/h
709 24-05-2009 21:45:49 23.9 C 9.3 g/m*3 23.9 C 0 km/h
710 24-05-2009 21:57:49 23.6 C 9.36 g/m*3 23.6 C 0 km/h
711 24-05-2009 22:09:48 23.2 C 9.56 g/m*3 23.2 C 0 km/h
712 24-05-2009 22:22:49 22.9 C 9.61 g/m*3 22.9 C 0 km/h
713 24-05-2009 22:34:49 22.8 C 9.75 g/m*3 22.8 C 0 km/h
714 24-05-2009 22:46:49 22.5 C 9.39 g/m*3 22.5 C 0 km/h
715 24-05-2009 22:58:49 22.3 C 9.68 g/m*3 22.3 C 0 km/h
716 24-05-2009 23:10:49 22 C 9.7 g/m*3 22 C 0 km/h
717 24-05-2009 23:22:49 21.7 C 9.92 g/m*3 21.7 C 0 km/h
718 24-05-2009 23:34:49 21.5 C 9.81 g/m*3 21.5 C 0 km/h
719 24-05-2009 23:46:49 21.2 C 9.82 g/m*3 21.2 C 0 km/h
720 24-05-2009 23:58:49 21 C 9.89 g/m*3 21 C 0 km/h
721 25-05-2009 00:10:49 20.7 C 9.9 g/m*3 20.7 C 0 km/h
722 25-05-2009 00:22:49 20.5 C 10.14 g/m*3 20.5 C 0 km/h
723 25-05-2009 00:34:49 20.3 C 10.02 g/m*3 20.3 C 0 km/h
724 25-05-2009 00:46:49 20 C 10.02 g/m*3 20 C 0 km/h
725 25-05-2009 00:58:49 19.6 C 10.3 g/m*3 19.6 C 0 km/h
Sensor: Nr:Datum:Temp:Abs-Feuchte:Windchill:Wind:
Aussen-T/F 726 25-05-2009 01:10:49 19.4 C 10.18 g/m*3 19.4 C 0 km/h
727 25-05-2009 01:22:49 19.3 C 10.12 g/m*3 19.3 C 0 km/h
728 25-05-2009 01:34:49 19.2 C 10.06 g/m*3 19.2 C 0 km/h
729 25-05-2009 01:46:49 18.9 C 10.37 g/m*3 18.9 C 0 km/h
730 25-05-2009 01:58:49 18.7 C 10.41 g/m*3 18.7 C 0 km/h
731 25-05-2009 02:10:49 18.6 C 10.35 g/m*3 18.6 C 0 km/h
732 25-05-2009 02:22:50 18.4 C 10.38 g/m*3 18.4 C 0 km/h
733 25-05-2009 02:34:50 18.2 C 10.26 g/m*3 18.2 C 0 km/h
734 25-05-2009 02:46:50 18 C 10.14 g/m*3 18 C 0 km/h
735 25-05-2009 02:58:50 17.9 C 10.23 g/m*3 17.9 C 0 km/h
736 25-05-2009 03:10:50 17.7 C 10.26 g/m*3 17.7 C 0 km/h
737 25-05-2009 03:22:50 17.5 C 10.29 g/m*3 17.5 C 0 km/h
738 25-05-2009 03:34:50 17.4 C 10.23 g/m*3 17.4 C 0 km/h
739 25-05-2009 03:46:50 17.3 C 10.31 g/m*3 17.3 C 0 km/h
740 25-05-2009 03:58:50 17.1 C 10.19 g/m*3 17.1 C 0 km/h
741 25-05-2009 04:10:50 17 C 10.27 g/m*3 17 C 0 km/h
742 25-05-2009 04:22:50 16.9 C 10.36 g/m*3 16.9 C 0 km/h
743 25-05-2009 04:34:50 16.7 C 10.37 g/m*3 16.7 C 0 km/h
744 25-05-2009 04:46:50 16.5 C 10.25 g/m*3 16.5 C 0 km/h
745 25-05-2009 04:58:50 16.4 C 10.19 g/m*3 16.4 C 0 km/h
746 25-05-2009 05:10:50 16.2 C 10.2 g/m*3 16.2 C 0 km/h
747 25-05-2009 05:22:50 16.1 C 10.14 g/m*3 16.1 C 0 km/h
748 25-05-2009 05:34:50 15.9 C 10.16 g/m*3 15.9 C 0 km/h
749 25-05-2009 05:46:50 15.9 C 10.29 g/m*3 15.9 C 0 km/h
750 25-05-2009 05:58:50 15.8 C 10.23 g/m*3 15.8 C 0 km/h
Sensor: Nr:Datum:Temp:Abs-Feuchte:Windchill:Wind:
Aussen-T/F 751 25-05-2009 06:10:51 15.7 C 10.3 g/m*3 15.7 C 0 km/h
752 25-05-2009 06:22:51 15.6 C 10.24 g/m*3 15.6 C 0 km/h
753 25-05-2009 06:34:51 15.8 C 10.36 g/m*3 15.8 C 0 km/h
754 25-05-2009 06:46:51 16 C 10.49 g/m*3 16 C 0 km/h
755 25-05-2009 06:58:51 16 C 10.49 g/m*3 16 C 0 km/h
756 25-05-2009 07:10:48 16 C 10.49 g/m*3 16 C 0 km/h
757 25-05-2009 07:22:48 16.2 C 10.62 g/m*3 16.2 C 0 km/h
758 25-05-2009 07:34:48 16.2 C 10.62 g/m*3 16.2 C 0 km/h
759 25-05-2009 07:46:48 16.4 C 10.61 g/m*3 16.4 C 0 km/h
760 25-05-2009 07:58:48 16.7 C 10.8 g/m*3 16.7 C 0 km/h
761 25-05-2009 08:10:47 17.2 C 10.98 g/m*3 17.2 C 0 km/h
762 25-05-2009 08:22:48 17.5 C 11.03 g/m*3 17.5 C 0 km/h
763 25-05-2009 08:34:48 17.9 C 10.99 g/m*3 17.9 C 0 km/h
764 25-05-2009 08:46:47 18.3 C 10.94 g/m*3 18.3 C 0 km/h
765 25-05-2009 08:58:47 18.8 C 11.27 g/m*3 18.8 C 0 km/h
766 25-05-2009 09:10:48 19.5 C 11.08 g/m*3 19.5 C 0 km/h
767 25-05-2009 09:22:47 20.3 C 10.73 g/m*3 20.3 C 0 km/h
768 25-05-2009 09:34:47 21 C 10.62 g/m*3 21 C 0 km/h
769 25-05-2009 09:46:46 21.5 C 10.75 g/m*3 21.5 C 0 km/h
770 25-05-2009 09:58:46 22.2 C 10.6 g/m*3 22.2 C 0 km/h
771 25-05-2009 10:10:47 22.9 C 10.42 g/m*3 22.9 C 0 km/h
772 25-05-2009 10:22:47 23.7 C 10.69 g/m*3 23.7 C 0 km/h
773 25-05-2009 10:34:46 24.4 C 10.46 g/m*3 24.4 C 0 km/h
774 25-05-2009 10:46:47 24.9 C 10.53 g/m*3 24.9 C 0 km/h
775 25-05-2009 10:58:47 25.8 C 10.11 g/m*3 25.8 C 0 km/h
Sensor: Nr:Datum:Temp:Abs-Feuchte:Windchill:Wind:
Aussen-T/F 776 25-05-2009 11:10:46 26.4 C 10.7 g/m*3 26.4 C 0 km/h
777 25-05-2009 11:22:46 27.2 C 9.89 g/m*3 27.2 C 0 km/h
778 25-05-2009 11:34:01 27.3 C 9.94 g/m*3 27.3 C 0 km/h
779 25-05-2009 11:46:01 28 C 9.79 g/m*3 28 C 0 km/h
780 25-05-2009 11:58:02 28.7 C 9.61 g/m*3 28.7 C 0 km/h
781 25-05-2009 12:10:01 29.7 C 9.85 g/m*3 29.7 C 0 km/h
782 25-05-2009 12:22:01 29.8 C 9.6 g/m*3 29.8 C 0 km/h
783 25-05-2009 12:34:01 30.6 C 9.08 g/m*3 30.6 C 0 km/h
784 25-05-2009 12:46:01 31.3 C 8.78 g/m*3 31.3 C 0 km/h
785 25-05-2009 12:58:01 31.5 C 8.55 g/m*3 31.5 C 0 km/h
786 25-05-2009 13:10:01 31.8 C 8.02 g/m*3 31.8 C 0 km/h
787 25-05-2009 13:22:00 31.8 C 7.35 g/m*3 31.8 C 0 km/h
788 25-05-2009 13:34:01 32.2 C 7.85 g/m*3 32.2 C 0 km/h
789 25-05-2009 13:46:00 32.4 C 6.9 g/m*3 32.4 C 0 km/h
790 25-05-2009 13:58:00 32.3 C 7.2 g/m*3 32.3 C 0 km/h
791 25-05-2009 14:10:00 32 C 7.09 g/m*3 32 C 0 km/h
792 25-05-2009 14:22:59 32 C 7.76 g/m*3 32 C 0 km/h
793 25-05-2009 14:34:00 32.3 C 7.2 g/m*3 32.3 C 0 km/h
794 25-05-2009 14:46:59 32.6 C 6.97 g/m*3 32.6 C 0 km/h
795 25-05-2009 14:58:59 32.6 C 7.67 g/m*3 32.6 C 0 km/h
796 25-05-2009 15:10:59 33.2 C 7.55 g/m*3 33.2 C 0 km/h
797 25-05-2009 15:22:00 33.3 C 7.23 g/m*3 33.3 C 0 km/h
798 25-05-2009 15:34:59 33.3 C 7.23 g/m*3 33.3 C 0 km/h
799 25-05-2009 15:46:59 33.4 C 7.27 g/m*3 33.4 C 0 km/h
800 25-05-2009 15:58:59 33.6 C 7.35 g/m*3 33.6 C 0 km/h
Sensor: Nr:Datum:Temp:Abs-Feuchte:Windchill:Wind:
Aussen-T/F 801 25-05-2009 16:10:59 33.1 C 7.52 g/m*3 33.1 C 0 km/h
802 25-05-2009 16:22:59 33.1 C 8.59 g/m*3 33.1 C 0 km/h
803 25-05-2009 16:34:59 32.4 C 10 g/m*3 32.4 C 0 km/h
804 25-05-2009 16:46:58 31.9 C 10.75 g/m*3 31.9 C 0 km/h
805 25-05-2009 16:58:58 31.3 C 11.38 g/m*3 31.3 C 0 km/h
806 25-05-2009 17:10:59 30.6 C 11.9 g/m*3 30.6 C 0 km/h
807 25-05-2009 17:22:58 29.8 C 12.6 g/m*3 29.8 C 0 km/h
808 25-05-2009 17:34:58 29.1 C 12.71 g/m*3 29.1 C 0 km/h
809 25-05-2009 17:46:58 28.2 C 12.92 g/m*3 28.2 C 0 km/h
810 25-05-2009 17:58:58 28 C 12.51 g/m*3 28 C 0 km/h
811 25-05-2009 18:10:57 27.6 C 11.97 g/m*3 27.6 C 0 km/h
812 25-05-2009 18:22:58 26.8 C 7.64 g/m*3 26.8 C 0 km/h
813 25-05-2009 18:34:57 26.4 C 7.47 g/m*3 26.4 C 0 km/h
814 25-05-2009 18:46:57 25.9 C 7.26 g/m*3 25.9 C 0 km/h
815 25-05-2009 18:58:57 25.8 C 8.19 g/m*3 25.8 C 0 km/h
816 25-05-2009 19:10:57 25.2 C 7.92 g/m*3 25.2 C 0 km/h
817 25-05-2009 19:22:57 25 C 8.06 g/m*3 25 C 0 km/h
818 25-05-2009 19:34:57 25.3 C 7.96 g/m*3 25.3 C 0 km/h
819 25-05-2009 19:46:57 25.5 C 8.76 g/m*3 25.5 C 0 km/h
820 25-05-2009 19:58:57 25.4 C 8.48 g/m*3 25.4 C 0 km/h
821 25-05-2009 20:10:57 25.5 C 9.23 g/m*3 25.5 C 0 km/h
822 25-05-2009 20:22:56 25.8 C 9.15 g/m*3 25.8 C 0 km/h
823 25-05-2009 20:34:56 26.2 C 8.86 g/m*3 26.2 C 0 km/h
824 25-05-2009 20:46:56 26.1 C 10.04 g/m*3 26.1 C 0 km/h
825 25-05-2009 20:58:56 25.5 C 9.94 g/m*3 25.5 C 0 km/h
Sensor: Nr:Datum:Temp:Abs-Feuchte:Windchill:Wind:
Aussen-T/F 826 25-05-2009 21:10:56 24.9 C 10.3 g/m*3 24.9 C 0 km/h
827 25-05-2009 21:22:56 24.1 C 10.28 g/m*3 24.1 C 0 km/h
828 25-05-2009 21:34:56 23.4 C 10.09 g/m*3 23.4 C 0 km/h
829 25-05-2009 21:46:55 22.8 C 9.96 g/m*3 22.8 C 0 km/h
830 25-05-2009 21:58:55 22.4 C 9.93 g/m*3 22.4 C 0 km/h
831 25-05-2009 22:10:55 22.1 C 9.96 g/m*3 22.1 C 0 km/h
832 25-05-2009 22:23:57 21.9 C 9.84 g/m*3 21.9 C 0 km/h
833 25-05-2009 22:35:57 21.7 C 9.92 g/m*3 21.7 C 0 km/h
834 25-05-2009 22:47:57 21.7 C 10.3 g/m*3 21.7 C 0 km/h
835 25-05-2009 22:59:57 21.5 C 10.37 g/m*3 21.5 C 0 km/h
836 25-05-2009 23:11:57 21.2 C 10.38 g/m*3 21.2 C 0 km/h
837 25-05-2009 23:23:57 21 C 10.26 g/m*3 21 C 0 km/h
838 25-05-2009 23:35:57 20.8 C 10.5 g/m*3 20.8 C 0 km/h
839 25-05-2009 23:47:57 20.5 C 10.5 g/m*3 20.5 C 0 km/h
840 25-05-2009 23:59:57 20.4 C 10.61 g/m*3 20.4 C 0 km/h
841 26-05-2009 00:11:57 20.2 C 10.84 g/m*3 20.2 C 0 km/h
842 26-05-2009 00:23:57 20 C 10.89 g/m*3 20 C 0 km/h
843 26-05-2009 00:35:57 19.9 C 11 g/m*3 19.9 C 0 km/h
844 26-05-2009 00:47:57 19.7 C 11.04 g/m*3 19.7 C 0 km/h
845 26-05-2009 00:59:57 19.5 C 11.24 g/m*3 19.5 C 0 km/h
846 26-05-2009 01:11:57 19.3 C 11.11 g/m*3 19.3 C 0 km/h
847 26-05-2009 01:23:58 19.2 C 11.05 g/m*3 19.2 C 0 km/h
848 26-05-2009 01:35:58 18.9 C 11.18 g/m*3 18.9 C 0 km/h
849 26-05-2009 01:47:58 18.9 C 11.5 g/m*3 18.9 C 0 km/h
850 26-05-2009 01:59:58 19.1 C 11.47 g/m*3 19.1 C 0 km/h
Sensor: Nr:Datum:Temp:Abs-Feuchte:Windchill:Wind:
Aussen-T/F 851 26-05-2009 02:11:58 18.8 C 11.43 g/m*3 18.8 C 0 km/h
852 26-05-2009 02:23:58 18.6 C 11.3 g/m*3 18.6 C 0 km/h
853 26-05-2009 02:35:58 18.5 C 11.39 g/m*3 18.5 C 0 km/h
854 26-05-2009 02:47:58 18.3 C 11.41 g/m*3 18.3 C 0 km/h
855 26-05-2009 02:59:58 18.3 C 11.41 g/m*3 18.3 C 0 km/h
856 26-05-2009 03:11:58 18.4 C 11.48 g/m*3 18.4 C 0 km/h
857 26-05-2009 03:23:58 18.4 C 11.48 g/m*3 18.4 C 0 km/h
858 26-05-2009 03:35:58 18.5 C 11.55 g/m*3 18.5 C 0 km/h
859 26-05-2009 03:47:58 18.3 C 11.41 g/m*3 18.3 C 0 km/h
860 26-05-2009 03:59:58 18 C 11.37 g/m*3 18 C 0 km/h
861 26-05-2009 04:11:58 17.9 C 11.45 g/m*3 17.9 C 0 km/h
862 26-05-2009 04:23:58 17.7 C 11.47 g/m*3 17.7 C 0 km/h
863 26-05-2009 04:35:58 17.5 C 11.48 g/m*3 17.5 C 0 km/h
864 26-05-2009 04:47:58 17.4 C 11.56 g/m*3 17.4 C 0 km/h
865 26-05-2009 04:59:58 17.3 C 11.34 g/m*3 17.3 C 0 km/h
866 26-05-2009 05:11:58 17.2 C 11.42 g/m*3 17.2 C 0 km/h
867 26-05-2009 05:23:58 17.2 C 11.42 g/m*3 17.2 C 0 km/h
868 26-05-2009 05:35:59 17.4 C 11.86 g/m*3 17.4 C 0 km/h
869 26-05-2009 05:47:59 17.6 C 11.85 g/m*3 17.6 C 0 km/h
870 26-05-2009 05:59:59 17.6 C 11.55 g/m*3 17.6 C 0 km/h
871 26-05-2009 06:11:59 17.6 C 11.7 g/m*3 17.6 C 0 km/h
872 26-05-2009 06:23:59 17.7 C 11.77 g/m*3 17.7 C 0 km/h
873 26-05-2009 06:35:56 18 C 11.83 g/m*3 18 C 0 km/h
874 26-05-2009 06:47:56 18.2 C 11.81 g/m*3 18.2 C 0 km/h
875 26-05-2009 06:59:56 18.4 C 12.11 g/m*3 18.4 C 0 km/h
Sensor: Nr:Datum:Temp:Abs-Feuchte:Windchill:Wind:
Aussen-T/F 876 26-05-2009 07:11:56 18.5 C 12.02 g/m*3 18.5 C 0 km/h
877 26-05-2009 07:23:56 18.7 C 12.17 g/m*3 18.7 C 0 km/h
878 26-05-2009 07:35:56 18.7 C 12.01 g/m*3 18.7 C 0 km/h
879 26-05-2009 07:47:55 19.1 C 11.97 g/m*3 19.1 C 0 km/h
880 26-05-2009 07:59:55 19.3 C 11.94 g/m*3 19.3 C 0 km/h
881 26-05-2009 08:11:56 19.6 C 12.15 g/m*3 19.6 C 0 km/h
882 26-05-2009 08:23:55 20.1 C 12.17 g/m*3 20.1 C 0 km/h
883 26-05-2009 08:35:55 20.9 C 10.93 g/m*3 20.9 C 0 km/h
884 26-05-2009 08:47:55 21.4 C 9.75 g/m*3 21.4 C 0 km/h
885 26-05-2009 08:59:55 21.5 C 9.43 g/m*3 21.5 C 0 km/h
886 26-05-2009 09:11:55 21.4 C 9.94 g/m*3 21.4 C 0 km/h
887 26-05-2009 09:23:54 20.4 C 10.61 g/m*3 20.4 C 0 km/h
888 26-05-2009 09:35:54 21.2 C 10.75 g/m*3 21.2 C 0 km/h
889 26-05-2009 09:47:55 21.8 C 10.55 g/m*3 21.8 C 0 km/h
890 26-05-2009 09:59:55 22.5 C 10.39 g/m*3 22.5 C 0 km/h
891 26-05-2009 10:11:54 23 C 10.07 g/m*3 23 C 0 km/h
892 26-05-2009 10:23:54 22.8 C 9.75 g/m*3 22.8 C 0 km/h
893 26-05-2009 10:35:54 22.9 C 10.01 g/m*3 22.9 C 0 km/h
894 26-05-2009 10:47:54 23.1 C 9.72 g/m*3 23.1 C 0 km/h
895 26-05-2009 10:59:55 23.7 C 9.84 g/m*3 23.7 C 0 km/h
896 26-05-2009 11:11:53 23.8 C 9.9 g/m*3 23.8 C 0 km/h
897 26-05-2009 11:23:53 23.6 C 10 g/m*3 23.6 C 0 km/h
898 26-05-2009 11:35:54 23.3 C 10.04 g/m*3 23.3 C 0 km/h
899 26-05-2009 11:47:53 23.8 C 9.9 g/m*3 23.8 C 0 km/h
900 26-05-2009 11:59:53 24.4 C 9.79 g/m*3 24.4 C 0 km/h
Sensor: Nr:Datum:Temp:Abs-Feuchte:Windchill:Wind:
Aussen-T/F 901 26-05-2009 12:11:53 24.4 C 8.9 g/m*3 24.4 C 0 km/h
902 26-05-2009 12:23:53 23.1 C 8.68 g/m*3 23.1 C 0 km/h
903 26-05-2009 12:35:53 24.3 C 9.29 g/m*3 24.3 C 0 km/h
904 26-05-2009 12:47:52 25.4 C 8.71 g/m*3 25.4 C 0 km/h
905 26-05-2009 12:59:52 24.3 C 8.41 g/m*3 24.3 C 0 km/h
906 26-05-2009 13:11:53 25.6 C 8.33 g/m*3 25.6 C 0 km/h
907 26-05-2009 13:23:53 26.5 C 8.26 g/m*3 26.5 C 0 km/h
908 26-05-2009 13:35:52 26.5 C 7.76 g/m*3 26.5 C 0 km/h
909 26-05-2009 13:47:52 25.7 C 7.66 g/m*3 25.7 C 0 km/h
910 26-05-2009 13:59:52 26.1 C 7.83 g/m*3 26.1 C 0 km/h
911 26-05-2009 14:11:52 25.6 C 7.86 g/m*3 25.6 C 0 km/h
912 26-05-2009 14:23:52 24.7 C 7.47 g/m*3 24.7 C 0 km/h
913 26-05-2009 14:35:51 24 C 7.61 g/m*3 24 C 0 km/h
914 26-05-2009 14:47:52 23.6 C 7.87 g/m*3 23.6 C 0 km/h
915 26-05-2009 14:59:53 24.6 C 7.88 g/m*3 24.6 C 0 km/h
916 26-05-2009 15:11:51 24.1 C 7.88 g/m*3 24.1 C 0 km/h
917 26-05-2009 15:23:51 25 C 7.6 g/m*3 25 C 0 km/h
918 26-05-2009 15:35:51 23.8 C 7.31 g/m*3 23.8 C 0 km/h
919 26-05-2009 15:47:51 24.3 C 7.08 g/m*3 24.3 C 0 km/h
920 26-05-2009 15:59:51 24.5 C 7.39 g/m*3 24.5 C 0 km/h
921 26-05-2009 16:05:51 24.7 C 7.47 g/m*3 24.7 C 0 km/h
922 26-05-2009 16:21:50 25 C 7.37 g/m*3 25 C 0 km/h
923 26-05-2009 16:33:51 24.9 C 7.55 g/m*3 24.9 C 0 km/h
924 26-05-2009 16:45:50 24.3 C 7.08 g/m*3 24.3 C 0 km/h
925 26-05-2009 16:57:50 23.9 C 7.14 g/m*3 23.9 C 0 km/h
Sensor: Nr:Datum:Temp:Abs-Feuchte:Windchill:Wind:
Aussen-T/F 926 26-05-2009 17:09:50 23.3 C 7.32 g/m*3 23.3 C 0 km/h
927 26-05-2009 17:21:50 24 C 7.61 g/m*3 24 C 0 km/h
928 26-05-2009 17:33:50 24.3 C 7.52 g/m*3 24.3 C 0 km/h
929 26-05-2009 17:45:49 24.4 C 7.57 g/m*3 24.4 C 0 km/h
930 26-05-2009 17:57:49 23.7 C 7.7 g/m*3 23.7 C 0 km/h
931 26-05-2009 18:09:50 22.9 C 7.77 g/m*3 22.9 C 0 km/h
932 26-05-2009 18:21:50 21 C 7.88 g/m*3 21 C 0 km/h
933 26-05-2009 18:33:49 18.4 C 9.75 g/m*3 18.4 C 0 km/h
934 26-05-2009 18:45:49 17.5 C 11.03 g/m*3 17.5 C 0 km/h
935 26-05-2009 18:57:49 17 C 11 g/m*3 17 C 0 km/h
936 26-05-2009 19:09:49 17.1 C 11.06 g/m*3 17.1 C 0 km/h
937 26-05-2009 19:21:49 17.1 C 10.77 g/m*3 17.1 C 0 km/h
938 26-05-2009 19:33:49 15.7 C 9.5 g/m*3 15.7 C 0 km/h
939 26-05-2009 19:45:49 16.2 C 9.65 g/m*3 16.2 C 0 km/h
940 26-05-2009 19:57:49 16.5 C 9.55 g/m*3 16.5 C 0 km/h
941 26-05-2009 20:09:49 16.6 C 8.9 g/m*3 16.6 C 0 km/h
942 26-05-2009 20:21:48 16.3 C 8.88 g/m*3 16.3 C 0 km/h
943 26-05-2009 20:33:49 15.5 C 9.65 g/m*3 15.5 C 0 km/h
944 26-05-2009 20:45:48 15.1 C 9.93 g/m*3 15.1 C 0 km/h
945 26-05-2009 20:57:48 14.6 C 9.64 g/m*3 14.6 C 0 km/h
946 26-05-2009 21:09:48 14.5 C 9.33 g/m*3 14.5 C 0 km/h
947 26-05-2009 21:21:47 14.8 C 9.37 g/m*3 14.8 C 0 km/h
948 26-05-2009 21:33:47 15.1 C 8.64 g/m*3 15.1 C 0 km/h
949 26-05-2009 21:45:48 15.2 C 8.57 g/m*3 15.2 C 0 km/h
950 26-05-2009 21:57:48 15.1 C 8.39 g/m*3 15.1 C 0 km/h
Sensor: Nr:Datum:Temp:Abs-Feuchte:Windchill:Wind:
Aussen-T/F 951 26-05-2009 22:09:47 15.1 C 8.39 g/m*3 15.1 C 0 km/h
952 26-05-2009 22:21:47 14 C 7.6 g/m*3 14 C 0 km/h
953 26-05-2009 22:34:01 13.7 C 7.22 g/m*3 13.7 C 0 km/h
954 26-05-2009 22:46:01 13.2 C 6.54 g/m*3 13.2 C 0 km/h
955 26-05-2009 22:58:01 12.8 C 6.61 g/m*3 12.8 C 0 km/h
956 26-05-2009 23:10:01 12.5 C 6.49 g/m*3 12.5 C 0 km/h
957 26-05-2009 23:22:01 12.3 C 6.41 g/m*3 12.3 C 0 km/h
958 26-05-2009 23:34:01 12.2 C 6.47 g/m*3 12.2 C 0 km/h
959 26-05-2009 23:46:01 12.2 C 6.58 g/m*3 12.2 C 0 km/h
960 26-05-2009 23:58:01 12.1 C 6.65 g/m*3 12.1 C 0 km/h
961 27-05-2009 00:10:02 12.4 C 6.88 g/m*3 12.4 C 0 km/h
962 27-05-2009 00:22:02 12.4 C 6.88 g/m*3 12.4 C 0 km/h
963 27-05-2009 00:34:02 12.2 C 6.91 g/m*3 12.2 C 0 km/h
964 27-05-2009 00:46:02 12 C 6.93 g/m*3 12 C 0 km/h
965 27-05-2009 00:58:02 11.6 C 7.07 g/m*3 11.6 C 0 km/h
966 27-05-2009 01:10:02 11.5 C 7.13 g/m*3 11.5 C 0 km/h
967 27-05-2009 01:22:02 11.4 C 7.08 g/m*3 11.4 C 0 km/h
968 27-05-2009 01:34:02 11.2 C 6.99 g/m*3 11.2 C 0 km/h
969 27-05-2009 01:46:02 11.1 C 6.95 g/m*3 11.1 C 0 km/h
970 27-05-2009 01:58:02 10.9 C 6.96 g/m*3 10.9 C 0 km/h
971 27-05-2009 02:10:02 10.7 C 6.97 g/m*3 10.7 C 0 km/h
972 27-05-2009 02:22:02 10.4 C 6.94 g/m*3 10.4 C 0 km/h
973 27-05-2009 02:34:02 10.2 C 6.85 g/m*3 10.2 C 0 km/h
974 27-05-2009 02:46:02 10.2 C 6.76 g/m*3 10.2 C 0 km/h
975 27-05-2009 02:58:02 10.3 C 6.7 g/m*3 10.3 C 0 km/h
Sensor: Nr:Datum:Temp:Abs-Feuchte:Windchill:Wind:
Aussen-T/F 976 27-05-2009 03:10:02 10.1 C 6.71 g/m*3 10.1 C 0 km/h
977 27-05-2009 03:22:02 9.8 C 6.77 g/m*3 9.8 C 0 km/h
978 27-05-2009 03:34:02 9.6 C 6.78 g/m*3 9.6 C 0 km/h
979 27-05-2009 03:46:02 9.6 C 6.78 g/m*3 9.6 C 0 km/h
980 27-05-2009 03:58:02 9.5 C 6.74 g/m*3 9.5 C 0 km/h
981 27-05-2009 04:10:02 9.4 C 6.69 g/m*3 9.4 C 0 km/h
982 27-05-2009 04:22:03 9.3 C 6.65 g/m*3 9.3 C 0 km/h
983 27-05-2009 04:34:03 9.2 C 6.7 g/m*3 9.2 C 0 km/h
984 27-05-2009 04:46:03 9.2 C 6.7 g/m*3 9.2 C 0 km/h
985 27-05-2009 04:58:03 9.2 C 6.7 g/m*3 9.2 C 0 km/h
986 27-05-2009 05:10:03 9.1 C 6.74 g/m*3 9.1 C 0 km/h
987 27-05-2009 05:22:03 9.1 C 6.74 g/m*3 9.1 C 0 km/h
988 27-05-2009 05:34:03 9.3 C 6.83 g/m*3 9.3 C 0 km/h
989 27-05-2009 05:46:03 9.2 C 6.79 g/m*3 9.2 C 0 km/h
990 27-05-2009 05:58:03 9.2 C 6.7 g/m*3 9.2 C 0 km/h
991 27-05-2009 06:10:03 9.3 C 6.74 g/m*3 9.3 C 0 km/h
992 27-05-2009 06:22:03 9.3 C 6.83 g/m*3 9.3 C 0 km/h
993 27-05-2009 06:34:03 9.3 C 6.74 g/m*3 9.3 C 0 km/h
994 27-05-2009 06:46:03 9.5 C 6.83 g/m*3 9.5 C 0 km/h
995 27-05-2009 06:58:03 9.7 C 6.82 g/m*3 9.7 C 0 km/h
996 27-05-2009 07:10:02 9.8 C 6.87 g/m*3 9.8 C 0 km/h
997 27-05-2009 07:22:02 9.9 C 6.82 g/m*3 9.9 C 0 km/h
998 27-05-2009 07:34:01 10 C 6.77 g/m*3 10 C 0 km/h
999 27-05-2009 07:46:02 10.2 C 6.76 g/m*3 10.2 C 0 km/h
1000 27-05-2009 07:58:02 10.5 C 6.89 g/m*3 10.5 C 0 km/h
Sensor: Nr:Datum:Temp:Abs-Feuchte:Windchill:Wind:
Aussen-T/F 1001 27-05-2009 08:10:01 10.7 C 6.97 g/m*3 10.7 C 0 km/h
1002 27-05-2009 08:22:02 11 C 6.91 g/m*3 11 C 0 km/h
1003 27-05-2009 08:34:01 11.3 C 6.94 g/m*3 11.3 C 0 km/h
1004 27-05-2009 08:46:01 11.7 C 7.01 g/m*3 11.7 C 0 km/h
1005 27-05-2009 08:58:01 12.2 C 6.91 g/m*3 12.2 C 0 km/h
1006 27-05-2009 09:10:01 12.4 C 6.88 g/m*3 12.4 C 0 km/h
1007 27-05-2009 09:22:01 12.9 C 6.88 g/m*3 12.9 C 0 km/h
1008 27-05-2009 09:34:02 13.2 C 6.77 g/m*3 13.2 C 0 km/h
1009 27-05-2009 09:46:01 13.5 C 6.78 g/m*3 13.5 C 0 km/h
1010 27-05-2009 09:58:01 13.7 C 6.63 g/m*3 13.7 C 0 km/h
1011 27-05-2009 10:10:02 14.3 C 6.51 g/m*3 14.3 C 0 km/h
1012 27-05-2009 10:22:01 14.7 C 6.3 g/m*3 14.7 C 0 km/h
1013 27-05-2009 10:34:01 14.9 C 6.37 g/m*3 14.9 C 0 km/h
1014 27-05-2009 10:46:01 15.3 C 6.27 g/m*3 15.3 C 0 km/h
1015 27-05-2009 10:58:01 15.7 C 6.02 g/m*3 15.7 C 0 km/h
1016 27-05-2009 11:10:01 15.8 C 6.06 g/m*3 15.8 C 0 km/h
1017 27-05-2009 11:22:02 16.1 C 5.76 g/m*3 16.1 C 0 km/h
1018 27-05-2009 11:34:01 16.9 C 6.18 g/m*3 16.9 C 0 km/h
1019 27-05-2009 11:46:02 17 C 5.64 g/m*3 17 C 0 km/h
1020 27-05-2009 11:58:02 17.5 C 5.37 g/m*3 17.5 C 0 km/h
1021 27-05-2009 12:10:01 18.8 C 5.31 g/m*3 18.8 C 0 km/h
1022 27-05-2009 12:22:02 18.5 C 4.75 g/m*3 18.5 C 0 km/h
1023 27-05-2009 12:34:01 19.1 C 4.59 g/m*3 19.1 C 0 km/h
1024 27-05-2009 12:46:02 19.6 C 4.39 g/m*3 19.6 C 0 km/h
1025 27-05-2009 12:58:02 17.8 C 4.1 g/m*3 17.8 C 0 km/h
Sensor: Nr:Datum:Temp:Abs-Feuchte:Windchill:Wind:
Aussen-T/F 1026 27-05-2009 13:10:01 20.1 C 4.35 g/m*3 20.1 C 0 km/h
1027 27-05-2009 13:22:01 20.3 C 4.57 g/m*3 20.3 C 0 km/h
1028 27-05-2009 13:34:02 20.1 C 3.82 g/m*3 20.1 C 0 km/h
1029 27-05-2009 13:46:01 20.8 C 3.8 g/m*3 20.8 C 0 km/h
1030 27-05-2009 13:58:01 19.5 C 3.36 g/m*3 19.5 C 0 km/h
1031 27-05-2009 14:10:02 19.6 C 3.71 g/m*3 19.6 C 0 km/h
1032 27-05-2009 14:22:01 19.8 C 3.76 g/m*3 19.8 C 0 km/h
1033 27-05-2009 14:34:01 19.9 C 3.44 g/m*3 19.9 C 0 km/h
1034 27-05-2009 14:46:01 20.1 C 3.48 g/m*3 20.1 C 0 km/h
1035 27-05-2009 14:58:01 19.4 C 3.84 g/m*3 19.4 C 0 km/h
1036 27-05-2009 15:10:01 19.2 C 4.12 g/m*3 19.2 C 0 km/h
1037 27-05-2009 15:22:01 19.3 C 4.31 g/m*3 19.3 C 0 km/h
1038 27-05-2009 15:34:01 19.3 C 4.31 g/m*3 19.3 C 0 km/h
1039 27-05-2009 15:46:01 19.3 C 4.48 g/m*3 19.3 C 0 km/h
1040 27-05-2009 15:58:01 19.5 C 4.53 g/m*3 19.5 C 0 km/h
1041 27-05-2009 16:10:01 19.9 C 4.64 g/m*3 19.9 C 0 km/h
1042 27-05-2009 16:22:02 19.4 C 4.34 g/m*3 19.4 C 0 km/h
1043 27-05-2009 16:34:01 20.3 C 4.57 g/m*3 20.3 C 0 km/h
1044 27-05-2009 16:46:02 19.6 C 4.56 g/m*3 19.6 C 0 km/h
1045 27-05-2009 16:58:02 19.5 C 4.7 g/m*3 19.5 C 0 km/h
1046 27-05-2009 17:10:01 19.1 C 4.43 g/m*3 19.1 C 0 km/h
1047 27-05-2009 17:22:01 19.3 C 4.81 g/m*3 19.3 C 0 km/h
1048 27-05-2009 17:34:02 18.4 C 4.72 g/m*3 18.4 C 0 km/h
1049 27-05-2009 17:46:01 17.9 C 4.89 g/m*3 17.9 C 0 km/h
1050 27-05-2009 17:58:01 18 C 4.76 g/m*3 18 C 0 km/h
Sensor: Nr:Datum:Temp:Abs-Feuchte:Windchill:Wind:
Aussen-T/F 1051 27-05-2009 18:10:02 17.5 C 4.62 g/m*3 17.5 C 0 km/h
1052 27-05-2009 18:22:01 17.4 C 4.45 g/m*3 17.4 C 0 km/h
1053 27-05-2009 18:34:02 17.2 C 4.39 g/m*3 17.2 C 0 km/h
1054 27-05-2009 18:46:01 17.5 C 4.62 g/m*3 17.5 C 0 km/h
1055 27-05-2009 18:58:01 17.4 C 4.74 g/m*3 17.4 C 0 km/h
1056 27-05-2009 19:10:02 17.5 C 4.92 g/m*3 17.5 C 0 km/h
1057 27-05-2009 19:22:01 17.7 C 4.98 g/m*3 17.7 C 0 km/h
1058 27-05-2009 19:34:01 17.3 C 4.86 g/m*3 17.3 C 0 km/h
1059 27-05-2009 19:46:01 17.2 C 5.13 g/m*3 17.2 C 0 km/h
1060 27-05-2009 19:58:01 17.1 C 5.09 g/m*3 17.1 C 0 km/h
1061 27-05-2009 20:10:01 16.8 C 5.15 g/m*3 16.8 C 0 km/h
1062 27-05-2009 20:22:02 16.6 C 5.23 g/m*3 16.6 C 0 km/h
1063 27-05-2009 20:34:01 16.3 C 5.13 g/m*3 16.3 C 0 km/h
1064 27-05-2009 20:46:02 16 C 5.31 g/m*3 16 C 0 km/h
1065 27-05-2009 20:58:02 15.5 C 5.02 g/m*3 15.5 C 0 km/h
1066 27-05-2009 21:10:01 15 C 5.26 g/m*3 15 C 0 km/h
1067 27-05-2009 21:22:01 14.7 C 5.54 g/m*3 14.7 C 0 km/h
1068 27-05-2009 21:34:01 14.4 C 5.56 g/m*3 14.4 C 0 km/h
1069 27-05-2009 21:46:01 14.5 C 5.72 g/m*3 14.5 C 0 km/h
1070 27-05-2009 21:58:01 14.5 C 5.72 g/m*3 14.5 C 0 km/h
1071 27-05-2009 22:10:01 14.3 C 5.77 g/m*3 14.3 C 0 km/h
1072 27-05-2009 22:22:40 14.2 C 5.74 g/m*3 14.2 C 0 km/h
1073 27-05-2009 22:34:40 13.8 C 6.2 g/m*3 13.8 C 0 km/h
1074 27-05-2009 22:46:40 13.3 C 6.12 g/m*3 13.3 C 0 km/h
1075 27-05-2009 22:58:40 13.5 C 6.32 g/m*3 13.5 C 0 km/h
Sensor: Nr:Datum:Temp:Abs-Feuchte:Windchill:Wind:
Aussen-T/F 1076 27-05-2009 23:10:41 13.2 C 6.2 g/m*3 13.2 C 0 km/h
1077 27-05-2009 23:22:41 13.2 C 6.09 g/m*3 13.2 C 0 km/h
1078 27-05-2009 23:34:41 13.3 C 5.89 g/m*3 13.3 C 0 km/h
1079 27-05-2009 23:46:41 13.6 C 5.77 g/m*3 13.6 C 0 km/h
1080 27-05-2009 23:58:41 13.6 C 5.77 g/m*3 13.6 C 0 km/h
1081 28-05-2009 00:10:41 13.4 C 5.7 g/m*3 13.4 C 0 km/h
1082 28-05-2009 00:22:41 13.4 C 5.58 g/m*3 13.4 C 0 km/h
1083 28-05-2009 00:34:41 13.4 C 5.7 g/m*3 13.4 C 0 km/h
1084 28-05-2009 00:46:41 13.3 C 5.66 g/m*3 13.3 C 0 km/h
1085 28-05-2009 00:58:41 13.2 C 5.74 g/m*3 13.2 C 0 km/h
1086 28-05-2009 01:10:41 13.2 C 5.86 g/m*3 13.2 C 0 km/h
1087 28-05-2009 01:22:41 13.1 C 5.93 g/m*3 13.1 C 0 km/h
1088 28-05-2009 01:34:41 13.1 C 6.05 g/m*3 13.1 C 0 km/h
1089 28-05-2009 01:46:41 13 C 6.12 g/m*3 13 C 0 km/h
1090 28-05-2009 01:58:41 13.1 C 6.28 g/m*3 13.1 C 0 km/h
1091 28-05-2009 02:10:41 13.1 C 6.28 g/m*3 13.1 C 0 km/h
1092 28-05-2009 02:22:41 12.9 C 6.65 g/m*3 12.9 C 0 km/h
1093 28-05-2009 02:34:41 12.3 C 7.06 g/m*3 12.3 C 0 km/h
1094 28-05-2009 02:46:41 12.7 C 6.79 g/m*3 12.7 C 0 km/h
1095 28-05-2009 02:58:41 12.9 C 6.65 g/m*3 12.9 C 0 km/h
1096 28-05-2009 03:10:41 13 C 6.46 g/m*3 13 C 0 km/h
1097 28-05-2009 03:22:42 13 C 6.58 g/m*3 13 C 0 km/h
1098 28-05-2009 03:34:42 12.7 C 6.68 g/m*3 12.7 C 0 km/h
1099 28-05-2009 03:46:42 12.7 C 6.79 g/m*3 12.7 C 0 km/h
1100 28-05-2009 03:58:42 12.8 C 6.83 g/m*3 12.8 C 0 km/h
Sensor: Nr:Datum:Temp:Abs-Feuchte:Windchill:Wind:
Aussen-T/F 1101 28-05-2009 04:10:42 12.9 C 6.88 g/m*3 12.9 C 0 km/h
1102 28-05-2009 04:22:42 13 C 6.92 g/m*3 13 C 0 km/h
1103 28-05-2009 04:34:42 13 C 6.92 g/m*3 13 C 0 km/h
1104 28-05-2009 04:46:42 12.9 C 7.1 g/m*3 12.9 C 0 km/h
1105 28-05-2009 04:58:42 12.9 C 7.1 g/m*3 12.9 C 0 km/h
1106 28-05-2009 05:10:42 12.8 C 7.17 g/m*3 12.8 C 0 km/h
1107 28-05-2009 05:22:40 12.8 C 7.39 g/m*3 12.8 C 0 km/h
1108 28-05-2009 05:34:40 12.8 C 7.39 g/m*3 12.8 C 0 km/h
1109 28-05-2009 05:46:40 12.9 C 7.55 g/m*3 12.9 C 0 km/h
1110 28-05-2009 05:58:40 13 C 7.48 g/m*3 13 C 0 km/h
1111 28-05-2009 06:10:39 13 C 7.48 g/m*3 13 C 0 km/h
1112 28-05-2009 06:22:39 13 C 7.48 g/m*3 13 C 0 km/h
1113 28-05-2009 06:34:39 13.1 C 7.53 g/m*3 13.1 C 0 km/h
1114 28-05-2009 06:46:39 13.2 C 7.58 g/m*3 13.2 C 0 km/h
1115 28-05-2009 06:58:40 13.2 C 7.58 g/m*3 13.2 C 0 km/h
1116 28-05-2009 07:10:38 13.3 C 7.63 g/m*3 13.3 C 0 km/h
1117 28-05-2009 07:22:39 13.4 C 7.67 g/m*3 13.4 C 0 km/h
1118 28-05-2009 07:34:38 13.5 C 7.72 g/m*3 13.5 C 0 km/h
1119 28-05-2009 07:46:38 13.6 C 7.89 g/m*3 13.6 C 0 km/h
1120 28-05-2009 07:58:39 13.6 C 7.77 g/m*3 13.6 C 0 km/h
1121 28-05-2009 08:10:38 13.7 C 7.82 g/m*3 13.7 C 0 km/h
1122 28-05-2009 08:22:38 13.9 C 7.91 g/m*3 13.9 C 0 km/h
1123 28-05-2009 08:34:38 14.1 C 8.01 g/m*3 14.1 C 0 km/h
1124 28-05-2009 08:46:38 14.6 C 8.01 g/m*3 14.6 C 0 km/h
1125 28-05-2009 08:58:38 14.8 C 7.85 g/m*3 14.8 C 0 km/h
Sensor: Nr:Datum:Temp:Abs-Feuchte:Windchill:Wind:
Aussen-T/F 1126 28-05-2009 09:10:38 15 C 7.95 g/m*3 15 C 0 km/h
1127 28-05-2009 09:22:37 14.9 C 8.03 g/m*3 14.9 C 0 km/h
1128 28-05-2009 09:34:37 14.9 C 8.16 g/m*3 14.9 C 0 km/h
1129 28-05-2009 09:46:37 15.2 C 8.05 g/m*3 15.2 C 0 km/h
1130 28-05-2009 09:58:37 15.3 C 8.23 g/m*3 15.3 C 0 km/h
1131 28-05-2009 10:10:37 15.4 C 8.15 g/m*3 15.4 C 0 km/h
1132 28-05-2009 10:22:37 15.7 C 8.16 g/m*3 15.7 C 0 km/h
1133 28-05-2009 10:34:37 15.3 C 8.23 g/m*3 15.3 C 0 km/h
1134 28-05-2009 10:46:37 15.4 C 8.28 g/m*3 15.4 C 0 km/h
1135 28-05-2009 10:58:37 16 C 8.31 g/m*3 16 C 0 km/h
1136 28-05-2009 11:10:36 16.4 C 8.37 g/m*3 16.4 C 0 km/h
1137 28-05-2009 11:22:36 16.6 C 8.33 g/m*3 16.6 C 0 km/h
1138 28-05-2009 11:34:36 16.8 C 8.44 g/m*3 16.8 C 0 km/h
1139 28-05-2009 11:46:36 16.7 C 8.53 g/m*3 16.7 C 0 km/h
1140 28-05-2009 11:58:37 16.6 C 8.48 g/m*3 16.6 C 0 km/h
1141 28-05-2009 12:10:35 16.2 C 8.55 g/m*3 16.2 C 0 km/h
1142 28-05-2009 12:22:36 15.6 C 9.04 g/m*3 15.6 C 0 km/h
1143 28-05-2009 12:34:36 14.9 C 9.81 g/m*3 14.9 C 0 km/h
1144 28-05-2009 12:46:35 14.9 C 10.07 g/m*3 14.9 C 0 km/h
1145 28-05-2009 12:58:35 15 C 10.39 g/m*3 15 C 0 km/h
1146 28-05-2009 13:10:36 15.6 C 10.91 g/m*3 15.6 C 0 km/h
1147 28-05-2009 13:22:35 15.8 C 10.9 g/m*3 15.8 C 0 km/h
1148 28-05-2009 13:34:35 15.7 C 10.84 g/m*3 15.7 C 0 km/h
1149 28-05-2009 13:46:34 16.8 C 11.72 g/m*3 16.8 C 0 km/h
1150 28-05-2009 13:58:34 17 C 11.14 g/m*3 17 C 0 km/h
Sensor: Nr:Datum:Temp:Abs-Feuchte:Windchill:Wind:
Aussen-T/F 1151 28-05-2009 14:10:35 16 C 10.49 g/m*3 16 C 0 km/h
1152 28-05-2009 14:22:35 16.7 C 11.51 g/m*3 16.7 C 0 km/h
1153 28-05-2009 14:34:34 18.2 C 11.35 g/m*3 18.2 C 0 km/h
1154 28-05-2009 14:46:35 18.5 C 10.6 g/m*3 18.5 C 0 km/h
1155 28-05-2009 14:58:35 17.9 C 10.54 g/m*3 17.9 C 0 km/h
1156 28-05-2009 15:10:34 16.8 C 10.44 g/m*3 16.8 C 0 km/h
1157 28-05-2009 15:22:34 17.1 C 10.77 g/m*3 17.1 C 0 km/h
1158 28-05-2009 15:34:33 18.3 C 10.16 g/m*3 18.3 C 0 km/h
1159 28-05-2009 15:46:34 19.3 C 9.62 g/m*3 19.3 C 0 km/h
1160 28-05-2009 15:58:35 18.5 C 9.97 g/m*3 18.5 C 0 km/h
1161 28-05-2009 16:10:33 18.5 C 9.49 g/m*3 18.5 C 0 km/h
1162 28-05-2009 16:22:33 18.3 C 9.22 g/m*3 18.3 C 0 km/h
1163 28-05-2009 16:34:34 20.3 C 9.5 g/m*3 20.3 C 0 km/h
1164 28-05-2009 16:46:33 20.6 C 8.95 g/m*3 20.6 C 0 km/h
1165 28-05-2009 16:58:33 19.4 C 9.01 g/m*3 19.4 C 0 km/h
1166 28-05-2009 17:10:33 19.1 C 9.02 g/m*3 19.1 C 0 km/h
1167 28-05-2009 17:22:33 19.7 C 9 g/m*3 19.7 C 0 km/h
1168 28-05-2009 17:34:33 19.4 C 9.01 g/m*3 19.4 C 0 km/h
1169 28-05-2009 17:46:33 19.3 C 8.79 g/m*3 19.3 C 0 km/h
1170 28-05-2009 17:58:33 18.9 C 7.94 g/m*3 18.9 C 0 km/h
1171 28-05-2009 18:10:32 18.7 C 8.33 g/m*3 18.7 C 0 km/h
1172 28-05-2009 18:22:33 18.4 C 8.49 g/m*3 18.4 C 0 km/h
1173 28-05-2009 18:34:32 18.3 C 8.44 g/m*3 18.3 C 0 km/h
1174 28-05-2009 18:46:32 18.1 C 8.65 g/m*3 18.1 C 0 km/h
1175 28-05-2009 18:58:32 18.5 C 8.7 g/m*3 18.5 C 0 km/h
Sensor: Nr:Datum:Temp:Abs-Feuchte:Windchill:Wind:
Aussen-T/F 1176 28-05-2009 19:10:32 18.5 C 9.02 g/m*3 18.5 C 0 km/h
1177 28-05-2009 19:22:31 18 C 9.06 g/m*3 18 C 0 km/h
1178 28-05-2009 19:34:31 17.7 C 9.35 g/m*3 17.7 C 0 km/h
1179 28-05-2009 19:46:31 17.5 C 9.09 g/m*3 17.5 C 0 km/h
1180 28-05-2009 19:58:31 17.5 C 9.09 g/m*3 17.5 C 0 km/h
1181 28-05-2009 20:10:31 17.5 C 8.95 g/m*3 17.5 C 0 km/h
1182 28-05-2009 20:22:31 17.5 C 9.09 g/m*3 17.5 C 0 km/h
1183 28-05-2009 20:34:31 17.5 C 9.09 g/m*3 17.5 C 0 km/h
1184 28-05-2009 20:46:31 17.4 C 8.74 g/m*3 17.4 C 0 km/h
1185 28-05-2009 20:58:32 17.2 C 8.64 g/m*3 17.2 C 0 km/h
1186 28-05-2009 21:10:31 16.6 C 8.76 g/m*3 16.6 C 0 km/h
1187 28-05-2009 21:22:31 16.2 C 8.55 g/m*3 16.2 C 0 km/h
1188 28-05-2009 21:34:30 16.3 C 8.05 g/m*3 16.3 C 0 km/h
1189 28-05-2009 21:47:31 16.2 C 8 g/m*3 16.2 C 0 km/h
1190 28-05-2009 21:59:31 16 C 8.17 g/m*3 16 C 0 km/h
1191 28-05-2009 22:11:31 15.8 C 8.21 g/m*3 15.8 C 0 km/h
1192 28-05-2009 22:23:31 15.6 C 8.25 g/m*3 15.6 C 0 km/h
1193 28-05-2009 22:35:31 15.5 C 8.2 g/m*3 15.5 C 0 km/h
1194 28-05-2009 22:47:31 15.7 C 8.16 g/m*3 15.7 C 0 km/h
1195 28-05-2009 22:59:31 15.8 C 8.08 g/m*3 15.8 C 0 km/h
1196 28-05-2009 23:11:31 15.8 C 8.08 g/m*3 15.8 C 0 km/h
1197 28-05-2009 23:23:31 15.6 C 7.98 g/m*3 15.6 C 0 km/h
1198 28-05-2009 23:35:31 15.5 C 7.93 g/m*3 15.5 C 0 km/h
1199 28-05-2009 23:47:31 15.6 C 7.98 g/m*3 15.6 C 0 km/h
1200 28-05-2009 23:59:31 15.6 C 7.71 g/m*3 15.6 C 0 km/h
Sensor: Nr:Datum:Temp:Abs-Feuchte:Windchill:Wind:
Aussen-T/F 1201 29-05-2009 00:11:31 15.6 C 7.71 g/m*3 15.6 C 0 km/h
1202 29-05-2009 00:23:31 15.4 C 7.62 g/m*3 15.4 C 0 km/h
1203 29-05-2009 00:35:31 15.1 C 7.61 g/m*3 15.1 C 0 km/h
1204 29-05-2009 00:47:31 14.6 C 7.76 g/m*3 14.6 C 0 km/h
1205 29-05-2009 00:59:31 14.2 C 7.69 g/m*3 14.2 C 0 km/h
1206 29-05-2009 01:11:32 13.9 C 7.91 g/m*3 13.9 C 0 km/h
1207 29-05-2009 01:23:32 13.5 C 7.84 g/m*3 13.5 C 0 km/h
1208 29-05-2009 01:35:32 13.2 C 7.92 g/m*3 13.2 C 0 km/h
1209 29-05-2009 01:47:32 13 C 7.94 g/m*3 13 C 0 km/h
1210 29-05-2009 01:59:32 12.8 C 8.06 g/m*3 12.8 C 0 km/h
1211 29-05-2009 02:11:32 12.5 C 8.03 g/m*3 12.5 C 0 km/h
1212 29-05-2009 02:23:32 12.2 C 7.88 g/m*3 12.2 C 0 km/h
1213 29-05-2009 02:35:32 12.1 C 7.94 g/m*3 12.1 C 0 km/h
1214 29-05-2009 02:47:32 11.8 C 8 g/m*3 11.8 C 0 km/h
1215 29-05-2009 02:59:32 11.6 C 8 g/m*3 11.6 C 0 km/h
1216 29-05-2009 03:11:32 11.4 C 8.01 g/m*3 11.4 C 0 km/h
1217 29-05-2009 03:23:32 11.1 C 7.86 g/m*3 11.1 C 0 km/h
1218 29-05-2009 03:35:32 10.8 C 7.81 g/m*3 10.8 C 0 km/h
1219 29-05-2009 03:47:32 10.6 C 7.71 g/m*3 10.6 C 0 km/h
1220 29-05-2009 03:59:32 10.5 C 7.76 g/m*3 10.5 C 0 km/h
1221 29-05-2009 04:11:32 10.2 C 7.61 g/m*3 10.2 C 0 km/h
1222 29-05-2009 04:23:32 10.1 C 7.56 g/m*3 10.1 C 0 km/h
1223 29-05-2009 04:35:32 9.9 C 7.56 g/m*3 9.9 C 0 km/h
1224 29-05-2009 04:47:32 9.7 C 7.56 g/m*3 9.7 C 0 km/h
1225 29-05-2009 04:59:32 9.6 C 7.51 g/m*3 9.6 C 0 km/h
Sensor: Nr:Datum:Temp:Abs-Feuchte:Windchill:Wind:
Aussen-T/F 1226 29-05-2009 05:11:33 9.4 C 7.42 g/m*3 9.4 C 0 km/h
1227 29-05-2009 05:23:33 9.4 C 7.51 g/m*3 9.4 C 0 km/h
1228 29-05-2009 05:35:33 9.4 C 7.6 g/m*3 9.4 C 0 km/h
1229 29-05-2009 05:47:33 9.3 C 7.55 g/m*3 9.3 C 0 km/h
1230 29-05-2009 05:59:33 9.2 C 7.59 g/m*3 9.2 C 0 km/h
1231 29-05-2009 06:11:33 9.1 C 7.54 g/m*3 9.1 C 0 km/h
1232 29-05-2009 06:23:33 9.1 C 7.63 g/m*3 9.1 C 0 km/h
1233 29-05-2009 06:35:33 9.2 C 7.68 g/m*3 9.2 C 0 km/h
1234 29-05-2009 06:47:33 9.2 C 7.68 g/m*3 9.2 C 0 km/h
1235 29-05-2009 06:59:33 9.3 C 7.73 g/m*3 9.3 C 0 km/h
1236 29-05-2009 07:11:31 9.5 C 7.83 g/m*3 9.5 C 0 km/h
1237 29-05-2009 07:23:30 9.5 C 7.74 g/m*3 9.5 C 0 km/h
1238 29-05-2009 07:35:31 9.7 C 7.84 g/m*3 9.7 C 0 km/h
1239 29-05-2009 07:47:30 9.8 C 7.79 g/m*3 9.8 C 0 km/h
1240 29-05-2009 07:59:30 10.2 C 7.9 g/m*3 10.2 C 0 km/h
1241 29-05-2009 08:11:30 10.5 C 7.76 g/m*3 10.5 C 0 km/h
1242 29-05-2009 08:23:30 11.1 C 7.05 g/m*3 11.1 C 0 km/h
1243 29-05-2009 08:35:30 11.4 C 6.47 g/m*3 11.4 C 0 km/h
1244 29-05-2009 08:47:29 11.8 C 6.31 g/m*3 11.8 C 0 km/h
1245 29-05-2009 08:59:29 12.2 C 6.15 g/m*3 12.2 C 0 km/h
1246 29-05-2009 09:11:29 12.7 C 5.57 g/m*3 12.7 C 0 km/h
1247 29-05-2009 09:23:30 13.2 C 5.17 g/m*3 13.2 C 0 km/h
1248 29-05-2009 09:35:29 13.6 C 4.71 g/m*3 13.6 C 0 km/h
1249 29-05-2009 09:47:29 13.9 C 4.68 g/m*3 13.9 C 0 km/h
1250 29-05-2009 09:59:29 14.1 C 3.76 g/m*3 14.1 C 0 km/h
Sensor: Nr:Datum:Temp:Abs-Feuchte:Windchill:Wind:
Aussen-T/F 1251 29-05-2009 10:11:29 14.7 C 3.9 g/m*3 14.7 C 0 km/h
1252 29-05-2009 10:23:29 15 C 4.1 g/m*3 15 C 0 km/h
1253 29-05-2009 10:35:28 15.9 C 4.33 g/m*3 15.9 C 0 km/h
1254 29-05-2009 10:47:29 15.7 C 4.01 g/m*3 15.7 C 0 km/h
1255 29-05-2009 10:59:29 16.6 C 4.24 g/m*3 16.6 C 0 km/h
1256 29-05-2009 11:11:28 17.5 C 3.73 g/m*3 17.5 C 0 km/h
1257 29-05-2009 11:23:28 17 C 3.04 g/m*3 17 C 0 km/h
1258 29-05-2009 11:35:28 17.6 C 3.75 g/m*3 17.6 C 0 km/h
1259 29-05-2009 11:47:28 18.8 C 3.7 g/m*3 18.8 C 0 km/h
1260 29-05-2009 11:59:28 19.6 C 3.55 g/m*3 19.6 C 0 km/h
1261 29-05-2009 12:11:28 20.3 C 3.52 g/m*3 20.3 C 0 km/h
1262 29-05-2009 12:23:27 20.4 C 3.54 g/m*3 20.4 C 0 km/h
1263 29-05-2009 12:35:28 21.7 C 3.82 g/m*3 21.7 C 0 km/h
1264 29-05-2009 12:47:27 22.6 C 4.02 g/m*3 22.6 C 0 km/h
1265 29-05-2009 12:59:27 23.2 C 4.16 g/m*3 23.2 C 0 km/h
1266 29-05-2009 13:11:27 23.4 C 4.21 g/m*3 23.4 C 0 km/h
1267 29-05-2009 13:23:27 23.7 C 4.28 g/m*3 23.7 C 0 km/h
1268 29-05-2009 13:35:27 24.7 C 4.53 g/m*3 24.7 C 0 km/h
1269 29-05-2009 13:47:27 24.8 C 4.55 g/m*3 24.8 C 0 km/h
1270 29-05-2009 13:59:27 24 C 4.35 g/m*3 24 C 0 km/h
1271 29-05-2009 14:11:26 23 C 4.11 g/m*3 23 C 0 km/h
1272 29-05-2009 14:23:26 23.1 C 4.13 g/m*3 23.1 C 0 km/h
1273 29-05-2009 14:35:26 22.6 C 4.02 g/m*3 22.6 C 0 km/h
1274 29-05-2009 14:47:26 23.3 C 4.18 g/m*3 23.3 C 0 km/h
1275 29-05-2009 14:59:26 24.6 C 4.5 g/m*3 24.6 C 0 km/h
Sensor: Nr:Datum:Temp:Abs-Feuchte:Windchill:Wind:
Aussen-T/F 1276 29-05-2009 15:11:26 25 C 4.6 g/m*3 25 C 0 km/h
1277 29-05-2009 15:23:26 25.6 C 4.76 g/m*3 25.6 C 0 km/h
1278 29-05-2009 15:35:26 26.6 C 5.03 g/m*3 26.6 C 0 km/h
1279 29-05-2009 15:47:26 26.2 C 4.92 g/m*3 26.2 C 0 km/h
1280 29-05-2009 15:59:26 26.1 C 4.9 g/m*3 26.1 C 0 km/h
1281 29-05-2009 16:11:25 27.3 C 5.23 g/m*3 27.3 C 0 km/h
1282 29-05-2009 16:23:25 27.4 C 5.26 g/m*3 27.4 C 0 km/h
1283 29-05-2009 16:35:25 28.4 C 5.56 g/m*3 28.4 C 0 km/h
1284 29-05-2009 16:47:25 27.8 C 5.38 g/m*3 27.8 C 0 km/h
1285 29-05-2009 16:59:25 26.4 C 4.98 g/m*3 26.4 C 0 km/h
1286 29-05-2009 17:11:24 28 C 5.44 g/m*3 28 C 0 km/h
1287 29-05-2009 17:23:25 28 C 5.44 g/m*3 28 C 0 km/h
1288 29-05-2009 17:35:25 29 C 5.74 g/m*3 29 C 0 km/h
1289 29-05-2009 17:47:24 28.8 C 5.68 g/m*3 28.8 C 0 km/h
1290 29-05-2009 17:59:24 28.3 C 5.53 g/m*3 28.3 C 0 km/h
1291 29-05-2009 18:11:25 27.9 C 5.41 g/m*3 27.9 C 0 km/h
1292 29-05-2009 18:23:24 28.6 C 5.62 g/m*3 28.6 C 0 km/h
1293 29-05-2009 18:35:24 28.7 C 5.65 g/m*3 28.7 C 0 km/h
1294 29-05-2009 18:47:24 27.6 C 5.32 g/m*3 27.6 C 0 km/h
1295 29-05-2009 18:59:24 27.1 C 5.18 g/m*3 27.1 C 0 km/h
1296 29-05-2009 19:11:24 26.9 C 5.12 g/m*3 26.9 C 0 km/h
1297 29-05-2009 19:23:24 26.8 C 5.09 g/m*3 26.8 C 0 km/h
1298 29-05-2009 19:35:23 26.6 C 5.03 g/m*3 26.6 C 0 km/h
1299 29-05-2009 19:47:24 26.2 C 4.92 g/m*3 26.2 C 0 km/h
1300 29-05-2009 19:59:24 25.5 C 4.73 g/m*3 25.5 C 0 km/h
Sensor: Nr:Datum:Temp:Abs-Feuchte:Windchill:Wind:
Aussen-T/F 1301 29-05-2009 20:11:23 24.5 C 4.48 g/m*3 24.5 C 0 km/h
1302 29-05-2009 20:23:23 23.7 C 4.28 g/m*3 23.7 C 0 km/h
1303 29-05-2009 20:35:02 23.2 C 4.16 g/m*3 23.2 C 0 km/h
1304 29-05-2009 20:47:02 22.5 C 4.39 g/m*3 22.5 C 0 km/h
1305 29-05-2009 20:59:02 21.6 C 5.12 g/m*3 21.6 C 0 km/h
1306 29-05-2009 21:11:02 20.2 C 5.07 g/m*3 20.2 C 0 km/h
1307 29-05-2009 21:23:02 19.1 C 4.92 g/m*3 19.1 C 0 km/h
1308 29-05-2009 21:35:01 18.4 C 5.03 g/m*3 18.4 C 0 km/h
1309 29-05-2009 21:47:02 18.1 C 4.94 g/m*3 18.1 C 0 km/h
1310 29-05-2009 21:59:02 18 C 4.92 g/m*3 18 C 0 km/h
1311 29-05-2009 22:11:01 17.8 C 5.16 g/m*3 17.8 C 0 km/h
1312 29-05-2009 22:23:01 17.4 C 5.04 g/m*3 17.4 C 0 km/h
1313 29-05-2009 22:35:01 16.8 C 5.15 g/m*3 16.8 C 0 km/h
1314 29-05-2009 22:48:02 16.4 C 5.02 g/m*3 16.4 C 0 km/h
1315 29-05-2009 23:00:02 16.2 C 5.1 g/m*3 16.2 C 0 km/h
1316 29-05-2009 23:12:02 15.7 C 5.08 g/m*3 15.7 C 0 km/h
1317 29-05-2009 23:24:03 15.4 C 5.12 g/m*3 15.4 C 0 km/h
1318 29-05-2009 23:36:03 15 C 5.13 g/m*3 15 C 0 km/h
1319 29-05-2009 23:48:03 14.5 C 5.6 g/m*3 14.5 C 0 km/h
1320 30-05-2009 00:00:03 14.4 C 5.44 g/m*3 14.4 C 0 km/h
1321 30-05-2009 00:12:03 14.3 C 5.65 g/m*3 14.3 C 0 km/h
1322 30-05-2009 00:24:03 14.1 C 5.46 g/m*3 14.1 C 0 km/h
1323 30-05-2009 00:36:03 13.8 C 5.48 g/m*3 13.8 C 0 km/h
1324 30-05-2009 00:48:03 13.5 C 5.38 g/m*3 13.5 C 0 km/h
1325 30-05-2009 01:00:03 13.4 C 5.46 g/m*3 13.4 C 0 km/h
Sensor: Nr:Datum:Temp:Abs-Feuchte:Windchill:Wind:
Aussen-T/F 1326 30-05-2009 01:12:03 13 C 5.67 g/m*3 13 C 0 km/h
1327 30-05-2009 01:24:03 12.8 C 5.71 g/m*3 12.8 C 0 km/h
1328 30-05-2009 01:36:03 12.7 C 5.57 g/m*3 12.7 C 0 km/h
1329 30-05-2009 01:48:03 12.4 C 5.79 g/m*3 12.4 C 0 km/h
1330 30-05-2009 02:00:03 12.1 C 5.9 g/m*3 12.1 C 0 km/h
1331 30-05-2009 02:12:03 11.9 C 6.04 g/m*3 11.9 C 0 km/h
1332 30-05-2009 02:24:03 11.6 C 6.03 g/m*3 11.6 C 0 km/h
1333 30-05-2009 02:36:03 11.5 C 5.99 g/m*3 11.5 C 0 km/h
1334 30-05-2009 02:48:03 11.5 C 6.09 g/m*3 11.5 C 0 km/h
1335 30-05-2009 03:00:03 11.4 C 5.95 g/m*3 11.4 C 0 km/h
1336 30-05-2009 03:12:03 11.4 C 5.75 g/m*3 11.4 C 0 km/h
1337 30-05-2009 03:24:04 11.5 C 5.68 g/m*3 11.5 C 0 km/h
1338 30-05-2009 03:36:04 11.4 C 5.75 g/m*3 11.4 C 0 km/h
1339 30-05-2009 03:48:04 11.3 C 5.71 g/m*3 11.3 C 0 km/h
1340 30-05-2009 04:00:04 11.1 C 5.74 g/m*3 11.1 C 0 km/h
1341 30-05-2009 04:12:04 11 C 5.91 g/m*3 11 C 0 km/h
1342 30-05-2009 04:24:04 10.8 C 5.93 g/m*3 10.8 C 0 km/h
1343 30-05-2009 04:36:04 10.8 C 5.93 g/m*3 10.8 C 0 km/h
1344 30-05-2009 04:48:04 10.7 C 5.89 g/m*3 10.7 C 0 km/h
1345 30-05-2009 05:00:04 10.6 C 5.95 g/m*3 10.6 C 0 km/h
1346 30-05-2009 05:12:04 10.4 C 5.88 g/m*3 10.4 C 0 km/h
1347 30-05-2009 05:24:04 10.2 C 6.19 g/m*3 10.2 C 0 km/h
1348 30-05-2009 05:36:04 10.1 C 6.34 g/m*3 10.1 C 0 km/h
1349 30-05-2009 05:48:04 10 C 6.58 g/m*3 10 C 0 km/h
1350 30-05-2009 06:00:04 9.9 C 6.54 g/m*3 9.9 C 0 km/h
Sensor: Nr:Datum:Temp:Abs-Feuchte:Windchill:Wind:
Aussen-T/F 1351 30-05-2009 06:12:04 9.9 C 6.54 g/m*3 9.9 C 0 km/h
1352 30-05-2009 06:24:04 9.9 C 6.54 g/m*3 9.9 C 0 km/h
1353 30-05-2009 06:36:04 9.9 C 6.72 g/m*3 9.9 C 0 km/h
1354 30-05-2009 06:48:04 10 C 6.67 g/m*3 10 C 0 km/h
1355 30-05-2009 07:00:04 10.1 C 6.71 g/m*3 10.1 C 0 km/h
1356 30-05-2009 07:12:04 10.3 C 6.9 g/m*3 10.3 C 0 km/h
1357 30-05-2009 07:24:05 10.5 C 6.89 g/m*3 10.5 C 0 km/h
1358 30-05-2009 07:36:02 10.8 C 6.92 g/m*3 10.8 C 0 km/h
1359 30-05-2009 07:48:02 11.1 C 6.95 g/m*3 11.1 C 0 km/h
1360 30-05-2009 08:00:02 11.4 C 6.98 g/m*3 11.4 C 0 km/h
1361 30-05-2009 08:12:01 11.7 C 6.9 g/m*3 11.7 C 0 km/h
1362 30-05-2009 08:24:02 12.3 C 6.84 g/m*3 12.3 C 0 km/h
1363 30-05-2009 08:36:02 12.7 C 6.68 g/m*3 12.7 C 0 km/h
1364 30-05-2009 08:48:01 13.4 C 6.51 g/m*3 13.4 C 0 km/h
1365 30-05-2009 09:00:01 13.8 C 6.31 g/m*3 13.8 C 0 km/h
1366 30-05-2009 09:12:02 14.2 C 6.35 g/m*3 14.2 C 0 km/h
1367 30-05-2009 09:24:01 14.8 C 6.33 g/m*3 14.8 C 0 km/h
1368 30-05-2009 09:36:01 15.3 C 6.4 g/m*3 15.3 C 0 km/h
1369 30-05-2009 09:48:01 15.9 C 6.37 g/m*3 15.9 C 0 km/h
1370 30-05-2009 10:00:01 16.5 C 6.32 g/m*3 16.5 C 0 km/h
1371 30-05-2009 10:12:01 16.9 C 6.04 g/m*3 16.9 C 0 km/h
1372 30-05-2009 10:24:00 17.6 C 6.15 g/m*3 17.6 C 0 km/h
1373 30-05-2009 10:36:00 18.2 C 6.22 g/m*3 18.2 C 0 km/h
1374 30-05-2009 10:48:00 18.9 C 6.48 g/m*3 18.9 C 0 km/h
1375 30-05-2009 11:00:00 19.6 C 6.25 g/m*3 19.6 C 0 km/h
Sensor: Nr:Datum:Temp:Abs-Feuchte:Windchill:Wind:
Aussen-T/F 1376 30-05-2009 11:12:00 19.6 C 6.25 g/m*3 19.6 C 0 km/h
1377 30-05-2009 11:24:00 19.9 C 6.19 g/m*3 19.9 C 0 km/h
1378 30-05-2009 11:36:00 20.6 C 6.26 g/m*3 20.6 C 0 km/h
1379 30-05-2009 11:48:00 21.2 C 5.93 g/m*3 21.2 C 0 km/h
1380 30-05-2009 12:00:00 21.4 C 5.44 g/m*3 21.4 C 0 km/h
1381 30-05-2009 12:12:59 23 C 5.34 g/m*3 23 C 0 km/h
1382 30-05-2009 12:24:00 21.6 C 5.5 g/m*3 21.6 C 0 km/h
1383 30-05-2009 12:36:00 22.1 C 5.08 g/m*3 22.1 C 0 km/h
1384 30-05-2009 12:48:59 22 C 5.05 g/m*3 22 C 0 km/h
1385 30-05-2009 13:00:59 21.5 C 5.09 g/m*3 21.5 C 0 km/h
1386 30-05-2009 13:11:59 24.3 C 5.09 g/m*3 24.3 C 0 km/h
1387 30-05-2009 13:24:59 26.5 C 5.01 g/m*3 26.5 C 0 km/h
1388 30-05-2009 13:36:59 26.6 C 5.03 g/m*3 26.6 C 0 km/h
1389 30-05-2009 13:48:58 25.8 C 4.82 g/m*3 25.8 C 0 km/h
1390 30-05-2009 14:00:59 24.9 C 4.58 g/m*3 24.9 C 0 km/h
1391 30-05-2009 14:13:00 23.2 C 4.16 g/m*3 23.2 C 0 km/h
1392 30-05-2009 14:24:58 22.7 C 4.65 g/m*3 22.7 C 0 km/h
1393 30-05-2009 14:36:58 24.1 C 4.38 g/m*3 24.1 C 0 km/h
1394 30-05-2009 14:48:58 25.7 C 4.79 g/m*3 25.7 C 0 km/h
1395 30-05-2009 15:00:58 25.4 C 4.71 g/m*3 25.4 C 0 km/h
1396 30-05-2009 15:12:58 25.1 C 4.63 g/m*3 25.1 C 0 km/h
1397 30-05-2009 15:24:58 25.7 C 4.79 g/m*3 25.7 C 0 km/h
1398 30-05-2009 15:36:57 26.6 C 5.03 g/m*3 26.6 C 0 km/h
1399 30-05-2009 15:48:58 25.3 C 4.68 g/m*3 25.3 C 0 km/h
1400 30-05-2009 16:00:57 26 C 4.87 g/m*3 26 C 0 km/h
Sensor: Nr:Datum:Temp:Abs-Feuchte:Windchill:Wind:
Aussen-T/F 1401 30-05-2009 16:12:57 27.5 C 5.29 g/m*3 27.5 C 0 km/h
1402 30-05-2009 16:24:57 28.2 C 5.5 g/m*3 28.2 C 0 km/h
1403 30-05-2009 16:36:58 28.2 C 5.5 g/m*3 28.2 C 0 km/h
1404 30-05-2009 16:48:57 29.1 C 5.78 g/m*3 29.1 C 0 km/h
1405 30-05-2009 17:00:57 28.6 C 5.62 g/m*3 28.6 C 0 km/h
1406 30-05-2009 17:12:57 28.3 C 5.53 g/m*3 28.3 C 0 km/h
1407 30-05-2009 17:24:57 26.9 C 5.12 g/m*3 26.9 C 0 km/h
1408 30-05-2009 17:36:57 25.1 C 4.63 g/m*3 25.1 C 0 km/h
1409 30-05-2009 17:48:56 27.9 C 5.41 g/m*3 27.9 C 0 km/h
1410 30-05-2009 18:00:56 28.6 C 5.62 g/m*3 28.6 C 0 km/h
1411 30-05-2009 18:12:57 29.4 C 5.87 g/m*3 29.4 C 0 km/h
1412 30-05-2009 18:24:56 26.6 C 5.03 g/m*3 26.6 C 0 km/h
1413 30-05-2009 18:36:56 25.2 C 4.66 g/m*3 25.2 C 0 km/h
1414 30-05-2009 18:48:55 25.7 C 4.79 g/m*3 25.7 C 0 km/h
1415 30-05-2009 19:00:56 26.9 C 5.12 g/m*3 26.9 C 0 km/h
1416 30-05-2009 19:12:56 27.2 C 5.2 g/m*3 27.2 C 0 km/h
1417 30-05-2009 19:24:56 27.1 C 5.18 g/m*3 27.1 C 0 km/h
1418 30-05-2009 19:36:55 26.8 C 5.09 g/m*3 26.8 C 0 km/h
1419 30-05-2009 19:48:56 26.1 C 4.9 g/m*3 26.1 C 0 km/h
1420 30-05-2009 20:00:55 25.5 C 4.73 g/m*3 25.5 C 0 km/h
1421 30-05-2009 20:12:55 25.1 C 4.86 g/m*3 25.1 C 0 km/h
1422 30-05-2009 20:24:55 24.5 C 4.92 g/m*3 24.5 C 0 km/h
1423 30-05-2009 20:36:55 23.6 C 5.32 g/m*3 23.6 C 0 km/h
1424 30-05-2009 20:48:55 22.6 C 5.42 g/m*3 22.6 C 0 km/h
1425 30-05-2009 21:00:55 21.6 C 5.88 g/m*3 21.6 C 0 km/h
Sensor: Nr:Datum:Temp:Abs-Feuchte:Windchill:Wind:
Aussen-T/F 1426 30-05-2009 21:12:56 20.9 C 6.19 g/m*3 20.9 C 0 km/h
1427 30-05-2009 21:24:54 20.4 C 6.19 g/m*3 20.4 C 0 km/h
1428 30-05-2009 21:36:54 19.7 C 6.28 g/m*3 19.7 C 0 km/h
1429 30-05-2009 21:48:54 19.6 C 6.58 g/m*3 19.6 C 0 km/h
1430 30-05-2009 22:00:54 18.9 C 6.48 g/m*3 18.9 C 0 km/h
1431 30-05-2009 22:12:54 18.7 C 6.72 g/m*3 18.7 C 0 km/h
1432 30-05-2009 22:24:54 18.2 C 6.53 g/m*3 18.2 C 0 km/h
1433 30-05-2009 22:36:54 17.8 C 6.68 g/m*3 17.8 C 0 km/h
1434 30-05-2009 22:48:54 17.5 C 6.71 g/m*3 17.5 C 0 km/h
1435 30-05-2009 23:01:54 17.5 C 6.86 g/m*3 17.5 C 0 km/h
1436 30-05-2009 23:13:54 17.3 C 6.78 g/m*3 17.3 C 0 km/h
1437 30-05-2009 23:25:54 17.2 C 6.88 g/m*3 17.2 C 0 km/h
1438 30-05-2009 23:37:54 17 C 6.95 g/m*3 17 C 0 km/h
1439 30-05-2009 23:49:54 17 C 6.95 g/m*3 17 C 0 km/h
1440 31-05-2009 00:01:54 16.6 C 6.92 g/m*3 16.6 C 0 km/h
1441 31-05-2009 00:13:54 16.4 C 7.12 g/m*3 16.4 C 0 km/h
1442 31-05-2009 00:25:54 16.3 C 7.21 g/m*3 16.3 C 0 km/h
1443 31-05-2009 00:37:54 16.6 C 7.35 g/m*3 16.6 C 0 km/h
1444 31-05-2009 00:49:55 16.7 C 7.39 g/m*3 16.7 C 0 km/h
1445 31-05-2009 01:01:55 16.7 C 7.39 g/m*3 16.7 C 0 km/h
1446 31-05-2009 01:13:55 16.4 C 7.4 g/m*3 16.4 C 0 km/h
1447 31-05-2009 01:25:55 16 C 7.36 g/m*3 16 C 0 km/h
1448 31-05-2009 01:37:55 15.5 C 7.4 g/m*3 15.5 C 0 km/h
1449 31-05-2009 01:49:55 15.6 C 7.71 g/m*3 15.6 C 0 km/h
1450 31-05-2009 02:01:55 15.8 C 7.67 g/m*3 15.8 C 0 km/h
Sensor: Nr:Datum:Temp:Abs-Feuchte:Windchill:Wind:
Aussen-T/F 1451 31-05-2009 02:13:55 15.8 C 7.67 g/m*3 15.8 C 0 km/h
1452 31-05-2009 02:25:55 15.7 C 7.76 g/m*3 15.7 C 0 km/h
1453 31-05-2009 02:37:55 15.9 C 7.85 g/m*3 15.9 C 0 km/h
1454 31-05-2009 02:49:55 15.9 C 7.85 g/m*3 15.9 C 0 km/h
1455 31-05-2009 03:01:55 15.8 C 7.81 g/m*3 15.8 C 0 km/h
1456 31-05-2009 03:13:55 15.9 C 7.72 g/m*3 15.9 C 0 km/h
1457 31-05-2009 03:25:55 15.6 C 7.71 g/m*3 15.6 C 0 km/h
1458 31-05-2009 03:37:55 15.5 C 7.8 g/m*3 15.5 C 0 km/h
1459 31-05-2009 03:49:55 15.5 C 7.8 g/m*3 15.5 C 0 km/h
1460 31-05-2009 04:01:55 15.6 C 7.98 g/m*3 15.6 C 0 km/h
1461 31-05-2009 04:13:55 15.5 C 7.93 g/m*3 15.5 C 0 km/h
1462 31-05-2009 04:25:55 15.2 C 7.92 g/m*3 15.2 C 0 km/h
1463 31-05-2009 04:37:56 15.4 C 8.01 g/m*3 15.4 C 0 km/h
1464 31-05-2009 04:49:56 15.5 C 8.06 g/m*3 15.5 C 0 km/h
1465 31-05-2009 05:01:56 15.5 C 8.06 g/m*3 15.5 C 0 km/h
1466 31-05-2009 05:13:56 15.4 C 8.01 g/m*3 15.4 C 0 km/h
1467 31-05-2009 05:25:56 15.4 C 8.01 g/m*3 15.4 C 0 km/h
1468 31-05-2009 05:37:56 15.4 C 8.01 g/m*3 15.4 C 0 km/h
1469 31-05-2009 05:49:56 15.4 C 8.15 g/m*3 15.4 C 0 km/h
1470 31-05-2009 06:01:56 15.3 C 8.1 g/m*3 15.3 C 0 km/h
1471 31-05-2009 06:13:56 15.4 C 8.28 g/m*3 15.4 C 0 km/h
1472 31-05-2009 06:25:56 15.6 C 8.38 g/m*3 15.6 C 0 km/h
1473 31-05-2009 06:37:56 15.8 C 8.35 g/m*3 15.8 C 0 km/h
1474 31-05-2009 06:49:56 15.9 C 8.4 g/m*3 15.9 C 0 km/h
1475 31-05-2009 07:01:56 16 C 8.31 g/m*3 16 C 0 km/h
Sensor: Nr:Datum:Temp:Abs-Feuchte:Windchill:Wind:
Aussen-T/F 1476 31-05-2009 07:13:56 15.9 C 8.26 g/m*3 15.9 C 0 km/h
1477 31-05-2009 07:25:56 16 C 8.31 g/m*3 16 C 0 km/h
1478 31-05-2009 07:37:56 16 C 8.58 g/m*3 16 C 0 km/h
1479 31-05-2009 07:49:56 16 C 8.58 g/m*3 16 C 0 km/h
1480 31-05-2009 08:01:54 15.9 C 8.67 g/m*3 15.9 C 0 km/h
1481 31-05-2009 08:13:54 16.2 C 8.83 g/m*3 16.2 C 0 km/h
1482 31-05-2009 08:25:54 16.7 C 8.95 g/m*3 16.7 C 0 km/h
1483 31-05-2009 08:37:53 17.5 C 8.8 g/m*3 17.5 C 0 km/h
1484 31-05-2009 08:49:54 17.6 C 8.7 g/m*3 17.6 C 0 km/h
1485 31-05-2009 09:01:53 17.7 C 8.75 g/m*3 17.7 C 0 km/h
1486 31-05-2009 09:13:53 18.3 C 8.6 g/m*3 18.3 C 0 km/h
1487 31-05-2009 09:25:53 18.6 C 8.59 g/m*3 18.6 C 0 km/h
1488 31-05-2009 09:37:54 18.9 C 8.59 g/m*3 18.9 C 0 km/h
1489 31-05-2009 09:49:53 18.9 C 8.26 g/m*3 18.9 C 0 km/h
1490 31-05-2009 10:01:53 19.3 C 8.29 g/m*3 19.3 C 0 km/h
1491 31-05-2009 10:13:53 20.1 C 8.34 g/m*3 20.1 C 0 km/h
1492 31-05-2009 10:25:53 20.4 C 7.96 g/m*3 20.4 C 0 km/h
1493 31-05-2009 10:37:53 20.5 C 8.01 g/m*3 20.5 C 0 km/h
1494 31-05-2009 10:49:52 20.5 C 8.19 g/m*3 20.5 C 0 km/h
1495 31-05-2009 11:01:53 20.9 C 8.01 g/m*3 20.9 C 0 km/h
1496 31-05-2009 11:13:54 21.2 C 7.78 g/m*3 21.2 C 0 km/h
1497 31-05-2009 11:25:52 21.4 C 7.5 g/m*3 21.4 C 0 km/h
1498 31-05-2009 11:37:52 21.9 C 7.53 g/m*3 21.9 C 0 km/h
1499 31-05-2009 11:49:51 22.4 C 7.35 g/m*3 22.4 C 0 km/h
1500 31-05-2009 12:01:52 23.3 C 7.11 g/m*3 23.3 C 0 km/h
Sensor: Nr:Datum:Temp:Abs-Feuchte:Windchill:Wind:
Aussen-T/F 1501 31-05-2009 12:13:52 23.9 C 7.14 g/m*3 23.9 C 0 km/h
1502 31-05-2009 12:25:52 23 C 6.78 g/m*3 23 C 0 km/h
1503 31-05-2009 12:37:51 22.7 C 7.07 g/m*3 22.7 C 0 km/h
1504 31-05-2009 12:49:52 22.2 C 7.07 g/m*3 22.2 C 0 km/h
1505 31-05-2009 13:01:51 23.1 C 6.82 g/m*3 23.1 C 0 km/h
1506 31-05-2009 13:13:51 25.6 C 6.43 g/m*3 25.6 C 0 km/h
1507 31-05-2009 13:25:51 26.1 C 5.39 g/m*3 26.1 C 0 km/h
1508 31-05-2009 13:37:51 23.5 C 6.13 g/m*3 23.5 C 0 km/h
1509 31-05-2009 13:49:51 23.1 C 5.99 g/m*3 23.1 C 0 km/h
1510 31-05-2009 14:01:51 24.5 C 6.49 g/m*3 24.5 C 0 km/h
1511 31-05-2009 14:13:51 25 C 6.22 g/m*3 25 C 0 km/h
1512 31-05-2009 14:25:50 25.4 C 5.89 g/m*3 25.4 C 0 km/h
1513 31-05-2009 14:37:51 25.7 C 5.99 g/m*3 25.7 C 0 km/h
1514 31-05-2009 14:49:50 25.6 C 5.95 g/m*3 25.6 C 0 km/h
1515 31-05-2009 15:01:50 25.8 C 5.3 g/m*3 25.8 C 0 km/h
1516 31-05-2009 15:13:50 26.3 C 5.2 g/m*3 26.3 C 0 km/h
1517 31-05-2009 15:25:50 25.6 C 5 g/m*3 25.6 C 0 km/h
1518 31-05-2009 15:37:50 26.7 C 5.32 g/m*3 26.7 C 0 km/h
1519 31-05-2009 15:49:49 27.4 C 5.26 g/m*3 27.4 C 0 km/h
1520 31-05-2009 16:01:50 27.1 C 5.18 g/m*3 27.1 C 0 km/h
1521 31-05-2009 16:13:50 27.1 C 5.18 g/m*3 27.1 C 0 km/h
1522 31-05-2009 16:25:50 28.1 C 5.47 g/m*3 28.1 C 0 km/h
1523 31-05-2009 16:37:49 27.1 C 5.18 g/m*3 27.1 C 0 km/h
1524 31-05-2009 16:49:50 27 C 5.15 g/m*3 27 C 0 km/h
1525 31-05-2009 17:01:49 25.4 C 5.41 g/m*3 25.4 C 0 km/h
Sensor: Nr:Datum:Temp:Abs-Feuchte:Windchill:Wind:
Aussen-T/F 1526 31-05-2009 17:13:49 25.5 C 5.21 g/m*3 25.5 C 0 km/h
1527 31-05-2009 17:25:49 25.8 C 5.3 g/m*3 25.8 C 0 km/h
1528 31-05-2009 17:37:48 25.8 C 5.54 g/m*3 25.8 C 0 km/h
1529 31-05-2009 17:49:49 25.5 C 5.21 g/m*3 25.5 C 0 km/h
1530 31-05-2009 18:01:48 24.8 C 5.46 g/m*3 24.8 C 0 km/h
1531 31-05-2009 18:13:48 27.5 C 5.29 g/m*3 27.5 C 0 km/h
1532 31-05-2009 18:25:48 25.6 C 5.24 g/m*3 25.6 C 0 km/h
1533 31-05-2009 18:37:49 25.7 C 5.75 g/m*3 25.7 C 0 km/h
1534 31-05-2009 18:49:48 27 C 5.4 g/m*3 27 C 0 km/h
1535 31-05-2009 19:01:48 27.5 C 5.56 g/m*3 27.5 C 0 km/h
1536 31-05-2009 19:13:48 27.5 C 5.56 g/m*3 27.5 C 0 km/h
1537 31-05-2009 19:25:48 27.6 C 5.59 g/m*3 27.6 C 0 km/h
1538 31-05-2009 19:37:47 26.8 C 5.6 g/m*3 26.8 C 0 km/h
1539 31-05-2009 19:49:48 25.6 C 5.95 g/m*3 25.6 C 0 km/h
1540 31-05-2009 20:01:47 24.1 C 5.69 g/m*3 24.1 C 0 km/h
1541 31-05-2009 20:13:47 24.1 C 5.91 g/m*3 24.1 C 0 km/h
1542 31-05-2009 20:25:48 23.3 C 6.06 g/m*3 23.3 C 0 km/h
1543 31-05-2009 20:37:47 22.9 C 6.34 g/m*3 22.9 C 0 km/h
1544 31-05-2009 20:49:47 22.2 C 6.48 g/m*3 22.2 C 0 km/h
1545 31-05-2009 21:01:47 21.4 C 6.75 g/m*3 21.4 C 0 km/h
1546 31-05-2009 21:13:47 20.8 C 6.88 g/m*3 20.8 C 0 km/h
1547 31-05-2009 21:25:47 20 C 6.57 g/m*3 20 C 0 km/h
1548 31-05-2009 21:37:46 19.6 C 6.75 g/m*3 19.6 C 0 km/h
1549 31-05-2009 21:49:47 19.2 C 6.76 g/m*3 19.2 C 0 km/h
1550 31-05-2009 22:01:46 18.9 C 6.97 g/m*3 18.9 C 0 km/h
Sensor: Nr:Datum:Temp:Abs-Feuchte:Windchill:Wind:
Aussen-T/F 1551 31-05-2009 22:13:46 18.6 C 7 g/m*3 18.6 C 0 km/h
1552 31-05-2009 22:25:46 18.4 C 7.08 g/m*3 18.4 C 0 km/h
1553 31-05-2009 22:37:46 18 C 7.07 g/m*3 18 C 0 km/h
1554 31-05-2009 22:49:01 17.8 C 7.29 g/m*3 17.8 C 0 km/h
1555 31-05-2009 23:01:01 17.7 C 7.24 g/m*3 17.7 C 0 km/h
1556 31-05-2009 23:13:01 17.4 C 7.26 g/m*3 17.4 C 0 km/h
1557 31-05-2009 23:25:01 17.2 C 7.32 g/m*3 17.2 C 0 km/h
1558 31-05-2009 23:37:01 16.9 C 7.34 g/m*3 16.9 C 0 km/h
1559 31-05-2009 23:49:00 16.6 C 7.35 g/m*3 16.6 C 0 km/h
1560 01-06-2009 00:01:00 16.6 C 7.49 g/m*3 16.6 C 0 km/h
1561 01-06-2009 00:13:00 16.3 C 7.49 g/m*3 16.3 C 0 km/h
1562 01-06-2009 00:26:01 16.1 C 7.54 g/m*3 16.1 C 0 km/h
1563 01-06-2009 00:38:01 15.9 C 7.85 g/m*3 15.9 C 0 km/h
1564 01-06-2009 00:50:01 15.6 C 7.85 g/m*3 15.6 C 0 km/h
1565 01-06-2009 01:02:01 15.6 C 7.98 g/m*3 15.6 C 0 km/h
1566 01-06-2009 01:14:01 15.2 C 7.92 g/m*3 15.2 C 0 km/h
1567 01-06-2009 01:26:01 14.9 C 7.9 g/m*3 14.9 C 0 km/h
1568 01-06-2009 01:38:01 14.8 C 8.11 g/m*3 14.8 C 0 km/h
1569 01-06-2009 01:50:01 14.6 C 8.01 g/m*3 14.6 C 0 km/h
1570 01-06-2009 02:02:01 14.5 C 7.96 g/m*3 14.5 C 0 km/h
1571 01-06-2009 02:14:01 14.3 C 8.11 g/m*3 14.3 C 0 km/h
1572 01-06-2009 02:26:01 14.1 C 8.13 g/m*3 14.1 C 0 km/h
1573 01-06-2009 02:38:01 13.7 C 8.05 g/m*3 13.7 C 0 km/h
1574 01-06-2009 02:50:01 13.8 C 8.22 g/m*3 13.8 C 0 km/h
1575 01-06-2009 03:02:01 13.6 C 8.24 g/m*3 13.6 C 0 km/h
Sensor: Nr:Datum:Temp:Abs-Feuchte:Windchill:Wind:
Aussen-T/F 1576 01-06-2009 03:14:01 13.4 C 8.25 g/m*3 13.4 C 0 km/h
1577 01-06-2009 03:26:01 13.3 C 8.2 g/m*3 13.3 C 0 km/h
1578 01-06-2009 03:38:01 13.1 C 8.22 g/m*3 13.1 C 0 km/h
1579 01-06-2009 03:50:01 13 C 8.28 g/m*3 13 C 0 km/h
1580 01-06-2009 04:02:01 12.9 C 8.34 g/m*3 12.9 C 0 km/h
1581 01-06-2009 04:14:02 12.8 C 8.4 g/m*3 12.8 C 0 km/h
1582 01-06-2009 04:26:02 12.6 C 8.3 g/m*3 12.6 C 0 km/h
1583 01-06-2009 04:38:02 12.5 C 8.36 g/m*3 12.5 C 0 km/h
1584 01-06-2009 04:50:02 12.4 C 8.3 g/m*3 12.4 C 0 km/h
1585 01-06-2009 05:02:02 12.2 C 8.2 g/m*3 12.2 C 0 km/h
1586 01-06-2009 05:14:02 12.3 C 8.25 g/m*3 12.3 C 0 km/h
1587 01-06-2009 05:26:02 12.4 C 8.41 g/m*3 12.4 C 0 km/h
1588 01-06-2009 05:38:02 12.6 C 8.52 g/m*3 12.6 C 0 km/h
1589 01-06-2009 05:50:02 12.8 C 8.51 g/m*3 12.8 C 0 km/h
1590 01-06-2009 06:02:02 12.8 C 8.51 g/m*3 12.8 C 0 km/h
1591 01-06-2009 06:14:02 13 C 8.39 g/m*3 13 C 0 km/h
1592 01-06-2009 06:26:02 13.2 C 8.5 g/m*3 13.2 C 0 km/h
1593 01-06-2009 06:38:02 13.2 C 8.38 g/m*3 13.2 C 0 km/h
1594 01-06-2009 06:50:02 13.5 C 8.54 g/m*3 13.5 C 0 km/h
1595 01-06-2009 07:02:02 13.5 C 8.54 g/m*3 13.5 C 0 km/h
1596 01-06-2009 07:14:02 13.6 C 8.59 g/m*3 13.6 C 0 km/h
1597 01-06-2009 07:26:02 13.8 C 8.7 g/m*3 13.8 C 0 km/h
1598 01-06-2009 07:38:02 14.3 C 8.72 g/m*3 14.3 C 0 km/h
1599 01-06-2009 07:50:02 14.4 C 8.65 g/m*3 14.4 C 0 km/h
1600 01-06-2009 08:02:03 14.3 C 8.72 g/m*3 14.3 C 0 km/h
Sensor: Nr:Datum:Temp:Abs-Feuchte:Windchill:Wind:
Aussen-T/F 1601 01-06-2009 08:14:03 14.5 C 8.83 g/m*3 14.5 C 0 km/h
1602 01-06-2009 08:26:03 15.1 C 8.9 g/m*3 15.1 C 0 km/h
1603 01-06-2009 08:38:01 15.9 C 8.94 g/m*3 15.9 C 0 km/h
1604 01-06-2009 08:50:01 16.9 C 8.92 g/m*3 16.9 C 0 km/h
1605 01-06-2009 09:02:00 17.1 C 8.73 g/m*3 17.1 C 0 km/h
1606 01-06-2009 09:14:00 17.6 C 9 g/m*3 17.6 C 0 km/h
1607 01-06-2009 09:26:01 18.2 C 8.7 g/m*3 18.2 C 0 km/h
1608 01-06-2009 09:38:01 18.3 C 8.76 g/m*3 18.3 C 0 km/h
1609 01-06-2009 09:50:00 18.7 C 8.81 g/m*3 18.7 C 0 km/h
1610 01-06-2009 10:02:01 19.6 C 8.78 g/m*3 19.6 C 0 km/h
1611 01-06-2009 10:14:01 20.1 C 8.52 g/m*3 20.1 C 0 km/h
1612 01-06-2009 10:26:00 20.8 C 8.87 g/m*3 20.8 C 0 km/h
1613 01-06-2009 10:38:00 21.7 C 9.16 g/m*3 21.7 C 0 km/h
1614 01-06-2009 10:50:00 22.1 C 8.39 g/m*3 22.1 C 0 km/h
1615 01-06-2009 11:14:00 22.5 C 8.39 g/m*3 22.5 C 0 km/h
1616 01-06-2009 11:14:00 22.8 C 8.53 g/m*3 22.8 C 0 km/h
1617 01-06-2009 11:14:00 22.5 C 8.39 g/m*3 22.5 C 0 km/h
1618 01-06-2009 11:14:00 22.8 C 8.53 g/m*3 22.8 C 0 km/h
1619 01-06-2009 11:26:00 22.6 C 8.44 g/m*3 22.6 C 0 km/h
1620 01-06-2009 11:37:59 23.3 C 8.15 g/m*3 23.3 C 0 km/h
1621 01-06-2009 11:50:59 24.5 C 8.06 g/m*3 24.5 C 0 km/h
1622 01-06-2009 12:02:59 24.5 C 7.83 g/m*3 24.5 C 0 km/h
1623 01-06-2009 12:14:58 25.7 C 7.42 g/m*3 25.7 C 0 km/h
1624 01-06-2009 12:26:58 26.5 C 7.76 g/m*3 26.5 C 0 km/h
1625 01-06-2009 12:38:59 26.8 C 7.38 g/m*3 26.8 C 0 km/h
Sensor: Nr:Datum:Temp:Abs-Feuchte:Windchill:Wind:
Aussen-T/F 1626 01-06-2009 12:50:58 26.2 C 7.39 g/m*3 26.2 C 0 km/h
1627 01-06-2009 13:02:58 25.4 C 8.24 g/m*3 25.4 C 0 km/h
1628 01-06-2009 13:14:59 24.8 C 8.65 g/m*3 24.8 C 0 km/h
1629 01-06-2009 13:26:59 25.6 C 8.09 g/m*3 25.6 C 0 km/h
1630 01-06-2009 13:38:58 25.7 C 8.38 g/m*3 25.7 C 0 km/h
1631 01-06-2009 13:50:58 24.4 C 8.46 g/m*3 24.4 C 0 km/h
1632 01-06-2009 14:02:58 19.6 C 9.12 g/m*3 19.6 C 0 km/h
1633 01-06-2009 14:14:58 19 C 11.73 g/m*3 19 C 0 km/h
1634 01-06-2009 14:26:59 20.1 C 12.69 g/m*3 20.1 C 0 km/h
1635 01-06-2009 14:38:57 22.4 C 11.12 g/m*3 22.4 C 0 km/h
1636 01-06-2009 14:50:57 22.7 C 11.11 g/m*3 22.7 C 0 km/h
1637 01-06-2009 15:02:57 22.1 C 12.1 g/m*3 22.1 C 0 km/h
1638 01-06-2009 15:14:57 22.6 C 12.25 g/m*3 22.6 C 0 km/h
1639 01-06-2009 15:26:57 23.7 C 11.55 g/m*3 23.7 C 0 km/h
1640 01-06-2009 15:38:57 23.6 C 11.91 g/m*3 23.6 C 0 km/h
1641 01-06-2009 15:50:57 24.6 C 11.25 g/m*3 24.6 C 0 km/h
1642 01-06-2009 16:02:57 25.9 C 9.44 g/m*3 25.9 C 0 km/h
1643 01-06-2009 16:14:56 26.9 C 8.7 g/m*3 26.9 C 0 km/h
1644 01-06-2009 16:26:56 28.8 C 7.39 g/m*3 28.8 C 0 km/h
1645 01-06-2009 16:38:56 29.4 C 6.75 g/m*3 29.4 C 0 km/h
1646 01-06-2009 16:50:56 25.6 C 6.9 g/m*3 25.6 C 0 km/h
1647 01-06-2009 17:02:56 21.6 C 11.57 g/m*3 21.6 C 0 km/h
1648 01-06-2009 17:14:56 22.4 C 11.72 g/m*3 22.4 C 0 km/h
1649 01-06-2009 17:26:56 23.3 C 11.5 g/m*3 23.3 C 0 km/h
1650 01-06-2009 17:38:56 24.3 C 10.4 g/m*3 24.3 C 0 km/h
Sensor: Nr:Datum:Temp:Abs-Feuchte:Windchill:Wind:
Aussen-T/F 1651 01-06-2009 17:50:56 24.7 C 9.96 g/m*3 24.7 C 0 km/h
1652 01-06-2009 18:02:55 24.7 C 9.51 g/m*3 24.7 C 0 km/h
1653 01-06-2009 18:14:56 25.4 C 8.95 g/m*3 25.4 C 0 km/h
1654 01-06-2009 18:26:57 25.9 C 9.44 g/m*3 25.9 C 0 km/h
1655 01-06-2009 18:38:55 28 C 8.16 g/m*3 28 C 0 km/h
1656 01-06-2009 18:50:55 27.4 C 8.95 g/m*3 27.4 C 0 km/h
1657 01-06-2009 19:02:54 25.6 C 8.81 g/m*3 25.6 C 0 km/h
1658 01-06-2009 19:14:55 23.7 C 8.34 g/m*3 23.7 C 0 km/h
1659 01-06-2009 19:26:55 24.2 C 8.14 g/m*3 24.2 C 0 km/h
1660 01-06-2009 19:38:55 25.3 C 8.19 g/m*3 25.3 C 0 km/h
1661 01-06-2009 19:50:54 25.3 C 7.73 g/m*3 25.3 C 0 km/h
1662 01-06-2009 20:02:55 25.2 C 7.68 g/m*3 25.2 C 0 km/h
1663 01-06-2009 20:14:54 24.9 C 7.78 g/m*3 24.9 C 0 km/h
1664 01-06-2009 20:26:54 24.5 C 7.61 g/m*3 24.5 C 0 km/h
1665 01-06-2009 20:38:54 23.7 C 7.49 g/m*3 23.7 C 0 km/h
1666 01-06-2009 20:50:54 22.6 C 7.83 g/m*3 22.6 C 0 km/h
1667 01-06-2009 21:02:53 22.1 C 8.59 g/m*3 22.1 C 0 km/h
1668 01-06-2009 21:14:54 21.1 C 8.48 g/m*3 21.1 C 0 km/h
1669 01-06-2009 21:26:54 20.3 C 8.62 g/m*3 20.3 C 0 km/h
1670 01-06-2009 21:38:54 19.7 C 8.49 g/m*3 19.7 C 0 km/h
1671 01-06-2009 21:50:53 19.3 C 8.63 g/m*3 19.3 C 0 km/h
1672 01-06-2009 22:02:54 19 C 8.64 g/m*3 19 C 0 km/h
1673 01-06-2009 22:14:53 18.6 C 8.91 g/m*3 18.6 C 0 km/h
1674 01-06-2009 22:26:53 18.4 C 8.81 g/m*3 18.4 C 0 km/h
1675 01-06-2009 22:39:09 18.1 C 8.96 g/m*3 18.1 C 0 km/h
Sensor: Nr:Datum:Temp:Abs-Feuchte:Windchill:Wind:
Aussen-T/F 1676 01-06-2009 22:51:09 17.8 C 9.11 g/m*3 17.8 C 0 km/h
1677 01-06-2009 23:03:09 17.4 C 8.89 g/m*3 17.4 C 0 km/h
1678 01-06-2009 23:15:09 17.2 C 8.93 g/m*3 17.2 C 0 km/h
1679 01-06-2009 23:27:09 17 C 9.12 g/m*3 17 C 0 km/h
1680 01-06-2009 23:39:09 16.9 C 9.21 g/m*3 16.9 C 0 km/h
1681 01-06-2009 23:51:09 16.6 C 9.18 g/m*3 16.6 C 0 km/h
1682 02-06-2009 00:03:09 16.4 C 9.21 g/m*3 16.4 C 0 km/h
1683 02-06-2009 00:15:09 16.1 C 9.18 g/m*3 16.1 C 0 km/h
1684 02-06-2009 00:27:09 16 C 9.26 g/m*3 16 C 0 km/h
1685 02-06-2009 00:39:09 15.8 C 9.56 g/m*3 15.8 C 0 km/h
1686 02-06-2009 00:51:09 15.5 C 9.65 g/m*3 15.5 C 0 km/h
1687 02-06-2009 01:03:09 15.3 C 9.66 g/m*3 15.3 C 0 km/h
1688 02-06-2009 01:15:09 15 C 9.62 g/m*3 15 C 0 km/h
1689 02-06-2009 01:27:10 14.9 C 9.69 g/m*3 14.9 C 0 km/h
1690 02-06-2009 01:39:10 14.7 C 9.82 g/m*3 14.7 C 0 km/h
1691 02-06-2009 01:51:10 14.6 C 9.76 g/m*3 14.6 C 0 km/h
1692 02-06-2009 02:03:10 14.4 C 9.64 g/m*3 14.4 C 0 km/h
1693 02-06-2009 02:15:10 14.1 C 9.59 g/m*3 14.1 C 0 km/h
1694 02-06-2009 02:27:10 14 C 9.65 g/m*3 14 C 0 km/h
1695 02-06-2009 02:39:10 13.7 C 9.59 g/m*3 13.7 C 0 km/h
1696 02-06-2009 02:51:10 13.7 C 9.59 g/m*3 13.7 C 0 km/h
1697 02-06-2009 03:03:10 13.7 C 9.59 g/m*3 13.7 C 0 km/h
1698 02-06-2009 03:15:10 13.5 C 9.59 g/m*3 13.5 C 0 km/h
1699 02-06-2009 03:27:10 13.4 C 9.53 g/m*3 13.4 C 0 km/h
1700 02-06-2009 03:39:10 13.4 C 9.53 g/m*3 13.4 C 0 km/h
Sensor: Nr:Datum:Temp:Abs-Feuchte:Windchill:Wind:
Aussen-T/F 1701 02-06-2009 03:51:10 13.4 C 9.53 g/m*3 13.4 C 0 km/h
1702 02-06-2009 04:03:10 13.4 C 9.42 g/m*3 13.4 C 0 km/h
1703 02-06-2009 04:15:10 13.2 C 9.3 g/m*3 13.2 C 0 km/h
1704 02-06-2009 04:27:10 13 C 9.19 g/m*3 13 C 0 km/h
1705 02-06-2009 04:39:10 12.9 C 9.35 g/m*3 12.9 C 0 km/h
1706 02-06-2009 04:51:10 12.8 C 9.3 g/m*3 12.8 C 0 km/h
1707 02-06-2009 05:03:10 12.7 C 9.35 g/m*3 12.7 C 0 km/h
1708 02-06-2009 05:15:11 12.5 C 9.24 g/m*3 12.5 C 0 km/h
1709 02-06-2009 05:27:11 12.4 C 9.18 g/m*3 12.4 C 0 km/h
1710 02-06-2009 05:39:11 12.4 C 9.18 g/m*3 12.4 C 0 km/h
1711 02-06-2009 05:51:11 12.4 C 9.18 g/m*3 12.4 C 0 km/h
1712 02-06-2009 06:03:11 12.4 C 9.18 g/m*3 12.4 C 0 km/h
1713 02-06-2009 06:15:11 12.6 C 9.18 g/m*3 12.6 C 0 km/h
1714 02-06-2009 06:27:11 12.9 C 8.9 g/m*3 12.9 C 0 km/h
1715 02-06-2009 06:39:54 13.1 C 8.22 g/m*3 13.1 C 0 km/h
1716 02-06-2009 06:51:54 13.5 C 7.95 g/m*3 13.5 C 0 km/h
1717 02-06-2009 07:03:53 13.6 C 7.77 g/m*3 13.6 C 0 km/h
1718 02-06-2009 07:15:54 13.7 C 7.7 g/m*3 13.7 C 0 km/h
1719 02-06-2009 07:27:54 13.8 C 7.86 g/m*3 13.8 C 0 km/h
1720 02-06-2009 07:39:53 13.7 C 7.7 g/m*3 13.7 C 0 km/h
1721 02-06-2009 07:51:53 14 C 7.6 g/m*3 14 C 0 km/h
1722 02-06-2009 08:03:53 14.2 C 7.82 g/m*3 14.2 C 0 km/h
1723 02-06-2009 08:15:53 14.4 C 7.91 g/m*3 14.4 C 0 km/h
1724 02-06-2009 08:27:53 14.6 C 7.63 g/m*3 14.6 C 0 km/h
1725 02-06-2009 08:39:53 14.7 C 7.68 g/m*3 14.7 C 0 km/h
Sensor: Nr:Datum:Temp:Abs-Feuchte:Windchill:Wind:
Aussen-T/F 1726 02-06-2009 08:51:53 15.1 C 7.74 g/m*3 15.1 C 0 km/h
1727 02-06-2009 09:03:53 15.5 C 7.8 g/m*3 15.5 C 0 km/h
1728 02-06-2009 09:15:52 15.8 C 7.81 g/m*3 15.8 C 0 km/h
1729 02-06-2009 09:27:52 16 C 7.63 g/m*3 16 C 0 km/h
1730 02-06-2009 09:39:53 16.5 C 7.86 g/m*3 16.5 C 0 km/h
1731 02-06-2009 09:51:52 17 C 7.81 g/m*3 17 C 0 km/h
1732 02-06-2009 10:03:52 17.6 C 7.8 g/m*3 17.6 C 0 km/h
1733 02-06-2009 10:15:51 18 C 7.83 g/m*3 18 C 0 km/h
1734 02-06-2009 10:27:51 18.3 C 7.82 g/m*3 18.3 C 0 km/h
1735 02-06-2009 10:39:52 18.8 C 7.73 g/m*3 18.8 C 0 km/h
1736 02-06-2009 10:51:51 18.8 C 7.57 g/m*3 18.8 C 0 km/h
1737 02-06-2009 11:03:51 19.3 C 7.8 g/m*3 19.3 C 0 km/h
1738 02-06-2009 11:15:52 19.5 C 7.89 g/m*3 19.5 C 0 km/h
1739 02-06-2009 11:27:52 20.6 C 8.23 g/m*3 20.6 C 0 km/h
1740 02-06-2009 11:39:51 20.5 C 8.19 g/m*3 20.5 C 0 km/h
1741 02-06-2009 11:51:51 20.8 C 8.15 g/m*3 20.8 C 0 km/h
1742 02-06-2009 12:03:51 21.8 C 7.87 g/m*3 21.8 C 0 km/h
1743 02-06-2009 12:15:51 22.4 C 7.75 g/m*3 22.4 C 0 km/h
1744 02-06-2009 12:27:51 23.8 C 7.74 g/m*3 23.8 C 0 km/h
1745 02-06-2009 12:39:50 23.2 C 7.28 g/m*3 23.2 C 0 km/h
1746 02-06-2009 12:51:51 23.8 C 7.31 g/m*3 23.8 C 0 km/h
1747 02-06-2009 13:03:50 24.1 C 7 g/m*3 24.1 C 0 km/h
1748 02-06-2009 13:15:50 24.3 C 6.86 g/m*3 24.3 C 0 km/h
1749 02-06-2009 13:27:50 24.4 C 6.45 g/m*3 24.4 C 0 km/h
1750 02-06-2009 13:39:50 24.6 C 5.85 g/m*3 24.6 C 0 km/h
Sensor: Nr:Datum:Temp:Abs-Feuchte:Windchill:Wind:
Aussen-T/F 1751 02-06-2009 13:51:50 24.4 C 5.56 g/m*3 24.4 C 0 km/h
1752 02-06-2009 14:03:50 24.3 C 5.53 g/m*3 24.3 C 0 km/h
1753 02-06-2009 14:15:49 24.6 C 5.85 g/m*3 24.6 C 0 km/h
1754 02-06-2009 14:27:49 24 C 5.87 g/m*3 24 C 0 km/h
1755 02-06-2009 14:39:50 25.2 C 5.82 g/m*3 25.2 C 0 km/h
1756 02-06-2009 14:51:49 24.6 C 5.63 g/m*3 24.6 C 0 km/h
1757 02-06-2009 15:03:49 24.7 C 5.21 g/m*3 24.7 C 0 km/h
1758 02-06-2009 15:15:48 25.4 C 5.41 g/m*3 25.4 C 0 km/h
1759 02-06-2009 15:27:48 25.7 C 5.03 g/m*3 25.7 C 0 km/h
1760 02-06-2009 15:39:49 25.9 C 5.57 g/m*3 25.9 C 0 km/h
1761 02-06-2009 15:51:48 27 C 5.4 g/m*3 27 C 0 km/h
1762 02-06-2009 16:03:48 26.5 C 5.76 g/m*3 26.5 C 0 km/h
1763 02-06-2009 16:15:49 26 C 5.11 g/m*3 26 C 0 km/h
1764 02-06-2009 16:27:49 26.7 C 5.06 g/m*3 26.7 C 0 km/h
1765 02-06-2009 16:39:48 27.1 C 5.18 g/m*3 27.1 C 0 km/h
1766 02-06-2009 16:51:48 27 C 5.15 g/m*3 27 C 0 km/h
1767 02-06-2009 17:03:48 27.8 C 5.38 g/m*3 27.8 C 0 km/h
1768 02-06-2009 17:15:48 27.5 C 5.29 g/m*3 27.5 C 0 km/h
1769 02-06-2009 17:27:49 27.1 C 5.18 g/m*3 27.1 C 0 km/h
1770 02-06-2009 17:39:47 27.8 C 5.38 g/m*3 27.8 C 0 km/h
1771 02-06-2009 17:51:48 27.6 C 5.32 g/m*3 27.6 C 0 km/h
1772 02-06-2009 18:03:48 27.8 C 5.38 g/m*3 27.8 C 0 km/h
1773 02-06-2009 18:15:47 28.1 C 5.47 g/m*3 28.1 C 0 km/h
1774 02-06-2009 18:27:47 28.5 C 5.59 g/m*3 28.5 C 0 km/h
1775 02-06-2009 18:39:47 29.2 C 5.81 g/m*3 29.2 C 0 km/h
Sensor: Nr:Datum:Temp:Abs-Feuchte:Windchill:Wind:
Aussen-T/F 1776 02-06-2009 18:51:47 27.5 C 5.29 g/m*3 27.5 C 0 km/h
1777 02-06-2009 19:03:47 28.6 C 5.62 g/m*3 28.6 C 0 km/h
1778 02-06-2009 19:15:46 28.2 C 5.5 g/m*3 28.2 C 0 km/h
1779 02-06-2009 19:27:46 28.1 C 5.47 g/m*3 28.1 C 0 km/h
1780 02-06-2009 19:39:47 27.4 C 5.26 g/m*3 27.4 C 0 km/h
1781 02-06-2009 19:51:46 27.9 C 5.68 g/m*3 27.9 C 0 km/h
1782 02-06-2009 20:03:46 27.6 C 5.59 g/m*3 27.6 C 0 km/h
1783 02-06-2009 20:15:46 27.3 C 5.49 g/m*3 27.3 C 0 km/h
1784 02-06-2009 20:27:46 26.4 C 5.73 g/m*3 26.4 C 0 km/h
1785 02-06-2009 20:39:46 25.3 C 5.85 g/m*3 25.3 C 0 km/h
1786 02-06-2009 20:51:46 24.2 C 5.72 g/m*3 24.2 C 0 km/h
1787 02-06-2009 21:03:45 23.9 C 5.62 g/m*3 23.9 C 0 km/h
1788 02-06-2009 21:15:46 23.3 C 5.23 g/m*3 23.3 C 0 km/h
1789 02-06-2009 21:27:46 22.7 C 5.46 g/m*3 22.7 C 0 km/h
1790 02-06-2009 21:39:45 22.4 C 5.56 g/m*3 22.4 C 0 km/h
1791 02-06-2009 21:51:13 22.1 C 5.47 g/m*3 22.1 C 0 km/h
1792 02-06-2009 22:03:13 21.7 C 5.72 g/m*3 21.7 C 0 km/h
1793 02-06-2009 22:15:13 21.5 C 5.66 g/m*3 21.5 C 0 km/h
1794 02-06-2009 22:27:13 21.2 C 5.56 g/m*3 21.2 C 0 km/h
1795 02-06-2009 22:39:13 20.9 C 5.83 g/m*3 20.9 C 0 km/h
1796 02-06-2009 22:51:13 20.6 C 5.91 g/m*3 20.6 C 0 km/h
1797 02-06-2009 23:03:13 20.3 C 5.8 g/m*3 20.3 C 0 km/h
1798 02-06-2009 23:15:13 20.2 C 5.77 g/m*3 20.2 C 0 km/h
1799 02-06-2009 23:27:45 19.9 C 5.84 g/m*3 19.9 C 0 km/h
1800 02-06-2009 23:39:45 19.7 C 5.77 g/m*3 19.7 C 0 km/h
Sensor: Nr:Datum:Temp:Abs-Feuchte:Windchill:Wind:
Aussen-T/F 1801 02-06-2009 23:51:45 19.9 C 6.01 g/m*3 19.9 C 0 km/h
1802 03-06-2009 00:03:45 19.7 C 5.77 g/m*3 19.7 C 0 km/h
1803 03-06-2009 00:15:45 19.4 C 5.67 g/m*3 19.4 C 0 km/h
1804 03-06-2009 00:27:45 19 C 5.38 g/m*3 19 C 0 km/h
1805 03-06-2009 00:39:44 18.6 C 5.57 g/m*3 18.6 C 0 km/h
1806 03-06-2009 00:51:45 18.2 C 5.44 g/m*3 18.2 C 0 km/h
1807 03-06-2009 01:03:44 17.9 C 5.5 g/m*3 17.9 C 0 km/h
1808 03-06-2009 01:15:44 17.7 C 5.43 g/m*3 17.7 C 0 km/h
1809 03-06-2009 01:27:44 17.3 C 5.3 g/m*3 17.3 C 0 km/h
1810 03-06-2009 01:39:44 17.1 C 5.24 g/m*3 17.1 C 0 km/h
1811 03-06-2009 01:51:44 16.8 C 5.29 g/m*3 16.8 C 0 km/h
1812 03-06-2009 02:03:44 16.4 C 5.16 g/m*3 16.4 C 0 km/h
1813 03-06-2009 02:15:43 16 C 5.18 g/m*3 16 C 0 km/h
1814 03-06-2009 02:27:43 15.7 C 5.22 g/m*3 15.7 C 0 km/h
1815 03-06-2009 02:39:44 15.4 C 5.65 g/m*3 15.4 C 0 km/h
1816 03-06-2009 02:52:45 15.1 C 5.81 g/m*3 15.1 C 0 km/h
1817 03-06-2009 03:04:45 15 C 5.77 g/m*3 15 C 0 km/h
1818 03-06-2009 03:16:45 14.6 C 5.88 g/m*3 14.6 C 0 km/h
1819 03-06-2009 03:28:45 14.4 C 5.81 g/m*3 14.4 C 0 km/h
1820 03-06-2009 03:40:45 14.2 C 5.74 g/m*3 14.2 C 0 km/h
1821 03-06-2009 03:52:45 13.8 C 5.96 g/m*3 13.8 C 0 km/h
1822 03-06-2009 04:04:45 13.7 C 6.04 g/m*3 13.7 C 0 km/h
1823 03-06-2009 04:16:44 13.6 C 6 g/m*3 13.6 C 0 km/h
1824 03-06-2009 04:28:44 13.5 C 5.97 g/m*3 13.5 C 0 km/h
1825 03-06-2009 04:40:45 13.3 C 6.01 g/m*3 13.3 C 0 km/h
Sensor: Nr:Datum:Temp:Abs-Feuchte:Windchill:Wind:
Aussen-T/F 1826 03-06-2009 04:52:44 13.1 C 5.93 g/m*3 13.1 C 0 km/h
1827 03-06-2009 05:04:44 13 C 5.9 g/m*3 13 C 0 km/h
1828 03-06-2009 05:16:44 13 C 5.9 g/m*3 13 C 0 km/h
1829 03-06-2009 05:28:44 12.8 C 5.94 g/m*3 12.8 C 0 km/h
1830 03-06-2009 05:40:44 12.7 C 6.01 g/m*3 12.7 C 0 km/h
1831 03-06-2009 05:52:44 12.7 C 6.01 g/m*3 12.7 C 0 km/h
1832 03-06-2009 06:04:43 12.9 C 6.2 g/m*3 12.9 C 0 km/h
1833 03-06-2009 06:16:43 13 C 6.24 g/m*3 13 C 0 km/h
1834 03-06-2009 06:28:43 13 C 6.24 g/m*3 13 C 0 km/h
1835 03-06-2009 06:40:43 13 C 6.35 g/m*3 13 C 0 km/h
1836 03-06-2009 06:52:43 12.9 C 6.54 g/m*3 12.9 C 0 km/h
1837 03-06-2009 07:04:42 12.8 C 6.27 g/m*3 12.8 C 0 km/h
1838 03-06-2009 07:16:43 12.7 C 6.35 g/m*3 12.7 C 0 km/h
1839 03-06-2009 07:28:43 12.5 C 6.05 g/m*3 12.5 C 0 km/h
1840 03-06-2009 07:40:43 12.8 C 6.16 g/m*3 12.8 C 0 km/h
1841 03-06-2009 07:52:42 12.9 C 6.2 g/m*3 12.9 C 0 km/h
1842 03-06-2009 08:04:43 12.8 C 5.94 g/m*3 12.8 C 0 km/h
1843 03-06-2009 08:16:42 12.8 C 5.94 g/m*3 12.8 C 0 km/h
1844 03-06-2009 08:28:42 13 C 5.9 g/m*3 13 C 0 km/h
1845 03-06-2009 08:40:42 13 C 5.67 g/m*3 13 C 0 km/h
1846 03-06-2009 08:52:42 13.1 C 5.48 g/m*3 13.1 C 0 km/h
1847 03-06-2009 09:04:42 13.5 C 5.5 g/m*3 13.5 C 0 km/h
1848 03-06-2009 09:16:41 13.9 C 5.39 g/m*3 13.9 C 0 km/h
1849 03-06-2009 09:28:41 13.9 C 5.04 g/m*3 13.9 C 0 km/h
1850 03-06-2009 09:40:41 14.6 C 5.13 g/m*3 14.6 C 0 km/h
Sensor: Nr:Datum:Temp:Abs-Feuchte:Windchill:Wind:
Aussen-T/F 1851 03-06-2009 09:52:41 14.7 C 5.67 g/m*3 14.7 C 0 km/h
1852 03-06-2009 10:04:41 14.2 C 5.62 g/m*3 14.2 C 0 km/h
1853 03-06-2009 10:16:41 14.9 C 5.23 g/m*3 14.9 C 0 km/h
1854 03-06-2009 10:28:41 14.6 C 5.63 g/m*3 14.6 C 0 km/h
1855 03-06-2009 10:40:41 15 C 5.39 g/m*3 15 C 0 km/h
1856 03-06-2009 10:52:41 15.4 C 5.26 g/m*3 15.4 C 0 km/h
1857 03-06-2009 11:04:40 14.9 C 5.23 g/m*3 14.9 C 0 km/h
1858 03-06-2009 11:16:41 15.2 C 5.19 g/m*3 15.2 C 0 km/h
1859 03-06-2009 11:28:41 16 C 5.31 g/m*3 16 C 0 km/h
1860 03-06-2009 11:40:40 16.8 C 5.43 g/m*3 16.8 C 0 km/h
1861 03-06-2009 11:52:40 17 C 5.21 g/m*3 17 C 0 km/h
1862 03-06-2009 12:04:40 16.7 C 4.97 g/m*3 16.7 C 0 km/h
1863 03-06-2009 12:16:40 16.8 C 4.86 g/m*3 16.8 C 0 km/h
1864 03-06-2009 12:28:40 17.7 C 4.98 g/m*3 17.7 C 0 km/h
1865 03-06-2009 12:40:39 17.9 C 4.73 g/m*3 17.9 C 0 km/h
1866 03-06-2009 12:52:40 18.8 C 4.83 g/m*3 18.8 C 0 km/h
1867 03-06-2009 13:04:40 17.3 C 4.42 g/m*3 17.3 C 0 km/h
1868 03-06-2009 13:16:39 18.2 C 4.66 g/m*3 18.2 C 0 km/h
1869 03-06-2009 13:28:39 19.5 C 4.53 g/m*3 19.5 C 0 km/h
1870 03-06-2009 13:40:39 18.4 C 4.09 g/m*3 18.4 C 0 km/h
1871 03-06-2009 13:52:39 19.8 C 4.27 g/m*3 19.8 C 0 km/h
1872 03-06-2009 14:04:39 19.3 C 4.15 g/m*3 19.3 C 0 km/h
1873 03-06-2009 14:16:38 20.1 C 4.35 g/m*3 20.1 C 0 km/h
1874 03-06-2009 14:28:38 19.3 C 4.31 g/m*3 19.3 C 0 km/h
1875 03-06-2009 14:40:39 19.1 C 4.43 g/m*3 19.1 C 0 km/h
Sensor: Nr:Datum:Temp:Abs-Feuchte:Windchill:Wind:
Aussen-T/F 1876 03-06-2009 14:52:38 19.7 C 4.92 g/m*3 19.7 C 0 km/h
1877 03-06-2009 15:04:38 20.5 C 4.45 g/m*3 20.5 C 0 km/h
1878 03-06-2009 15:16:39 20 C 4.67 g/m*3 20 C 0 km/h
1879 03-06-2009 15:28:39 20.8 C 4.53 g/m*3 20.8 C 0 km/h
1880 03-06-2009 15:40:38 20.4 C 4.6 g/m*3 20.4 C 0 km/h
1881 03-06-2009 15:52:37 20.9 C 4.55 g/m*3 20.9 C 0 km/h
1882 03-06-2009 16:04:38 20.1 C 4.52 g/m*3 20.1 C 0 km/h
1883 03-06-2009 16:16:38 20.4 C 4.42 g/m*3 20.4 C 0 km/h
1884 03-06-2009 16:28:38 20.2 C 4.55 g/m*3 20.2 C 0 km/h
1885 03-06-2009 16:40:37 20.3 C 4.75 g/m*3 20.3 C 0 km/h
1886 03-06-2009 16:52:38 20 C 4.32 g/m*3 20 C 0 km/h
1887 03-06-2009 17:04:37 20.3 C 4.57 g/m*3 20.3 C 0 km/h
1888 03-06-2009 17:16:37 20.6 C 4.65 g/m*3 20.6 C 0 km/h
1889 03-06-2009 17:28:37 20.7 C 4.32 g/m*3 20.7 C 0 km/h
1890 03-06-2009 17:40:36 19.4 C 4.34 g/m*3 19.4 C 0 km/h
1891 03-06-2009 17:52:37 20.6 C 4.12 g/m*3 20.6 C 0 km/h
1892 03-06-2009 18:04:36 19.2 C 3.79 g/m*3 19.2 C 0 km/h
1893 03-06-2009 18:16:36 20.3 C 4.05 g/m*3 20.3 C 0 km/h
1894 03-06-2009 18:28:36 19.3 C 3.98 g/m*3 19.3 C 0 km/h
1895 03-06-2009 18:40:37 20 C 4.32 g/m*3 20 C 0 km/h
1896 03-06-2009 18:52:36 19 C 4.24 g/m*3 19 C 0 km/h
1897 03-06-2009 19:04:36 19.1 C 4.26 g/m*3 19.1 C 0 km/h
1898 03-06-2009 19:16:36 18.8 C 4.51 g/m*3 18.8 C 0 km/h
1899 03-06-2009 19:28:36 18.1 C 4.64 g/m*3 18.1 C 0 km/h
1900 03-06-2009 19:40:36 18 C 4.61 g/m*3 18 C 0 km/h
Sensor: Nr:Datum:Temp:Abs-Feuchte:Windchill:Wind:
Aussen-T/F 1901 03-06-2009 19:52:36 18 C 4.76 g/m*3 18 C 0 km/h
1902 03-06-2009 20:04:36 17.7 C 4.83 g/m*3 17.7 C 0 km/h
1903 03-06-2009 20:16:36 16.9 C 5.03 g/m*3 16.9 C 0 km/h
1904 03-06-2009 20:28:36 16.6 C 5.09 g/m*3 16.6 C 0 km/h
1905 03-06-2009 20:40:35 16.4 C 5.02 g/m*3 16.4 C 0 km/h
1906 03-06-2009 20:52:34 16.5 C 4.91 g/m*3 16.5 C 0 km/h
1907 03-06-2009 21:04:35 16.1 C 4.8 g/m*3 16.1 C 0 km/h
1908 03-06-2009 21:16:35 16 C 4.77 g/m*3 16 C 0 km/h
1909 03-06-2009 21:28:35 15.9 C 4.88 g/m*3 15.9 C 0 km/h
1910 03-06-2009 21:40:34 15.5 C 4.63 g/m*3 15.5 C 0 km/h
1911 03-06-2009 21:52:35 15.4 C 4.73 g/m*3 15.4 C 0 km/h
1912 03-06-2009 22:05:35 15.3 C 4.7 g/m*3 15.3 C 0 km/h
1913 03-06-2009 22:17:35 15.2 C 4.67 g/m*3 15.2 C 0 km/h
1914 03-06-2009 22:29:35 15 C 4.62 g/m*3 15 C 0 km/h
1915 03-06-2009 22:41:35 14.7 C 4.78 g/m*3 14.7 C 0 km/h
1916 03-06-2009 22:53:35 14.9 C 4.84 g/m*3 14.9 C 0 km/h
1917 03-06-2009 23:05:35 14.8 C 4.69 g/m*3 14.8 C 0 km/h
1918 03-06-2009 23:17:35 14.6 C 4.88 g/m*3 14.6 C 0 km/h
1919 03-06-2009 23:29:36 14.5 C 4.97 g/m*3 14.5 C 0 km/h
1920 03-06-2009 23:41:36 14.2 C 5.01 g/m*3 14.2 C 0 km/h
1921 03-06-2009 23:53:36 14 C 5.07 g/m*3 14 C 0 km/h
1922 04-06-2009 00:05:36 13.7 C 5.21 g/m*3 13.7 C 0 km/h
1923 04-06-2009 00:17:36 13.7 C 5.33 g/m*3 13.7 C 0 km/h
1924 04-06-2009 00:29:36 13.4 C 5.23 g/m*3 13.4 C 0 km/h
1925 04-06-2009 00:41:36 13.1 C 5.14 g/m*3 13.1 C 0 km/h
Sensor: Nr:Datum:Temp:Abs-Feuchte:Windchill:Wind:
Aussen-T/F 1926 04-06-2009 00:53:36 13 C 5.22 g/m*3 13 C 0 km/h
1927 04-06-2009 01:05:36 12.7 C 5.34 g/m*3 12.7 C 0 km/h
1928 04-06-2009 01:17:36 12.6 C 5.42 g/m*3 12.6 C 0 km/h
1929 04-06-2009 01:29:36 12.7 C 5.45 g/m*3 12.7 C 0 km/h
1930 04-06-2009 01:41:36 12.6 C 5.42 g/m*3 12.6 C 0 km/h
1931 04-06-2009 01:53:36 12.5 C 5.5 g/m*3 12.5 C 0 km/h
1932 04-06-2009 02:05:36 12.5 C 4.95 g/m*3 12.5 C 0 km/h
1933 04-06-2009 02:17:36 12.4 C 4.7 g/m*3 12.4 C 0 km/h
1934 04-06-2009 02:29:36 12 C 4.48 g/m*3 12 C 0 km/h
1935 04-06-2009 02:41:36 11.9 C 4.45 g/m*3 11.9 C 0 km/h
1936 04-06-2009 02:53:36 11.7 C 4.18 g/m*3 11.7 C 0 km/h
1937 04-06-2009 03:05:36 11.5 C 4.13 g/m*3 11.5 C 0 km/h
1938 04-06-2009 03:17:37 11.2 C 3.95 g/m*3 11.2 C 0 km/h
1939 04-06-2009 03:29:37 11 C 4 g/m*3 11 C 0 km/h
1940 04-06-2009 03:41:37 10.8 C 4.15 g/m*3 10.8 C 0 km/h
1941 04-06-2009 03:53:37 10.9 C 4.28 g/m*3 10.9 C 0 km/h
1942 04-06-2009 04:05:37 10.8 C 4.15 g/m*3 10.8 C 0 km/h
1943 04-06-2009 04:17:37 10.7 C 4.22 g/m*3 10.7 C 0 km/h
1944 04-06-2009 04:29:37 10.6 C 4.29 g/m*3 10.6 C 0 km/h
1945 04-06-2009 04:41:37 10.6 C 4.39 g/m*3 10.6 C 0 km/h
1946 04-06-2009 04:53:37 10.7 C 4.62 g/m*3 10.7 C 0 km/h
1947 04-06-2009 05:05:37 10.5 C 4.85 g/m*3 10.5 C 0 km/h
1948 04-06-2009 05:17:37 10.5 C 4.95 g/m*3 10.5 C 0 km/h
1949 04-06-2009 05:29:37 10.6 C 5.08 g/m*3 10.6 C 0 km/h
1950 04-06-2009 05:41:37 10.7 C 5.11 g/m*3 10.7 C 0 km/h
Sensor: Nr:Datum:Temp:Abs-Feuchte:Windchill:Wind:
Aussen-T/F 1951 04-06-2009 05:53:37 10.7 C 5.01 g/m*3 10.7 C 0 km/h
1952 04-06-2009 06:05:37 10.7 C 5.11 g/m*3 10.7 C 0 km/h
1953 04-06-2009 06:17:37 10.7 C 5.01 g/m*3 10.7 C 0 km/h
1954 04-06-2009 06:29:37 10.5 C 4.75 g/m*3 10.5 C 0 km/h
1955 04-06-2009 06:41:37 10.6 C 4.78 g/m*3 10.6 C 0 km/h
1956 04-06-2009 06:53:35 10.7 C 4.91 g/m*3 10.7 C 0 km/h
1957 04-06-2009 07:05:35 10.7 C 4.91 g/m*3 10.7 C 0 km/h
1958 04-06-2009 07:17:35 11 C 4.8 g/m*3 11 C 0 km/h
1959 04-06-2009 07:29:35 10.8 C 5.04 g/m*3 10.8 C 0 km/h
1960 04-06-2009 07:41:35 10.8 C 5.34 g/m*3 10.8 C 0 km/h
1961 04-06-2009 07:53:35 11 C 5.31 g/m*3 11 C 0 km/h
1962 04-06-2009 08:05:34 11.6 C 5.4 g/m*3 11.6 C 0 km/h
1963 04-06-2009 08:17:34 11.8 C 5.37 g/m*3 11.8 C 0 km/h
1964 04-06-2009 08:29:34 11.9 C 5.3 g/m*3 11.9 C 0 km/h
1965 04-06-2009 08:41:34 12.2 C 5.18 g/m*3 12.2 C 0 km/h
1966 04-06-2009 08:53:34 12.5 C 5.17 g/m*3 12.5 C 0 km/h
1967 04-06-2009 09:05:33 13 C 4.88 g/m*3 13 C 0 km/h
1968 04-06-2009 09:17:34 12.8 C 4.59 g/m*3 12.8 C 0 km/h
1969 04-06-2009 09:29:34 12.3 C 4.13 g/m*3 12.3 C 0 km/h
1970 04-06-2009 09:41:34 12.7 C 4.23 g/m*3 12.7 C 0 km/h
1971 04-06-2009 09:53:33 12.9 C 4.51 g/m*3 12.9 C 0 km/h
1972 04-06-2009 10:05:34 13 C 4.2 g/m*3 13 C 0 km/h
1973 04-06-2009 10:17:33 13.1 C 4.45 g/m*3 13.1 C 0 km/h
1974 04-06-2009 10:29:33 14.1 C 4.49 g/m*3 14.1 C 0 km/h
1975 04-06-2009 10:41:33 13.5 C 4.33 g/m*3 13.5 C 0 km/h
Sensor: Nr:Datum:Temp:Abs-Feuchte:Windchill:Wind:
Aussen-T/F 1976 04-06-2009 10:53:33 13.2 C 4.36 g/m*3 13.2 C 0 km/h
1977 04-06-2009 11:05:33 14 C 4.46 g/m*3 14 C 0 km/h
1978 04-06-2009 11:17:32 14.7 C 4.53 g/m*3 14.7 C 0 km/h
1979 04-06-2009 11:29:32 13.3 C 4.04 g/m*3 13.3 C 0 km/h
1980 04-06-2009 11:41:32 13.1 C 3.99 g/m*3 13.1 C 0 km/h
1981 04-06-2009 11:53:32 13.5 C 4.33 g/m*3 13.5 C 0 km/h
1982 04-06-2009 12:05:32 14.7 C 4.53 g/m*3 14.7 C 0 km/h
1983 04-06-2009 12:17:32 14.5 C 4.35 g/m*3 14.5 C 0 km/h
1984 04-06-2009 12:29:32 14.6 C 4.25 g/m*3 14.6 C 0 km/h
1985 04-06-2009 12:41:32 14.4 C 3.96 g/m*3 14.4 C 0 km/h
1986 04-06-2009 12:53:32 14.7 C 4.28 g/m*3 14.7 C 0 km/h
1987 04-06-2009 13:05:31 14.7 C 4.41 g/m*3 14.7 C 0 km/h
1988 04-06-2009 13:17:32 15.7 C 4.01 g/m*3 15.7 C 0 km/h
1989 04-06-2009 13:29:32 15.6 C 3.72 g/m*3 15.6 C 0 km/h
1990 04-06-2009 13:41:31 14.9 C 3.95 g/m*3 14.9 C 0 km/h
1991 04-06-2009 13:53:31 14.4 C 3.96 g/m*3 14.4 C 0 km/h
1992 04-06-2009 14:05:31 15.1 C 4.13 g/m*3 15.1 C 0 km/h
1993 04-06-2009 14:17:31 16.2 C 4.14 g/m*3 16.2 C 0 km/h
1994 04-06-2009 14:29:31 15.3 C 3.79 g/m*3 15.3 C 0 km/h
1995 04-06-2009 14:41:31 14.8 C 3.67 g/m*3 14.8 C 0 km/h
1996 04-06-2009 14:53:30 15.8 C 3.9 g/m*3 15.8 C 0 km/h
1997 04-06-2009 15:05:30 16.3 C 4.16 g/m*3 16.3 C 0 km/h
1998 04-06-2009 15:17:30 17.5 C 3.88 g/m*3 17.5 C 0 km/h
1999 04-06-2009 15:29:30 16.1 C 3.56 g/m*3 16.1 C 0 km/h
2000 04-06-2009 15:41:30 15.9 C 3.79 g/m*3 15.9 C 0 km/h
Sensor: Nr:Datum:Temp:Abs-Feuchte:Windchill:Wind:
Aussen-T/F 2001 04-06-2009 15:53:30 16.4 C 3.77 g/m*3 16.4 C 0 km/h
2002 04-06-2009 16:05:30 16.3 C 3.75 g/m*3 16.3 C 0 km/h
2003 04-06-2009 16:17:30 16.2 C 3.59 g/m*3 16.2 C 0 km/h
2004 04-06-2009 16:29:30 17.2 C 3.66 g/m*3 17.2 C 0 km/h
2005 04-06-2009 16:41:30 16.5 C 3.51 g/m*3 16.5 C 0 km/h
2006 04-06-2009 16:53:29 16.2 C 3.72 g/m*3 16.2 C 0 km/h
2007 04-06-2009 17:05:29 16.1 C 3.84 g/m*3 16.1 C 0 km/h
2008 04-06-2009 17:17:29 16.4 C 3.91 g/m*3 16.4 C 0 km/h
2009 04-06-2009 17:29:29 15.6 C 3.86 g/m*3 15.6 C 0 km/h
2010 04-06-2009 17:41:29 15.6 C 3.99 g/m*3 15.6 C 0 km/h
2011 04-06-2009 17:53:28 16.2 C 4.14 g/m*3 16.2 C 0 km/h
2012 04-06-2009 18:05:29 16 C 4.09 g/m*3 16 C 0 km/h
2013 04-06-2009 18:17:29 15.8 C 4.17 g/m*3 15.8 C 0 km/h
2014 04-06-2009 18:29:29 16.1 C 4.25 g/m*3 16.1 C 0 km/h
2015 04-06-2009 18:41:29 15.4 C 4.07 g/m*3 15.4 C 0 km/h
2016 04-06-2009 18:53:28 15.7 C 4.28 g/m*3 15.7 C 0 km/h
2017 04-06-2009 19:05:28 15.3 C 4.18 g/m*3 15.3 C 0 km/h
2018 04-06-2009 19:17:28 15.4 C 4.2 g/m*3 15.4 C 0 km/h
2019 04-06-2009 19:29:28 15.4 C 4.34 g/m*3 15.4 C 0 km/h
2020 04-06-2009 19:41:28 14.7 C 4.41 g/m*3 14.7 C 0 km/h
2021 04-06-2009 19:53:28 15.1 C 4.52 g/m*3 15.1 C 0 km/h
2022 04-06-2009 20:05:28 14.9 C 4.59 g/m*3 14.9 C 0 km/h
2023 04-06-2009 20:17:27 14.9 C 4.59 g/m*3 14.9 C 0 km/h
2024 04-06-2009 20:29:27 14.7 C 4.66 g/m*3 14.7 C 0 km/h
2025 04-06-2009 20:41:27 14.5 C 4.73 g/m*3 14.5 C 0 km/h
Sensor: Nr:Datum:Temp:Abs-Feuchte:Windchill:Wind:
Aussen-T/F 2026 04-06-2009 20:53:27 14.1 C 4.61 g/m*3 14.1 C 0 km/h
2027 04-06-2009 21:05:27 14 C 4.7 g/m*3 14 C 0 km/h
2028 04-06-2009 21:17:27 13.8 C 4.77 g/m*3 13.8 C 0 km/h
2029 04-06-2009 21:29:27 13.7 C 4.86 g/m*3 13.7 C 0 km/h
2030 04-06-2009 21:41:27 13.5 C 4.91 g/m*3 13.5 C 0 km/h
2031 04-06-2009 21:53:27 13.5 C 5.03 g/m*3 13.5 C 0 km/h
2032 04-06-2009 22:06:22 13.3 C 4.97 g/m*3 13.3 C 0 km/h
2033 04-06-2009 22:18:22 13.2 C 4.94 g/m*3 13.2 C 0 km/h
2034 04-06-2009 22:30:22 13 C 4.99 g/m*3 13 C 0 km/h
2035 04-06-2009 22:42:22 13 C 4.88 g/m*3 13 C 0 km/h
2036 04-06-2009 22:54:22 12.9 C 4.96 g/m*3 12.9 C 0 km/h
2037 04-06-2009 23:06:22 12.7 C 5.01 g/m*3 12.7 C 0 km/h
2038 04-06-2009 23:18:22 12.4 C 4.92 g/m*3 12.4 C 0 km/h
2039 04-06-2009 23:30:22 12.2 C 4.86 g/m*3 12.2 C 0 km/h
2040 04-06-2009 23:42:22 12.1 C 4.93 g/m*3 12.1 C 0 km/h
2041 04-06-2009 23:54:22 12 C 5.01 g/m*3 12 C 0 km/h
2042 05-06-2009 00:06:22 11.7 C 5.12 g/m*3 11.7 C 0 km/h
2043 05-06-2009 00:18:22 11.7 C 5.12 g/m*3 11.7 C 0 km/h
2044 05-06-2009 00:30:22 11.6 C 5.09 g/m*3 11.6 C 0 km/h
2045 05-06-2009 00:42:22 11.4 C 4.82 g/m*3 11.4 C 0 km/h
2046 05-06-2009 00:54:22 11.2 C 4.76 g/m*3 11.2 C 0 km/h
2047 05-06-2009 01:06:22 11.2 C 4.66 g/m*3 11.2 C 0 km/h
2048 05-06-2009 01:18:22 11.1 C 4.63 g/m*3 11.1 C 0 km/h
2049 05-06-2009 01:30:22 11 C 4.6 g/m*3 11 C 0 km/h
2050 05-06-2009 01:42:22 10.9 C 4.67 g/m*3 10.9 C 0 km/h
Sensor: Nr:Datum:Temp:Abs-Feuchte:Windchill:Wind:
Aussen-T/F 2051 05-06-2009 01:54:23 10.8 C 4.65 g/m*3 10.8 C 0 km/h
2052 05-06-2009 02:06:23 10.7 C 4.71 g/m*3 10.7 C 0 km/h
2053 05-06-2009 02:18:23 10.4 C 4.72 g/m*3 10.4 C 0 km/h
2054 05-06-2009 02:30:23 10 C 4.7 g/m*3 10 C 0 km/h
2055 05-06-2009 02:42:23 9.6 C 4.76 g/m*3 9.6 C 0 km/h
2056 05-06-2009 02:54:23 9.2 C 4.91 g/m*3 9.2 C 0 km/h
2057 05-06-2009 03:06:23 9.2 C 5 g/m*3 9.2 C 0 km/h
2058 05-06-2009 03:18:23 9.3 C 5.03 g/m*3 9.3 C 0 km/h
2059 05-06-2009 03:30:23 9.2 C 5 g/m*3 9.2 C 0 km/h
2060 05-06-2009 03:42:23 9 C 5.11 g/m*3 9 C 0 km/h
2061 05-06-2009 03:54:23 8.6 C 5.16 g/m*3 8.6 C 0 km/h
2062 05-06-2009 04:06:23 8.6 C 5.16 g/m*3 8.6 C 0 km/h
2063 05-06-2009 04:18:23 8.6 C 5.24 g/m*3 8.6 C 0 km/h
2064 05-06-2009 04:30:23 8.5 C 5.21 g/m*3 8.5 C 0 km/h
2065 05-06-2009 04:42:23 8.5 C 5.29 g/m*3 8.5 C 0 km/h
2066 05-06-2009 04:54:23 8.5 C 5.38 g/m*3 8.5 C 0 km/h
2067 05-06-2009 05:06:23 8.4 C 5.34 g/m*3 8.4 C 0 km/h
2068 05-06-2009 05:18:23 8.1 C 5.33 g/m*3 8.1 C 0 km/h
2069 05-06-2009 05:30:23 8.2 C 5.44 g/m*3 8.2 C 0 km/h
2070 05-06-2009 05:42:23 8.4 C 5.6 g/m*3 8.4 C 0 km/h
2071 05-06-2009 05:54:24 8.5 C 5.64 g/m*3 8.5 C 0 km/h
2072 05-06-2009 06:06:24 8.5 C 5.72 g/m*3 8.5 C 0 km/h
2073 05-06-2009 06:18:24 8.5 C 5.64 g/m*3 8.5 C 0 km/h
2074 05-06-2009 06:30:24 8.5 C 5.72 g/m*3 8.5 C 0 km/h
2075 05-06-2009 06:42:24 8.5 C 5.72 g/m*3 8.5 C 0 km/h
Sensor: Nr:Datum:Temp:Abs-Feuchte:Windchill:Wind:
Aussen-T/F 2076 05-06-2009 06:54:24 8.7 C 5.79 g/m*3 8.7 C 0 km/h
2077 05-06-2009 07:06:28 8.8 C 5.83 g/m*3 8.8 C 0 km/h
2078 05-06-2009 07:18:27 8.9 C 5.78 g/m*3 8.9 C 0 km/h
2079 05-06-2009 07:30:28 9.2 C 5.63 g/m*3 9.2 C 0 km/h
2080 05-06-2009 07:42:28 10 C 5.64 g/m*3 10 C 0 km/h
2081 05-06-2009 07:54:27 10.2 C 5.52 g/m*3 10.2 C 0 km/h
2082 05-06-2009 08:06:27 10.5 C 5.63 g/m*3 10.5 C 0 km/h
2083 05-06-2009 08:18:27 10.8 C 5.63 g/m*3 10.8 C 0 km/h
2084 05-06-2009 08:30:27 10.6 C 5.56 g/m*3 10.6 C 0 km/h
2085 05-06-2009 08:42:27 10.2 C 5.61 g/m*3 10.2 C 0 km/h
2086 05-06-2009 08:54:26 10.4 C 5.78 g/m*3 10.4 C 0 km/h
2087 05-06-2009 09:06:27 11.5 C 5.78 g/m*3 11.5 C 0 km/h
2088 05-06-2009 09:18:26 12.3 C 5.43 g/m*3 12.3 C 0 km/h
2089 05-06-2009 09:30:26 12.7 C 5.12 g/m*3 12.7 C 0 km/h
2090 05-06-2009 09:42:26 11.8 C 4.95 g/m*3 11.8 C 0 km/h
2091 05-06-2009 09:54:26 12.1 C 5.25 g/m*3 12.1 C 0 km/h
2092 05-06-2009 10:06:26 12.7 C 5.12 g/m*3 12.7 C 0 km/h
2093 05-06-2009 10:18:25 13.1 C 5.02 g/m*3 13.1 C 0 km/h
2094 05-06-2009 10:30:26 12.3 C 4.67 g/m*3 12.3 C 0 km/h
2095 05-06-2009 10:42:26 13.3 C 4.97 g/m*3 13.3 C 0 km/h
2096 05-06-2009 10:54:26 12.6 C 4.54 g/m*3 12.6 C 0 km/h
2097 05-06-2009 11:06:25 12.3 C 4.56 g/m*3 12.3 C 0 km/h
2098 05-06-2009 11:18:26 13 C 4.76 g/m*3 13 C 0 km/h
2099 05-06-2009 11:30:25 13.4 C 4.65 g/m*3 13.4 C 0 km/h
2100 05-06-2009 11:42:25 14 C 4.34 g/m*3 14 C 0 km/h
Sensor: Nr:Datum:Temp:Abs-Feuchte:Windchill:Wind:
Aussen-T/F 2101 05-06-2009 11:54:25 14.3 C 4.18 g/m*3 14.3 C 0 km/h
2102 05-06-2009 12:06:24 14.6 C 4.38 g/m*3 14.6 C 0 km/h
2103 05-06-2009 12:18:25 15.3 C 4.44 g/m*3 15.3 C 0 km/h
2104 05-06-2009 12:30:25 15.6 C 4.26 g/m*3 15.6 C 0 km/h
2105 05-06-2009 12:42:25 16.1 C 4.25 g/m*3 16.1 C 0 km/h
2106 05-06-2009 12:54:24 16.6 C 4.38 g/m*3 16.6 C 0 km/h
2107 05-06-2009 13:06:25 18.5 C 4.43 g/m*3 18.5 C 0 km/h
2108 05-06-2009 13:18:24 17.7 C 4.22 g/m*3 17.7 C 0 km/h
2109 05-06-2009 13:30:24 17.2 C 4.25 g/m*3 17.2 C 0 km/h
2110 05-06-2009 13:42:25 16.6 C 4.1 g/m*3 16.6 C 0 km/h
2111 05-06-2009 13:54:24 16.2 C 4 g/m*3 16.2 C 0 km/h
2112 05-06-2009 14:06:24 16.5 C 4.07 g/m*3 16.5 C 0 km/h
2113 05-06-2009 14:18:23 16.8 C 4.15 g/m*3 16.8 C 0 km/h
2114 05-06-2009 14:30:23 16.6 C 3.96 g/m*3 16.6 C 0 km/h
2115 05-06-2009 14:42:23 16.2 C 3.86 g/m*3 16.2 C 0 km/h
2116 05-06-2009 14:54:23 16.4 C 4.19 g/m*3 16.4 C 0 km/h
2117 05-06-2009 15:06:23 16.8 C 4.15 g/m*3 16.8 C 0 km/h
2118 05-06-2009 15:18:23 16.4 C 3.77 g/m*3 16.4 C 0 km/h
2119 05-06-2009 15:30:23 16 C 3.95 g/m*3 16 C 0 km/h
2120 05-06-2009 15:42:23 15.9 C 3.93 g/m*3 15.9 C 0 km/h
2121 05-06-2009 15:54:23 15.6 C 3.72 g/m*3 15.6 C 0 km/h
2122 05-06-2009 16:06:22 16.8 C 3.86 g/m*3 16.8 C 0 km/h
2123 05-06-2009 16:18:22 17.6 C 4.05 g/m*3 17.6 C 0 km/h
2124 05-06-2009 16:30:23 18.4 C 4.09 g/m*3 18.4 C 0 km/h
2125 05-06-2009 16:42:23 18.9 C 4.05 g/m*3 18.9 C 0 km/h
Sensor: Nr:Datum:Temp:Abs-Feuchte:Windchill:Wind:
Aussen-T/F 2126 05-06-2009 16:54:22 20.1 C 4 g/m*3 20.1 C 0 km/h
2127 05-06-2009 17:06:21 20 C 3.46 g/m*3 20 C 0 km/h
2128 05-06-2009 17:18:22 18.4 C 3.3 g/m*3 18.4 C 0 km/h
2129 05-06-2009 17:30:22 20.4 C 3.71 g/m*3 20.4 C 0 km/h
2130 05-06-2009 17:42:22 20.7 C 3.6 g/m*3 20.7 C 0 km/h
2131 05-06-2009 17:54:21 22 C 3.88 g/m*3 22 C 0 km/h
2132 05-06-2009 18:06:22 22.9 C 4.09 g/m*3 22.9 C 0 km/h
2133 05-06-2009 18:18:21 22.9 C 4.09 g/m*3 22.9 C 0 km/h
2134 05-06-2009 18:30:21 22.1 C 3.9 g/m*3 22.1 C 0 km/h
2135 05-06-2009 18:42:21 21 C 3.66 g/m*3 21 C 0 km/h
2136 05-06-2009 18:54:21 20.7 C 3.6 g/m*3 20.7 C 0 km/h
2137 05-06-2009 19:06:21 21 C 3.66 g/m*3 21 C 0 km/h
2138 05-06-2009 19:18:20 20.2 C 3.5 g/m*3 20.2 C 0 km/h
2139 05-06-2009 19:30:20 18.5 C 3.48 g/m*3 18.5 C 0 km/h
2140 05-06-2009 19:42:20 17.7 C 3.92 g/m*3 17.7 C 0 km/h
2141 05-06-2009 19:54:20 17.9 C 3.97 g/m*3 17.9 C 0 km/h
2142 05-06-2009 20:06:20 17.7 C 4.07 g/m*3 17.7 C 0 km/h
2143 05-06-2009 20:18:20 17.2 C 4.25 g/m*3 17.2 C 0 km/h
2144 05-06-2009 20:30:20 16.9 C 4.6 g/m*3 16.9 C 0 km/h
2145 05-06-2009 20:42:20 16 C 4.63 g/m*3 16 C 0 km/h
2146 05-06-2009 20:54:20 15 C 4.62 g/m*3 15 C 0 km/h
2147 05-06-2009 21:06:20 14.2 C 4.76 g/m*3 14.2 C 0 km/h
2148 05-06-2009 21:18:20 13.4 C 4.77 g/m*3 13.4 C 0 km/h
2149 05-06-2009 21:30:19 13 C 4.65 g/m*3 13 C 0 km/h
2150 05-06-2009 21:42:19 12.7 C 4.9 g/m*3 12.7 C 0 km/h
Sensor: Nr:Datum:Temp:Abs-Feuchte:Windchill:Wind:
Aussen-T/F 2151 05-06-2009 21:54:20 12.2 C 4.86 g/m*3 12.2 C 0 km/h
2152 05-06-2009 22:06:19 11.9 C 4.87 g/m*3 11.9 C 0 km/h
2153 05-06-2009 22:18:19 11.8 C 5.05 g/m*3 11.8 C 0 km/h
2154 05-06-2009 22:31:19 11.4 C 5.03 g/m*3 11.4 C 0 km/h
2155 05-06-2009 22:43:19 11.1 C 5.04 g/m*3 11.1 C 0 km/h
2156 05-06-2009 22:55:19 11 C 5.1 g/m*3 11 C 0 km/h
2157 05-06-2009 23:07:19 10.8 C 5.14 g/m*3 10.8 C 0 km/h
2158 05-06-2009 23:19:19 10.5 C 5.14 g/m*3 10.5 C 0 km/h
2159 05-06-2009 23:31:19 10.4 C 5.2 g/m*3 10.4 C 0 km/h
2160 05-06-2009 23:43:19 10.1 C 5.2 g/m*3 10.1 C 0 km/h
2161 05-06-2009 23:55:20 10 C 5.17 g/m*3 10 C 0 km/h
2162 06-06-2009 00:07:20 9.8 C 5.29 g/m*3 9.8 C 0 km/h
2163 06-06-2009 00:19:20 9.7 C 5.35 g/m*3 9.7 C 0 km/h
2164 06-06-2009 00:31:20 9.5 C 5.37 g/m*3 9.5 C 0 km/h
2165 06-06-2009 00:43:20 9.1 C 5.32 g/m*3 9.1 C 0 km/h
2166 06-06-2009 00:55:20 8.9 C 5.43 g/m*3 8.9 C 0 km/h
2167 06-06-2009 01:07:20 8.8 C 5.4 g/m*3 8.8 C 0 km/h
2168 06-06-2009 01:19:20 8.6 C 5.33 g/m*3 8.6 C 0 km/h
2169 06-06-2009 01:31:20 8.6 C 5.41 g/m*3 8.6 C 0 km/h
2170 06-06-2009 01:43:20 8.5 C 5.55 g/m*3 8.5 C 0 km/h
2171 06-06-2009 01:55:20 8.3 C 5.48 g/m*3 8.3 C 0 km/h
2172 06-06-2009 02:07:20 8.2 C 5.53 g/m*3 8.2 C 0 km/h
2173 06-06-2009 02:19:20 8.1 C 5.49 g/m*3 8.1 C 0 km/h
2174 06-06-2009 02:31:20 8.1 C 5.57 g/m*3 8.1 C 0 km/h
2175 06-06-2009 02:43:20 8.1 C 5.66 g/m*3 8.1 C 0 km/h
Sensor: Nr:Datum:Temp:Abs-Feuchte:Windchill:Wind:
Aussen-T/F 2176 06-06-2009 02:55:20 8.1 C 5.66 g/m*3 8.1 C 0 km/h
2177 06-06-2009 03:07:20 8 C 5.79 g/m*3 8 C 0 km/h
2178 06-06-2009 03:19:20 7.8 C 5.79 g/m*3 7.8 C 0 km/h
2179 06-06-2009 03:31:20 7.6 C 5.8 g/m*3 7.6 C 0 km/h
2180 06-06-2009 03:43:20 7.5 C 5.84 g/m*3 7.5 C 0 km/h
2181 06-06-2009 03:55:20 7.4 C 5.81 g/m*3 7.4 C 0 km/h
2182 06-06-2009 04:07:21 7.4 C 5.81 g/m*3 7.4 C 0 km/h
2183 06-06-2009 04:19:21 7.4 C 5.81 g/m*3 7.4 C 0 km/h
2184 06-06-2009 04:31:21 7.3 C 5.85 g/m*3 7.3 C 0 km/h
2185 06-06-2009 04:43:21 7.1 C 5.77 g/m*3 7.1 C 0 km/h
2186 06-06-2009 04:55:21 7.2 C 5.89 g/m*3 7.2 C 0 km/h
2187 06-06-2009 05:07:21 7.4 C 5.96 g/m*3 7.4 C 0 km/h
2188 06-06-2009 05:19:21 7.6 C 6.04 g/m*3 7.6 C 0 km/h
2189 06-06-2009 05:31:21 7.8 C 6.04 g/m*3 7.8 C 0 km/h
2190 06-06-2009 05:43:21 8 C 6.04 g/m*3 8 C 0 km/h
2191 06-06-2009 05:55:21 8.1 C 6.07 g/m*3 8.1 C 0 km/h
2192 06-06-2009 06:07:21 8.2 C 6.11 g/m*3 8.2 C 0 km/h
2193 06-06-2009 06:19:21 8.4 C 6.19 g/m*3 8.4 C 0 km/h
2194 06-06-2009 06:31:21 8.7 C 6.23 g/m*3 8.7 C 0 km/h
2195 06-06-2009 06:43:21 8.7 C 6.05 g/m*3 8.7 C 0 km/h
2196 06-06-2009 06:55:21 8.9 C 6.13 g/m*3 8.9 C 0 km/h
2197 06-06-2009 07:07:21 8.9 C 6.13 g/m*3 8.9 C 0 km/h
2198 06-06-2009 07:19:21 8.9 C 6.13 g/m*3 8.9 C 0 km/h
2199 06-06-2009 07:31:21 8.6 C 6.27 g/m*3 8.6 C 0 km/h
2200 06-06-2009 07:43:21 8.6 C 6.44 g/m*3 8.6 C 0 km/h
Sensor: Nr:Datum:Temp:Abs-Feuchte:Windchill:Wind:
Aussen-T/F 2201 06-06-2009 07:55:21 8.6 C 6.62 g/m*3 8.6 C 0 km/h
2202 06-06-2009 08:07:22 8.6 C 6.79 g/m*3 8.6 C 0 km/h
2203 06-06-2009 08:19:22 8.6 C 6.96 g/m*3 8.6 C 0 km/h
2204 06-06-2009 08:31:22 8.3 C 7.08 g/m*3 8.3 C 0 km/h
2205 06-06-2009 08:43:22 8.3 C 7.33 g/m*3 8.3 C 0 km/h
2206 06-06-2009 08:55:22 8.2 C 7.37 g/m*3 8.2 C 0 km/h
2207 06-06-2009 09:07:19 8.5 C 7.6 g/m*3 8.5 C 0 km/h
2208 06-06-2009 09:19:19 8.4 C 7.63 g/m*3 8.4 C 0 km/h
2209 06-06-2009 09:31:20 8.7 C 7.78 g/m*3 8.7 C 0 km/h
2210 06-06-2009 09:43:20 8.7 C 7.87 g/m*3 8.7 C 0 km/h
2211 06-06-2009 09:55:19 8.9 C 7.97 g/m*3 8.9 C 0 km/h
2212 06-06-2009 10:07:19 9.1 C 7.99 g/m*3 9.1 C 0 km/h
2213 06-06-2009 10:19:19 9.1 C 7.99 g/m*3 9.1 C 0 km/h
2214 06-06-2009 10:31:19 8.9 C 7.97 g/m*3 8.9 C 0 km/h
2215 06-06-2009 10:43:19 9 C 7.93 g/m*3 9 C 0 km/h
2216 06-06-2009 10:55:18 9 C 7.93 g/m*3 9 C 0 km/h
2217 06-06-2009 11:07:19 9 C 7.93 g/m*3 9 C 0 km/h
2218 06-06-2009 11:19:18 9 C 7.93 g/m*3 9 C 0 km/h
2219 06-06-2009 11:31:18 9.2 C 8.13 g/m*3 9.2 C 0 km/h
2220 06-06-2009 11:43:18 9.2 C 8.13 g/m*3 9.2 C 0 km/h
2221 06-06-2009 11:55:18 9 C 8.02 g/m*3 9 C 0 km/h
2222 06-06-2009 12:07:17 9.2 C 8.13 g/m*3 9.2 C 0 km/h
2223 06-06-2009 12:19:18 9.4 C 8.32 g/m*3 9.4 C 0 km/h
2224 06-06-2009 12:31:18 9.3 C 8.27 g/m*3 9.3 C 0 km/h
2225 06-06-2009 12:43:18 9.3 C 8.27 g/m*3 9.3 C 0 km/h
Sensor: Nr:Datum:Temp:Abs-Feuchte:Windchill:Wind:
Aussen-T/F 2226 06-06-2009 12:55:17 9.5 C 8.37 g/m*3 9.5 C 0 km/h
2227 06-06-2009 13:07:18 9.6 C 8.43 g/m*3 9.6 C 0 km/h
2228 06-06-2009 13:19:17 9.7 C 8.48 g/m*3 9.7 C 0 km/h
2229 06-06-2009 13:31:17 9.7 C 8.57 g/m*3 9.7 C 0 km/h
2230 06-06-2009 13:43:17 9.7 C 8.57 g/m*3 9.7 C 0 km/h
2231 06-06-2009 13:55:17 9.6 C 8.52 g/m*3 9.6 C 0 km/h
2232 06-06-2009 14:07:17 9.8 C 8.63 g/m*3 9.8 C 0 km/h
2233 06-06-2009 14:19:16 9.8 C 8.63 g/m*3 9.8 C 0 km/h
2234 06-06-2009 14:31:16 9.8 C 8.63 g/m*3 9.8 C 0 km/h
2235 06-06-2009 14:43:16 9.6 C 8.43 g/m*3 9.6 C 0 km/h
2236 06-06-2009 14:55:16 9.5 C 8.37 g/m*3 9.5 C 0 km/h
2237 06-06-2009 15:07:16 9.5 C 8.37 g/m*3 9.5 C 0 km/h
2238 06-06-2009 15:19:15 9.4 C 8.32 g/m*3 9.4 C 0 km/h
2239 06-06-2009 15:31:16 9.5 C 8.37 g/m*3 9.5 C 0 km/h
2240 06-06-2009 15:43:16 9.7 C 8.57 g/m*3 9.7 C 0 km/h
2241 06-06-2009 15:55:15 9.8 C 8.63 g/m*3 9.8 C 0 km/h
2242 06-06-2009 16:07:15 10.1 C 8.7 g/m*3 10.1 C 0 km/h
2243 06-06-2009 16:19:16 10.1 C 8.7 g/m*3 10.1 C 0 km/h
2244 06-06-2009 16:31:15 9.9 C 8.68 g/m*3 9.9 C 0 km/h
2245 06-06-2009 16:43:15 10 C 8.64 g/m*3 10 C 0 km/h
2246 06-06-2009 16:55:15 9.9 C 8.68 g/m*3 9.9 C 0 km/h
2247 06-06-2009 17:07:15 9.9 C 8.59 g/m*3 9.9 C 0 km/h
2248 06-06-2009 17:19:15 9.9 C 8.59 g/m*3 9.9 C 0 km/h
2249 06-06-2009 17:31:14 10.1 C 8.61 g/m*3 10.1 C 0 km/h
2250 06-06-2009 17:43:14 10.3 C 8.71 g/m*3 10.3 C 0 km/h
Sensor: Nr:Datum:Temp:Abs-Feuchte:Windchill:Wind:
Aussen-T/F 2251 06-06-2009 17:55:15 10.4 C 8.67 g/m*3 10.4 C 0 km/h
2252 06-06-2009 18:07:14 10.5 C 8.73 g/m*3 10.5 C 0 km/h
2253 06-06-2009 18:19:14 10.9 C 8.95 g/m*3 10.9 C 0 km/h
2254 06-06-2009 18:31:02 10.7 C 8.64 g/m*3 10.7 C 0 km/h
2255 06-06-2009 18:43:02 10.8 C 8.7 g/m*3 10.8 C 0 km/h
2256 06-06-2009 18:55:01 10.7 C 8.45 g/m*3 10.7 C 0 km/h
2257 06-06-2009 19:07:02 10.8 C 8.5 g/m*3 10.8 C 0 km/h
2258 06-06-2009 19:19:01 10.9 C 8.45 g/m*3 10.9 C 0 km/h
2259 06-06-2009 19:31:01 11.1 C 8.56 g/m*3 11.1 C 0 km/h
2260 06-06-2009 19:43:01 11 C 8.51 g/m*3 11 C 0 km/h
2261 06-06-2009 19:55:01 10.9 C 8.65 g/m*3 10.9 C 0 km/h
2262 06-06-2009 20:07:01 10.5 C 8.34 g/m*3 10.5 C 0 km/h
2263 06-06-2009 20:19:00 10.4 C 8.29 g/m*3 10.4 C 0 km/h
2264 06-06-2009 20:31:00 10.4 C 8.38 g/m*3 10.4 C 0 km/h
2265 06-06-2009 20:43:00 10.4 C 8.38 g/m*3 10.4 C 0 km/h
2266 06-06-2009 20:55:00 10.3 C 8.33 g/m*3 10.3 C 0 km/h
2267 06-06-2009 21:07:00 10.3 C 8.43 g/m*3 10.3 C 0 km/h
2268 06-06-2009 21:18:59 10.2 C 8.37 g/m*3 10.2 C 0 km/h
2269 06-06-2009 21:31:00 10.2 C 8.37 g/m*3 10.2 C 0 km/h
2270 06-06-2009 21:43:00 10.1 C 8.32 g/m*3 10.1 C 0 km/h
2271 06-06-2009 21:55:59 9.8 C 8.26 g/m*3 9.8 C 0 km/h
2272 06-06-2009 22:07:59 9.5 C 8.1 g/m*3 9.5 C 0 km/h
2273 06-06-2009 22:19:00 9.4 C 8.14 g/m*3 9.4 C 0 km/h
2274 06-06-2009 22:31:59 9.4 C 8.23 g/m*3 9.4 C 0 km/h
2275 06-06-2009 22:43:59 9.5 C 8.28 g/m*3 9.5 C 0 km/h
Sensor: Nr:Datum:Temp:Abs-Feuchte:Windchill:Wind:
Aussen-T/F 2276 06-06-2009 22:55:59 9.6 C 8.43 g/m*3 9.6 C 0 km/h
2277 06-06-2009 23:07:59 9.5 C 8.37 g/m*3 9.5 C 0 km/h
2278 06-06-2009 23:19:59 9.5 C 8.37 g/m*3 9.5 C 0 km/h
2279 06-06-2009 23:31:58 9.2 C 8.13 g/m*3 9.2 C 0 km/h
2280 06-06-2009 23:43:58 8.8 C 8.01 g/m*3 8.8 C 0 km/h
2281 06-06-2009 23:55:59 8.5 C 7.85 g/m*3 8.5 C 0 km/h
2282 07-06-2009 00:07:59 8.5 C 7.85 g/m*3 8.5 C 0 km/h
2283 07-06-2009 00:19:59 8.3 C 7.75 g/m*3 8.3 C 0 km/h
2284 07-06-2009 00:31:58 8.1 C 7.66 g/m*3 8.1 C 0 km/h
2285 07-06-2009 00:43:58 7.9 C 7.64 g/m*3 7.9 C 0 km/h
2286 07-06-2009 00:55:58 8 C 7.61 g/m*3 8 C 0 km/h
2287 07-06-2009 01:07:57 8 C 7.69 g/m*3 8 C 0 km/h
2288 07-06-2009 01:19:58 8 C 7.69 g/m*3 8 C 0 km/h
2289 07-06-2009 01:31:58 7.9 C 7.72 g/m*3 7.9 C 0 km/h
2290 07-06-2009 01:43:58 7.9 C 7.72 g/m*3 7.9 C 0 km/h
2291 07-06-2009 01:55:57 8.1 C 7.74 g/m*3 8.1 C 0 km/h
2292 07-06-2009 02:07:58 8.2 C 7.87 g/m*3 8.2 C 0 km/h
2293 07-06-2009 02:19:57 8.4 C 7.97 g/m*3 8.4 C 0 km/h
2294 07-06-2009 02:31:57 8.4 C 7.97 g/m*3 8.4 C 0 km/h
2295 07-06-2009 02:43:57 8.4 C 7.97 g/m*3 8.4 C 0 km/h
2296 07-06-2009 02:56:59 8.4 C 7.97 g/m*3 8.4 C 0 km/h
2297 07-06-2009 03:08:59 8.5 C 8.11 g/m*3 8.5 C 0 km/h
2298 07-06-2009 03:20:59 8.5 C 8.11 g/m*3 8.5 C 0 km/h
2299 07-06-2009 03:32:58 8.5 C 8.11 g/m*3 8.5 C 0 km/h
2300 07-06-2009 03:44:58 8.4 C 8.06 g/m*3 8.4 C 0 km/h
Sensor: Nr:Datum:Temp:Abs-Feuchte:Windchill:Wind:
Aussen-T/F 2301 07-06-2009 03:56:58 8.4 C 8.06 g/m*3 8.4 C 0 km/h
2302 07-06-2009 04:08:58 8.5 C 8.11 g/m*3 8.5 C 0 km/h
2303 07-06-2009 04:20:58 8.5 C 8.11 g/m*3 8.5 C 0 km/h
2304 07-06-2009 04:32:58 8.5 C 8.11 g/m*3 8.5 C 0 km/h
2305 07-06-2009 04:44:57 8.5 C 8.11 g/m*3 8.5 C 0 km/h
2306 07-06-2009 04:56:57 8.5 C 8.11 g/m*3 8.5 C 0 km/h
2307 07-06-2009 05:08:58 8.6 C 8.16 g/m*3 8.6 C 0 km/h
2308 07-06-2009 05:20:58 8.6 C 8.16 g/m*3 8.6 C 0 km/h
2309 07-06-2009 05:32:57 8.6 C 8.16 g/m*3 8.6 C 0 km/h
2310 07-06-2009 05:44:57 8.7 C 8.22 g/m*3 8.7 C 0 km/h
2311 07-06-2009 05:56:57 8.8 C 8.27 g/m*3 8.8 C 0 km/h
2312 07-06-2009 06:08:57 8.9 C 8.32 g/m*3 8.9 C 0 km/h
2313 07-06-2009 06:20:57 9.1 C 8.34 g/m*3 9.1 C 0 km/h
2314 07-06-2009 06:32:57 9.3 C 8.45 g/m*3 9.3 C 0 km/h
2315 07-06-2009 06:44:57 9.5 C 8.56 g/m*3 9.5 C 0 km/h
2316 07-06-2009 06:56:57 9.5 C 8.56 g/m*3 9.5 C 0 km/h
2317 07-06-2009 07:08:57 9.6 C 8.61 g/m*3 9.6 C 0 km/h
2318 07-06-2009 07:20:56 10 C 8.74 g/m*3 10 C 0 km/h
2319 07-06-2009 07:32:57 10.2 C 8.76 g/m*3 10.2 C 0 km/h
2320 07-06-2009 07:44:01 10.3 C 8.43 g/m*3 10.3 C 0 km/h
2321 07-06-2009 07:56:01 10.7 C 8.45 g/m*3 10.7 C 0 km/h
2322 07-06-2009 08:08:01 11 C 8.01 g/m*3 11 C 0 km/h
2323 07-06-2009 08:20:01 11.4 C 8.01 g/m*3 11.4 C 0 km/h
2324 07-06-2009 08:32:01 11.7 C 7.84 g/m*3 11.7 C 0 km/h
2325 07-06-2009 08:44:01 11.9 C 7.52 g/m*3 11.9 C 0 km/h
Sensor: Nr:Datum:Temp:Abs-Feuchte:Windchill:Wind:
Aussen-T/F 2326 07-06-2009 08:56:01 12.4 C 7.32 g/m*3 12.4 C 0 km/h
2327 07-06-2009 09:08:01 13.1 C 7.42 g/m*3 13.1 C 0 km/h
2328 07-06-2009 09:20:01 13.6 C 7.3 g/m*3 13.6 C 0 km/h
2329 07-06-2009 09:32:00 14 C 7.48 g/m*3 14 C 0 km/h
2330 07-06-2009 09:44:00 14.1 C 7.52 g/m*3 14.1 C 0 km/h
2331 07-06-2009 09:56:00 14.3 C 7.62 g/m*3 14.3 C 0 km/h
2332 07-06-2009 10:08:00 14.4 C 7.42 g/m*3 14.4 C 0 km/h
2333 07-06-2009 10:20:59 14.9 C 7.77 g/m*3 14.9 C 0 km/h
2334 07-06-2009 10:32:00 15.5 C 7.93 g/m*3 15.5 C 0 km/h
2335 07-06-2009 10:44:00 15.9 C 7.72 g/m*3 15.9 C 0 km/h
2336 07-06-2009 10:56:59 16.4 C 7.54 g/m*3 16.4 C 0 km/h
2337 07-06-2009 11:08:59 16.9 C 7.91 g/m*3 16.9 C 0 km/h
2338 07-06-2009 11:20:00 17.2 C 7.91 g/m*3 17.2 C 0 km/h
2339 07-06-2009 11:32:59 17 C 7.81 g/m*3 17 C 0 km/h
2340 07-06-2009 11:44:59 16.1 C 7.81 g/m*3 16.1 C 0 km/h
2341 07-06-2009 11:56:59 17.5 C 7.9 g/m*3 17.5 C 0 km/h
2342 07-06-2009 12:08:59 17.1 C 7.42 g/m*3 17.1 C 0 km/h
2343 07-06-2009 12:20:59 17.7 C 7.69 g/m*3 17.7 C 0 km/h
2344 07-06-2009 12:32:59 17.3 C 7.81 g/m*3 17.3 C 0 km/h
2345 07-06-2009 12:44:58 17.1 C 8.3 g/m*3 17.1 C 0 km/h
2346 07-06-2009 12:56:58 16.8 C 8.86 g/m*3 16.8 C 0 km/h
2347 07-06-2009 13:08:59 16.6 C 8.48 g/m*3 16.6 C 0 km/h
2348 07-06-2009 13:20:59 16.4 C 8.79 g/m*3 16.4 C 0 km/h
2349 07-06-2009 13:32:59 17.4 C 8.89 g/m*3 17.4 C 0 km/h
2350 07-06-2009 13:44:58 19.3 C 8.13 g/m*3 19.3 C 0 km/h
Sensor: Nr:Datum:Temp:Abs-Feuchte:Windchill:Wind:
Aussen-T/F 2351 07-06-2009 13:56:58 19.2 C 7.91 g/m*3 19.2 C 0 km/h
2352 07-06-2009 14:08:57 19.4 C 8.34 g/m*3 19.4 C 0 km/h
2353 07-06-2009 14:20:58 18.9 C 8.26 g/m*3 18.9 C 0 km/h
2354 07-06-2009 14:32:58 18.9 C 8.42 g/m*3 18.9 C 0 km/h
2355 07-06-2009 14:44:57 18.7 C 8.65 g/m*3 18.7 C 0 km/h
2356 07-06-2009 14:56:57 19.1 C 8.69 g/m*3 19.1 C 0 km/h
2357 07-06-2009 15:08:58 19.1 C 8.36 g/m*3 19.1 C 0 km/h
2358 07-06-2009 15:20:57 17.3 C 8.99 g/m*3 17.3 C 0 km/h
2359 07-06-2009 15:32:58 16 C 10.22 g/m*3 16 C 0 km/h
2360 07-06-2009 15:44:57 15.5 C 10.31 g/m*3 15.5 C 0 km/h
2361 07-06-2009 15:56:57 15.1 C 10.45 g/m*3 15.1 C 0 km/h
2362 07-06-2009 16:08:57 14.8 C 10.64 g/m*3 14.8 C 0 km/h
2363 07-06-2009 16:20:56 15.6 C 11.57 g/m*3 15.6 C 0 km/h
2364 07-06-2009 16:32:57 16 C 11.72 g/m*3 16 C 0 km/h
2365 07-06-2009 16:44:56 16.3 C 11.52 g/m*3 16.3 C 0 km/h
2366 07-06-2009 16:56:56 17.2 C 11.57 g/m*3 17.2 C 0 km/h
2367 07-06-2009 17:08:56 17.6 C 10.8 g/m*3 17.6 C 0 km/h
2368 07-06-2009 17:20:56 18.9 C 10.85 g/m*3 18.9 C 0 km/h
2369 07-06-2009 17:32:56 19.5 C 10.07 g/m*3 19.5 C 0 km/h
2370 07-06-2009 17:44:56 18.4 C 9.75 g/m*3 18.4 C 0 km/h
2371 07-06-2009 17:56:56 18.3 C 9.85 g/m*3 18.3 C 0 km/h
2372 07-06-2009 18:08:55 18.8 C 9.34 g/m*3 18.8 C 0 km/h
2373 07-06-2009 18:20:56 17.3 C 7.51 g/m*3 17.3 C 0 km/h
2374 07-06-2009 18:32:55 17 C 8.54 g/m*3 17 C 0 km/h
2375 07-06-2009 18:44:55 18 C 8.29 g/m*3 18 C 0 km/h
Sensor: Nr:Datum:Temp:Abs-Feuchte:Windchill:Wind:
Aussen-T/F 2376 07-06-2009 18:56:55 19.2 C 7.75 g/m*3 19.2 C 0 km/h
2377 07-06-2009 19:08:55 20.4 C 7.61 g/m*3 20.4 C 0 km/h
2378 07-06-2009 19:20:55 20.4 C 7.25 g/m*3 20.4 C 0 km/h
2379 07-06-2009 19:32:55 20.3 C 7.03 g/m*3 20.3 C 0 km/h
2380 07-06-2009 19:44:55 19.8 C 7.34 g/m*3 19.8 C 0 km/h
2381 07-06-2009 19:56:55 20.3 C 7.39 g/m*3 20.3 C 0 km/h
2382 07-06-2009 20:08:54 20.3 C 7.39 g/m*3 20.3 C 0 km/h
2383 07-06-2009 20:20:55 20 C 7.09 g/m*3 20 C 0 km/h
2384 07-06-2009 20:32:54 18.7 C 6.88 g/m*3 18.7 C 0 km/h
2385 07-06-2009 20:44:54 17.6 C 7.05 g/m*3 17.6 C 0 km/h
2386 07-06-2009 20:56:55 16.6 C 7.06 g/m*3 16.6 C 0 km/h
2387 07-06-2009 21:08:53 16.1 C 6.99 g/m*3 16.1 C 0 km/h
2388 07-06-2009 21:20:54 15.8 C 7.54 g/m*3 15.8 C 0 km/h
2389 07-06-2009 21:32:54 15.2 C 7.79 g/m*3 15.2 C 0 km/h
2390 07-06-2009 21:44:53 14.7 C 7.93 g/m*3 14.7 C 0 km/h
2391 07-06-2009 21:56:53 14.1 C 7.77 g/m*3 14.1 C 0 km/h
2392 07-06-2009 22:09:55 13.5 C 7.37 g/m*3 13.5 C 0 km/h
2393 07-06-2009 22:21:55 13 C 7.03 g/m*3 13 C 0 km/h
2394 07-06-2009 22:33:55 12.7 C 7.01 g/m*3 12.7 C 0 km/h
2395 07-06-2009 22:45:55 12.5 C 6.93 g/m*3 12.5 C 0 km/h
2396 07-06-2009 22:57:55 12.3 C 6.84 g/m*3 12.3 C 0 km/h
2397 07-06-2009 23:09:55 12 C 6.71 g/m*3 12 C 0 km/h
2398 07-06-2009 23:21:55 11.8 C 6.84 g/m*3 11.8 C 0 km/h
2399 07-06-2009 23:33:55 11.6 C 6.96 g/m*3 11.6 C 0 km/h
2400 07-06-2009 23:45:55 11.5 C 7.02 g/m*3 11.5 C 0 km/h
Sensor: Nr:Datum:Temp:Abs-Feuchte:Windchill:Wind:
Aussen-T/F 2401 07-06-2009 23:57:55 11.3 C 7.04 g/m*3 11.3 C 0 km/h
2402 08-06-2009 00:09:55 11.2 C 7.1 g/m*3 11.2 C 0 km/h
2403 08-06-2009 00:21:55 11.3 C 7.14 g/m*3 11.3 C 0 km/h
2404 08-06-2009 00:33:55 10.8 C 7.12 g/m*3 10.8 C 0 km/h
2405 08-06-2009 00:45:55 10.6 C 7.22 g/m*3 10.6 C 0 km/h
2406 08-06-2009 00:57:56 10.7 C 7.17 g/m*3 10.7 C 0 km/h
2407 08-06-2009 01:09:56 10.7 C 7.07 g/m*3 10.7 C 0 km/h
2408 08-06-2009 01:21:56 10.4 C 7.04 g/m*3 10.4 C 0 km/h
2409 08-06-2009 01:33:56 10.1 C 7.09 g/m*3 10.1 C 0 km/h
2410 08-06-2009 01:45:56 10.2 C 6.95 g/m*3 10.2 C 0 km/h
2411 08-06-2009 01:57:56 10.6 C 6.83 g/m*3 10.6 C 0 km/h
2412 08-06-2009 02:09:56 11.4 C 6.57 g/m*3 11.4 C 0 km/h
2413 08-06-2009 02:21:56 11.7 C 6.69 g/m*3 11.7 C 0 km/h
2414 08-06-2009 02:33:56 11.6 C 6.76 g/m*3 11.6 C 0 km/h
2415 08-06-2009 02:45:56 11.6 C 6.76 g/m*3 11.6 C 0 km/h
2416 08-06-2009 02:57:56 11.8 C 6.84 g/m*3 11.8 C 0 km/h
2417 08-06-2009 03:09:56 11 C 7.41 g/m*3 11 C 0 km/h
2418 08-06-2009 03:21:56 10.9 C 7.76 g/m*3 10.9 C 0 km/h
2419 08-06-2009 03:33:56 11.2 C 7.8 g/m*3 11.2 C 0 km/h
2420 08-06-2009 03:45:56 11.1 C 7.66 g/m*3 11.1 C 0 km/h
2421 08-06-2009 03:57:56 11 C 7.61 g/m*3 11 C 0 km/h
2422 08-06-2009 04:09:56 11.1 C 7.76 g/m*3 11.1 C 0 km/h
2423 08-06-2009 04:21:56 11.1 C 7.76 g/m*3 11.1 C 0 km/h
2424 08-06-2009 04:33:56 11.1 C 7.76 g/m*3 11.1 C 0 km/h
2425 08-06-2009 04:45:56 11.1 C 7.76 g/m*3 11.1 C 0 km/h
Sensor: Nr:Datum:Temp:Abs-Feuchte:Windchill:Wind:
Aussen-T/F 2426 08-06-2009 04:57:57 11.1 C 7.86 g/m*3 11.1 C 0 km/h
2427 08-06-2009 05:09:57 11.2 C 7.91 g/m*3 11.2 C 0 km/h
2428 08-06-2009 05:21:57 11.2 C 7.8 g/m*3 11.2 C 0 km/h
2429 08-06-2009 05:33:57 11.2 C 7.91 g/m*3 11.2 C 0 km/h
2430 08-06-2009 05:45:57 11.3 C 7.96 g/m*3 11.3 C 0 km/h
2431 08-06-2009 05:57:57 11.5 C 7.75 g/m*3 11.5 C 0 km/h
2432 08-06-2009 06:09:57 11.5 C 7.85 g/m*3 11.5 C 0 km/h
2433 08-06-2009 06:21:57 11.5 C 7.85 g/m*3 11.5 C 0 km/h
2434 08-06-2009 06:33:57 11.5 C 7.85 g/m*3 11.5 C 0 km/h
2435 08-06-2009 06:45:55 11.5 C 8.06 g/m*3 11.5 C 0 km/h
2436 08-06-2009 06:57:55 11.5 C 7.95 g/m*3 11.5 C 0 km/h
2437 08-06-2009 07:09:54 11.8 C 8 g/m*3 11.8 C 0 km/h
2438 08-06-2009 07:21:54 12 C 7.99 g/m*3 12 C 0 km/h
2439 08-06-2009 07:33:54 12.3 C 8.25 g/m*3 12.3 C 0 km/h
2440 08-06-2009 07:45:54 12.2 C 7.99 g/m*3 12.2 C 0 km/h
2441 08-06-2009 07:57:54 12.3 C 7.82 g/m*3 12.3 C 0 km/h
2442 08-06-2009 08:09:53 12.5 C 7.7 g/m*3 12.5 C 0 km/h
2443 08-06-2009 08:21:54 12.7 C 7.57 g/m*3 12.7 C 0 km/h
2444 08-06-2009 08:33:54 12.9 C 7.33 g/m*3 12.9 C 0 km/h
2445 08-06-2009 08:45:53 13.2 C 7.46 g/m*3 13.2 C 0 km/h
2446 08-06-2009 08:57:53 13.5 C 7.37 g/m*3 13.5 C 0 km/h
2447 08-06-2009 09:09:53 13.8 C 7.15 g/m*3 13.8 C 0 km/h
2448 08-06-2009 09:21:53 14.1 C 7.04 g/m*3 14.1 C 0 km/h
2449 08-06-2009 09:33:53 14.6 C 6.88 g/m*3 14.6 C 0 km/h
2450 08-06-2009 09:45:53 14.8 C 6.84 g/m*3 14.8 C 0 km/h
Sensor: Nr:Datum:Temp:Abs-Feuchte:Windchill:Wind:
Aussen-T/F 2451 08-06-2009 09:57:53 15 C 6.67 g/m*3 15 C 0 km/h
2452 08-06-2009 10:09:53 15.6 C 6.78 g/m*3 15.6 C 0 km/h
2453 08-06-2009 10:21:52 15.9 C 6.37 g/m*3 15.9 C 0 km/h
2454 08-06-2009 10:33:52 16.4 C 6.42 g/m*3 16.4 C 0 km/h
2455 08-06-2009 10:45:52 16.5 C 6.18 g/m*3 16.5 C 0 km/h
2456 08-06-2009 10:57:52 16.6 C 6.07 g/m*3 16.6 C 0 km/h
2457 08-06-2009 11:09:52 17.7 C 6.49 g/m*3 17.7 C 0 km/h
2458 08-06-2009 11:21:51 17.3 C 5.75 g/m*3 17.3 C 0 km/h
2459 08-06-2009 11:33:52 17 C 6.08 g/m*3 17 C 0 km/h
2460 08-06-2009 11:45:51 17.6 C 6.15 g/m*3 17.6 C 0 km/h
2461 08-06-2009 11:57:51 18.1 C 6.03 g/m*3 18.1 C 0 km/h
2462 08-06-2009 12:09:52 17.6 C 6 g/m*3 17.6 C 0 km/h
2463 08-06-2009 12:21:51 20 C 6.22 g/m*3 20 C 0 km/h
2464 08-06-2009 12:33:51 18.6 C 5.89 g/m*3 18.6 C 0 km/h
2465 08-06-2009 12:45:51 20.2 C 6.12 g/m*3 20.2 C 0 km/h
2466 08-06-2009 12:57:51 19.6 C 5.74 g/m*3 19.6 C 0 km/h
2467 08-06-2009 13:09:51 21.6 C 4.74 g/m*3 21.6 C 0 km/h
2468 08-06-2009 13:21:50 21.5 C 5.47 g/m*3 21.5 C 0 km/h
2469 08-06-2009 13:33:51 20.9 C 5.1 g/m*3 20.9 C 0 km/h
2470 08-06-2009 13:45:51 20.3 C 5.28 g/m*3 20.3 C 0 km/h
2471 08-06-2009 13:57:51 21.4 C 5.06 g/m*3 21.4 C 0 km/h
2472 08-06-2009 14:09:50 21.7 C 4.39 g/m*3 21.7 C 0 km/h
2473 08-06-2009 14:21:50 21.5 C 4.71 g/m*3 21.5 C 0 km/h
2474 08-06-2009 14:33:50 21.9 C 5.02 g/m*3 21.9 C 0 km/h
2475 08-06-2009 14:45:50 21.7 C 4.96 g/m*3 21.7 C 0 km/h
Sensor: Nr:Datum:Temp:Abs-Feuchte:Windchill:Wind:
Aussen-T/F 2476 08-06-2009 14:57:50 22.1 C 4.88 g/m*3 22.1 C 0 km/h
2477 08-06-2009 15:09:49 22.9 C 5.11 g/m*3 22.9 C 0 km/h
2478 08-06-2009 15:21:50 23 C 4.32 g/m*3 23 C 0 km/h
2479 08-06-2009 15:33:50 22.7 C 4.24 g/m*3 22.7 C 0 km/h
2480 08-06-2009 15:45:49 23.8 C 4.73 g/m*3 23.8 C 0 km/h
2481 08-06-2009 15:57:49 23.3 C 4.39 g/m*3 23.3 C 0 km/h
2482 08-06-2009 16:09:50 23.7 C 4.49 g/m*3 23.7 C 0 km/h
2483 08-06-2009 16:21:49 24.7 C 4.53 g/m*3 24.7 C 0 km/h
2484 08-06-2009 16:33:49 23.5 C 4.65 g/m*3 23.5 C 0 km/h
2485 08-06-2009 16:45:49 23.2 C 4.57 g/m*3 23.2 C 0 km/h
2486 08-06-2009 16:57:49 23.9 C 4.76 g/m*3 23.9 C 0 km/h
2487 08-06-2009 17:09:49 23.8 C 4.73 g/m*3 23.8 C 0 km/h
2488 08-06-2009 17:21:48 24.4 C 4.9 g/m*3 24.4 C 0 km/h
2489 08-06-2009 17:33:48 24.3 C 5.09 g/m*3 24.3 C 0 km/h
2490 08-06-2009 17:45:48 25.1 C 4.86 g/m*3 25.1 C 0 km/h
2491 08-06-2009 17:57:48 24.1 C 4.81 g/m*3 24.1 C 0 km/h
2492 08-06-2009 18:09:48 23.9 C 5.41 g/m*3 23.9 C 0 km/h
2493 08-06-2009 18:21:48 23.7 C 5.99 g/m*3 23.7 C 0 km/h
2494 08-06-2009 18:33:48 23.5 C 6.77 g/m*3 23.5 C 0 km/h
2495 08-06-2009 18:45:48 22.8 C 7.32 g/m*3 22.8 C 0 km/h
2496 08-06-2009 18:57:48 22.1 C 7.42 g/m*3 22.1 C 0 km/h
2497 08-06-2009 19:09:47 21.6 C 7.59 g/m*3 21.6 C 0 km/h
2498 08-06-2009 19:21:48 21 C 7.14 g/m*3 21 C 0 km/h
2499 08-06-2009 19:33:47 20.8 C 7.6 g/m*3 20.8 C 0 km/h
2500 08-06-2009 19:45:47 20.6 C 7.52 g/m*3 20.6 C 0 km/h
Sensor: Nr:Datum:Temp:Abs-Feuchte:Windchill:Wind:
Aussen-T/F 2501 08-06-2009 19:57:48 20.4 C 7.61 g/m*3 20.4 C 0 km/h
2502 08-06-2009 20:09:47 20.1 C 7.82 g/m*3 20.1 C 0 km/h
2503 08-06-2009 20:21:47 19.8 C 8.03 g/m*3 19.8 C 0 km/h
2504 08-06-2009 20:33:47 19.3 C 7.96 g/m*3 19.3 C 0 km/h
2505 08-06-2009 20:45:47 18.8 C 8.05 g/m*3 18.8 C 0 km/h
2506 08-06-2009 20:57:47 18.5 C 7.91 g/m*3 18.5 C 0 km/h
2507 08-06-2009 21:09:47 18.2 C 7.77 g/m*3 18.2 C 0 km/h
2508 08-06-2009 21:21:46 17.9 C 7.79 g/m*3 17.9 C 0 km/h
2509 08-06-2009 21:33:46 17.6 C 8.1 g/m*3 17.6 C 0 km/h
2510 08-06-2009 21:45:46 16.7 C 8.67 g/m*3 16.7 C 0 km/h
2511 08-06-2009 21:57:46 16.6 C 8.9 g/m*3 16.6 C 0 km/h
2512 08-06-2009 22:09:46 16.4 C 8.79 g/m*3 16.4 C 0 km/h
2513 08-06-2009 22:21:46 16.6 C 8.76 g/m*3 16.6 C 0 km/h
2514 08-06-2009 22:33:45 16.5 C 8.57 g/m*3 16.5 C 0 km/h
2515 08-06-2009 22:46:46 16.4 C 8.51 g/m*3 16.4 C 0 km/h
2516 08-06-2009 22:58:46 16.3 C 8.46 g/m*3 16.3 C 0 km/h
2517 08-06-2009 23:10:46 16.4 C 8.51 g/m*3 16.4 C 0 km/h
2518 08-06-2009 23:22:46 16.4 C 8.37 g/m*3 16.4 C 0 km/h
2519 08-06-2009 23:34:46 16.5 C 8.43 g/m*3 16.5 C 0 km/h
2520 08-06-2009 23:46:46 16.3 C 8.88 g/m*3 16.3 C 0 km/h
2521 08-06-2009 23:58:46 16 C 8.99 g/m*3 16 C 0 km/h
2522 09-06-2009 00:10:46 15.8 C 9.42 g/m*3 15.8 C 0 km/h
2523 09-06-2009 00:22:46 15.4 C 9.59 g/m*3 15.4 C 0 km/h
2524 09-06-2009 00:34:46 15.4 C 9.99 g/m*3 15.4 C 0 km/h
2525 09-06-2009 00:46:46 15 C 10 g/m*3 15 C 0 km/h
Sensor: Nr:Datum:Temp:Abs-Feuchte:Windchill:Wind:
Aussen-T/F 2526 09-06-2009 00:58:46 14.8 C 10.01 g/m*3 14.8 C 0 km/h
2527 09-06-2009 01:10:46 14.6 C 10.14 g/m*3 14.6 C 0 km/h
2528 09-06-2009 01:22:47 14.5 C 10.07 g/m*3 14.5 C 0 km/h
2529 09-06-2009 01:34:47 14.6 C 10.26 g/m*3 14.6 C 0 km/h
2530 09-06-2009 01:46:47 14.5 C 10.32 g/m*3 14.5 C 0 km/h
2531 09-06-2009 01:58:47 14.6 C 10.26 g/m*3 14.6 C 0 km/h
2532 09-06-2009 02:10:47 14.6 C 10.14 g/m*3 14.6 C 0 km/h
2533 09-06-2009 02:22:47 14.7 C 10.2 g/m*3 14.7 C 0 km/h
2534 09-06-2009 02:34:47 14.6 C 10.01 g/m*3 14.6 C 0 km/h
2535 09-06-2009 02:46:47 14.3 C 9.95 g/m*3 14.3 C 0 km/h
2536 09-06-2009 02:58:47 14.3 C 9.95 g/m*3 14.3 C 0 km/h
2537 09-06-2009 03:10:47 14.4 C 10.01 g/m*3 14.4 C 0 km/h
2538 09-06-2009 03:22:47 14.5 C 10.07 g/m*3 14.5 C 0 km/h
2539 09-06-2009 03:34:47 14.5 C 10.07 g/m*3 14.5 C 0 km/h
2540 09-06-2009 03:46:47 14.4 C 9.89 g/m*3 14.4 C 0 km/h
2541 09-06-2009 03:58:47 14.4 C 9.89 g/m*3 14.4 C 0 km/h
2542 09-06-2009 04:10:47 14.4 C 9.89 g/m*3 14.4 C 0 km/h
2543 09-06-2009 04:22:47 14.4 C 10.01 g/m*3 14.4 C 0 km/h
2544 09-06-2009 04:34:47 14.5 C 9.95 g/m*3 14.5 C 0 km/h
2545 09-06-2009 04:46:47 14.6 C 9.89 g/m*3 14.6 C 0 km/h
2546 09-06-2009 04:58:47 14.6 C 9.89 g/m*3 14.6 C 0 km/h
2547 09-06-2009 05:10:48 14.5 C 9.83 g/m*3 14.5 C 0 km/h
2548 09-06-2009 05:22:48 14.2 C 9.89 g/m*3 14.2 C 0 km/h
2549 09-06-2009 05:34:48 14.1 C 10.07 g/m*3 14.1 C 0 km/h
2550 09-06-2009 05:46:48 14 C 10.13 g/m*3 14 C 0 km/h
Sensor: Nr:Datum:Temp:Abs-Feuchte:Windchill:Wind:
Aussen-T/F 2551 09-06-2009 05:58:48 14.1 C 10.32 g/m*3 14.1 C 0 km/h
2552 09-06-2009 06:10:48 14 C 10.37 g/m*3 14 C 0 km/h
2553 09-06-2009 06:22:48 14.1 C 10.56 g/m*3 14.1 C 0 km/h
2554 09-06-2009 06:34:48 14.1 C 10.56 g/m*3 14.1 C 0 km/h
2555 09-06-2009 06:46:48 14.1 C 10.56 g/m*3 14.1 C 0 km/h
2556 09-06-2009 06:58:48 14.2 C 10.62 g/m*3 14.2 C 0 km/h
2557 09-06-2009 07:10:48 14.3 C 10.44 g/m*3 14.3 C 0 km/h
2558 09-06-2009 07:22:46 14.6 C 10.51 g/m*3 14.6 C 0 km/h
2559 09-06-2009 07:34:01 14.8 C 10.64 g/m*3 14.8 C 0 km/h
2560 09-06-2009 07:46:01 15 C 10.64 g/m*3 15 C 0 km/h
2561 09-06-2009 07:58:01 15 C 10.26 g/m*3 15 C 0 km/h
2562 09-06-2009 08:10:01 15.2 C 9.48 g/m*3 15.2 C 0 km/h
2563 09-06-2009 08:22:01 15.2 C 9.22 g/m*3 15.2 C 0 km/h
2564 09-06-2009 08:34:01 15.2 C 9.09 g/m*3 15.2 C 0 km/h
2565 09-06-2009 08:46:01 15.3 C 9.53 g/m*3 15.3 C 0 km/h
2566 09-06-2009 08:58:01 15.4 C 9.59 g/m*3 15.4 C 0 km/h
2567 09-06-2009 09:10:00 15.4 C 9.59 g/m*3 15.4 C 0 km/h
2568 09-06-2009 09:22:01 15.5 C 9.65 g/m*3 15.5 C 0 km/h
2569 09-06-2009 09:34:00 15.9 C 9.48 g/m*3 15.9 C 0 km/h
2570 09-06-2009 09:46:00 16.5 C 9.55 g/m*3 16.5 C 0 km/h
2571 09-06-2009 09:58:01 16.8 C 8.86 g/m*3 16.8 C 0 km/h
2572 09-06-2009 10:10:00 16.8 C 8.72 g/m*3 16.8 C 0 km/h
2573 09-06-2009 10:22:00 16.9 C 8.63 g/m*3 16.9 C 0 km/h
2574 09-06-2009 10:34:00 17.7 C 8.9 g/m*3 17.7 C 0 km/h
2575 09-06-2009 10:45:59 18.1 C 8.34 g/m*3 18.1 C 0 km/h
Sensor: Nr:Datum:Temp:Abs-Feuchte:Windchill:Wind:
Aussen-T/F 2576 09-06-2009 10:57:59 18.6 C 8.12 g/m*3 18.6 C 0 km/h
2577 09-06-2009 11:10:00 18.5 C 7.91 g/m*3 18.5 C 0 km/h
2578 09-06-2009 11:22:59 19.4 C 7.67 g/m*3 19.4 C 0 km/h
2579 09-06-2009 11:34:59 20.1 C 7.47 g/m*3 20.1 C 0 km/h
2580 09-06-2009 11:46:59 19.9 C 7.39 g/m*3 19.9 C 0 km/h
2581 09-06-2009 11:58:59 20.8 C 7.06 g/m*3 20.8 C 0 km/h
2582 09-06-2009 12:10:59 21.5 C 6.98 g/m*3 21.5 C 0 km/h
2583 09-06-2009 12:22:59 21.9 C 7.14 g/m*3 21.9 C 0 km/h
2584 09-06-2009 12:34:58 21.1 C 7 g/m*3 21.1 C 0 km/h
2585 09-06-2009 12:46:59 22.5 C 6.99 g/m*3 22.5 C 0 km/h
2586 09-06-2009 12:58:59 22.9 C 6.34 g/m*3 22.9 C 0 km/h
2587 09-06-2009 13:10:58 23.3 C 6.48 g/m*3 23.3 C 0 km/h
2588 09-06-2009 13:22:58 21.5 C 6.98 g/m*3 21.5 C 0 km/h
2589 09-06-2009 13:34:58 21.5 C 6.79 g/m*3 21.5 C 0 km/h
2590 09-06-2009 13:46:58 23.7 C 6.42 g/m*3 23.7 C 0 km/h
2591 09-06-2009 13:58:59 22.3 C 6.52 g/m*3 22.3 C 0 km/h
2592 09-06-2009 14:10:57 23.6 C 6.59 g/m*3 23.6 C 0 km/h
2593 09-06-2009 14:22:57 24.2 C 6.6 g/m*3 24.2 C 0 km/h
2594 09-06-2009 14:34:58 24.9 C 6.64 g/m*3 24.9 C 0 km/h
2595 09-06-2009 14:46:01 23.8 C 6.67 g/m*3 23.8 C 0 km/h
2596 09-06-2009 14:58:01 21.6 C 7.78 g/m*3 21.6 C 0 km/h
2597 09-06-2009 15:10:01 19.3 C 8.63 g/m*3 19.3 C 0 km/h
2598 09-06-2009 15:22:01 19.9 C 11.51 g/m*3 19.9 C 0 km/h
2599 09-06-2009 15:34:01 21.9 C 10.81 g/m*3 21.9 C 0 km/h
2600 09-06-2009 15:46:01 23.2 C 9.36 g/m*3 23.2 C 0 km/h
Sensor: Nr:Datum:Temp:Abs-Feuchte:Windchill:Wind:
Aussen-T/F 2601 09-06-2009 15:58:01 21.7 C 10.49 g/m*3 21.7 C 0 km/h
2602 09-06-2009 16:10:01 22.3 C 9.08 g/m*3 22.3 C 0 km/h
2603 09-06-2009 16:22:00 23.9 C 8.22 g/m*3 23.9 C 0 km/h
2604 09-06-2009 16:34:00 24.5 C 7.16 g/m*3 24.5 C 0 km/h
2605 09-06-2009 16:46:00 24.8 C 6.83 g/m*3 24.8 C 0 km/h
2606 09-06-2009 16:58:00 24.9 C 7.1 g/m*3 24.9 C 0 km/h
2607 09-06-2009 17:10:00 26.1 C 7.1 g/m*3 26.1 C 0 km/h
2608 09-06-2009 17:22:59 25.5 C 7.34 g/m*3 25.5 C 0 km/h
2609 09-06-2009 17:34:00 25.3 C 7.02 g/m*3 25.3 C 0 km/h
2610 09-06-2009 17:46:00 25.4 C 7.06 g/m*3 25.4 C 0 km/h
2611 09-06-2009 17:58:00 24.4 C 7.12 g/m*3 24.4 C 0 km/h
2612 09-06-2009 18:10:59 23.3 C 7.53 g/m*3 23.3 C 0 km/h
2613 09-06-2009 18:22:00 21.9 C 7.72 g/m*3 21.9 C 0 km/h
2614 09-06-2009 18:34:59 20 C 7.09 g/m*3 20 C 0 km/h
2615 09-06-2009 18:46:59 19.2 C 7.42 g/m*3 19.2 C 0 km/h
2616 09-06-2009 18:58:59 20.5 C 7.83 g/m*3 20.5 C 0 km/h
2617 09-06-2009 19:10:59 20.4 C 7.61 g/m*3 20.4 C 0 km/h
2618 09-06-2009 19:22:59 19.9 C 7.9 g/m*3 19.9 C 0 km/h
2619 09-06-2009 19:34:59 19.7 C 8.15 g/m*3 19.7 C 0 km/h
2620 09-06-2009 19:46:58 17.5 C 8.95 g/m*3 17.5 C 0 km/h
2621 09-06-2009 19:58:58 16.5 C 10.11 g/m*3 16.5 C 0 km/h
2622 09-06-2009 20:10:59 17.9 C 10.08 g/m*3 17.9 C 0 km/h
2623 09-06-2009 20:22:58 18.9 C 9.4 g/m*3 18.9 C 0 km/h
2624 09-06-2009 20:34:58 19.7 C 9 g/m*3 19.7 C 0 km/h
2625 09-06-2009 20:46:58 19.3 C 8.96 g/m*3 19.3 C 0 km/h
Sensor: Nr:Datum:Temp:Abs-Feuchte:Windchill:Wind:
Aussen-T/F 2626 09-06-2009 20:58:58 18.8 C 8.54 g/m*3 18.8 C 0 km/h
2627 09-06-2009 21:10:58 18.4 C 8.81 g/m*3 18.4 C 0 km/h
2628 09-06-2009 21:22:57 17.9 C 9.47 g/m*3 17.9 C 0 km/h
2629 09-06-2009 21:34:58 17.2 C 8.93 g/m*3 17.2 C 0 km/h
2630 09-06-2009 21:46:57 16.7 C 9.1 g/m*3 16.7 C 0 km/h
2631 09-06-2009 21:58:57 16.3 C 9.16 g/m*3 16.3 C 0 km/h
2632 09-06-2009 22:10:57 16 C 9.26 g/m*3 16 C 0 km/h
2633 09-06-2009 22:23:58 15.7 C 9.37 g/m*3 15.7 C 0 km/h
2634 09-06-2009 22:35:58 15.6 C 9.44 g/m*3 15.6 C 0 km/h
2635 09-06-2009 22:47:58 15.8 C 9.29 g/m*3 15.8 C 0 km/h
2636 09-06-2009 22:59:58 15.6 C 9.18 g/m*3 15.6 C 0 km/h
2637 09-06-2009 23:11:58 15.4 C 9.33 g/m*3 15.4 C 0 km/h
2638 09-06-2009 23:23:58 15.2 C 9.35 g/m*3 15.2 C 0 km/h
2639 09-06-2009 23:35:58 15 C 9.23 g/m*3 15 C 0 km/h
2640 09-06-2009 23:47:58 14.5 C 9.2 g/m*3 14.5 C 0 km/h
2641 09-06-2009 23:59:58 14.4 C 9.27 g/m*3 14.4 C 0 km/h
2642 10-06-2009 00:11:58 14.4 C 9.39 g/m*3 14.4 C 0 km/h
2643 10-06-2009 00:23:58 14 C 9.05 g/m*3 14 C 0 km/h
2644 10-06-2009 00:35:59 14 C 9.17 g/m*3 14 C 0 km/h
2645 10-06-2009 00:47:59 13.8 C 9.29 g/m*3 13.8 C 0 km/h
2646 10-06-2009 00:59:59 13.8 C 9.29 g/m*3 13.8 C 0 km/h
2647 10-06-2009 01:11:59 14 C 9.29 g/m*3 14 C 0 km/h
2648 10-06-2009 01:23:59 14.4 C 9.39 g/m*3 14.4 C 0 km/h
2649 10-06-2009 01:35:59 14.9 C 9.3 g/m*3 14.9 C 0 km/h
2650 10-06-2009 01:47:59 15.4 C 8.93 g/m*3 15.4 C 0 km/h
Sensor: Nr:Datum:Temp:Abs-Feuchte:Windchill:Wind:
Aussen-T/F 2651 10-06-2009 01:59:59 15.6 C 8.91 g/m*3 15.6 C 0 km/h
2652 10-06-2009 02:11:59 15.4 C 8.8 g/m*3 15.4 C 0 km/h
2653 10-06-2009 02:23:59 15.4 C 8.8 g/m*3 15.4 C 0 km/h
2654 10-06-2009 02:35:59 15.5 C 8.86 g/m*3 15.5 C 0 km/h
2655 10-06-2009 02:47:59 15.4 C 8.8 g/m*3 15.4 C 0 km/h
2656 10-06-2009 02:59:59 15.1 C 8.77 g/m*3 15.1 C 0 km/h
2657 10-06-2009 03:11:59 14.9 C 9.05 g/m*3 14.9 C 0 km/h
2658 10-06-2009 03:23:59 15 C 8.98 g/m*3 15 C 0 km/h
2659 10-06-2009 03:35:59 14.8 C 8.99 g/m*3 14.8 C 0 km/h
2660 10-06-2009 03:47:59 14.8 C 9.12 g/m*3 14.8 C 0 km/h
2661 10-06-2009 03:58:59 14.7 C 9.07 g/m*3 14.7 C 0 km/h
2662 10-06-2009 04:10:59 14.5 C 8.95 g/m*3 14.5 C 0 km/h
2663 10-06-2009 04:22:59 14.4 C 9.02 g/m*3 14.4 C 0 km/h
2664 10-06-2009 04:35:00 14.4 C 9.02 g/m*3 14.4 C 0 km/h
2665 10-06-2009 04:47:00 14.6 C 9.13 g/m*3 14.6 C 0 km/h
2666 10-06-2009 04:59:00 14.4 C 9.02 g/m*3 14.4 C 0 km/h
2667 10-06-2009 05:11:00 14.4 C 9.15 g/m*3 14.4 C 0 km/h
2668 10-06-2009 05:23:00 14.4 C 9.27 g/m*3 14.4 C 0 km/h
2669 10-06-2009 05:35:00 14.4 C 9.27 g/m*3 14.4 C 0 km/h
2670 10-06-2009 05:47:00 14.4 C 9.27 g/m*3 14.4 C 0 km/h
2671 10-06-2009 05:59:00 14.5 C 9.2 g/m*3 14.5 C 0 km/h
2672 10-06-2009 06:11:00 14.4 C 9.15 g/m*3 14.4 C 0 km/h
2673 10-06-2009 06:23:00 14.5 C 9.2 g/m*3 14.5 C 0 km/h
2674 10-06-2009 06:35:00 14.8 C 9.37 g/m*3 14.8 C 0 km/h
2675 10-06-2009 06:47:00 14.9 C 9.3 g/m*3 14.9 C 0 km/h
Sensor: Nr:Datum:Temp:Abs-Feuchte:Windchill:Wind:
Aussen-T/F 2676 10-06-2009 06:59:00 15.1 C 9.16 g/m*3 15.1 C 0 km/h
2677 10-06-2009 07:11:59 15.2 C 9.09 g/m*3 15.2 C 0 km/h
2678 10-06-2009 07:23:58 15.4 C 9.2 g/m*3 15.4 C 0 km/h
2679 10-06-2009 07:35:58 15.6 C 9.18 g/m*3 15.6 C 0 km/h
2680 10-06-2009 07:47:58 15.8 C 9.29 g/m*3 15.8 C 0 km/h
2681 10-06-2009 07:59:58 16.1 C 9.18 g/m*3 16.1 C 0 km/h
2682 10-06-2009 08:11:58 16.2 C 8.96 g/m*3 16.2 C 0 km/h
2683 10-06-2009 08:23:57 16.5 C 9.13 g/m*3 16.5 C 0 km/h
2684 10-06-2009 08:35:58 16.7 C 9.1 g/m*3 16.7 C 0 km/h
2685 10-06-2009 08:47:57 16.8 C 9.15 g/m*3 16.8 C 0 km/h
2686 10-06-2009 08:59:57 16.7 C 9.1 g/m*3 16.7 C 0 km/h
2687 10-06-2009 09:11:57 17.1 C 8.88 g/m*3 17.1 C 0 km/h
2688 10-06-2009 09:23:58 16.9 C 8.92 g/m*3 16.9 C 0 km/h
2689 10-06-2009 09:35:57 16.5 C 9.13 g/m*3 16.5 C 0 km/h
2690 10-06-2009 09:47:57 15.6 C 9.58 g/m*3 15.6 C 0 km/h
2691 10-06-2009 09:59:57 15.2 C 9.73 g/m*3 15.2 C 0 km/h
2692 10-06-2009 10:11:56 14.9 C 10.07 g/m*3 14.9 C 0 km/h
2693 10-06-2009 10:23:57 14.6 C 10.01 g/m*3 14.6 C 0 km/h
2694 10-06-2009 10:35:56 15 C 10.39 g/m*3 15 C 0 km/h
2695 10-06-2009 10:47:56 15.3 C 10.45 g/m*3 15.3 C 0 km/h
2696 10-06-2009 10:59:57 15.7 C 10.3 g/m*3 15.7 C 0 km/h
2697 10-06-2009 11:11:56 16.2 C 10.2 g/m*3 16.2 C 0 km/h
2698 10-06-2009 11:23:56 16.9 C 10.36 g/m*3 16.9 C 0 km/h
2699 10-06-2009 11:35:56 17.3 C 10.02 g/m*3 17.3 C 0 km/h
2700 10-06-2009 11:47:56 18.3 C 9.85 g/m*3 18.3 C 0 km/h
Sensor: Nr:Datum:Temp:Abs-Feuchte:Windchill:Wind:
Aussen-T/F 2701 10-06-2009 11:59:56 18.4 C 9.75 g/m*3 18.4 C 0 km/h
2702 10-06-2009 12:11:56 19 C 9.45 g/m*3 19 C 0 km/h
2703 10-06-2009 12:23:55 19.9 C 8.93 g/m*3 19.9 C 0 km/h
2704 10-06-2009 12:35:55 20.1 C 8.17 g/m*3 20.1 C 0 km/h
2705 10-06-2009 12:47:55 20.3 C 7.91 g/m*3 20.3 C 0 km/h
2706 10-06-2009 12:59:55 19.4 C 7.84 g/m*3 19.4 C 0 km/h
2707 10-06-2009 13:11:55 19.5 C 8.22 g/m*3 19.5 C 0 km/h
2708 10-06-2009 13:23:55 22.8 C 7.72 g/m*3 22.8 C 0 km/h
2709 10-06-2009 13:35:55 23.4 C 7.36 g/m*3 23.4 C 0 km/h
2710 10-06-2009 13:47:55 21.6 C 6.45 g/m*3 21.6 C 0 km/h
2711 10-06-2009 13:59:55 22.7 C 6.67 g/m*3 22.7 C 0 km/h
2712 10-06-2009 14:11:54 22.1 C 6.64 g/m*3 22.1 C 0 km/h
2713 10-06-2009 14:23:54 22 C 6.21 g/m*3 22 C 0 km/h
2714 10-06-2009 14:35:54 22 C 6.6 g/m*3 22 C 0 km/h
2715 10-06-2009 14:47:54 22.3 C 6.32 g/m*3 22.3 C 0 km/h
2716 10-06-2009 14:59:55 22.6 C 6.43 g/m*3 22.6 C 0 km/h
2717 10-06-2009 15:11:53 22.5 C 5.79 g/m*3 22.5 C 0 km/h
2718 10-06-2009 15:23:54 23.5 C 6.13 g/m*3 23.5 C 0 km/h
2719 10-06-2009 15:35:54 23.4 C 5.68 g/m*3 23.4 C 0 km/h
2720 10-06-2009 15:47:53 23.3 C 5.44 g/m*3 23.3 C 0 km/h
2721 10-06-2009 15:59:53 23.5 C 5.5 g/m*3 23.5 C 0 km/h
2722 10-06-2009 16:11:54 23.4 C 4.84 g/m*3 23.4 C 0 km/h
2723 10-06-2009 16:23:53 22.8 C 5.08 g/m*3 22.8 C 0 km/h
2724 10-06-2009 16:35:53 23.1 C 5.17 g/m*3 23.1 C 0 km/h
2725 10-06-2009 16:47:53 24.1 C 5.47 g/m*3 24.1 C 0 km/h
Sensor: Nr:Datum:Temp:Abs-Feuchte:Windchill:Wind:
Aussen-T/F 2726 10-06-2009 16:59:53 23.2 C 5.2 g/m*3 23.2 C 0 km/h
2727 10-06-2009 17:11:53 23.2 C 4.57 g/m*3 23.2 C 0 km/h
2728 10-06-2009 17:23:53 23.8 C 4.95 g/m*3 23.8 C 0 km/h
2729 10-06-2009 17:35:52 22.2 C 4.91 g/m*3 22.2 C 0 km/h
2730 10-06-2009 17:47:53 22.3 C 5.13 g/m*3 22.3 C 0 km/h
2731 10-06-2009 17:59:53 21.9 C 5.21 g/m*3 21.9 C 0 km/h
2732 10-06-2009 18:11:52 21.5 C 5.47 g/m*3 21.5 C 0 km/h
2733 10-06-2009 18:23:52 19.4 C 7.51 g/m*3 19.4 C 0 km/h
2734 10-06-2009 18:35:52 17.7 C 9.05 g/m*3 17.7 C 0 km/h
2735 10-06-2009 18:47:52 18.5 C 9.02 g/m*3 18.5 C 0 km/h
2736 10-06-2009 18:59:53 18.7 C 8.97 g/m*3 18.7 C 0 km/h
2737 10-06-2009 19:11:51 18.5 C 8.7 g/m*3 18.5 C 0 km/h
2738 10-06-2009 19:23:51 18.4 C 8.65 g/m*3 18.4 C 0 km/h
2739 10-06-2009 19:35:52 18.3 C 8.76 g/m*3 18.3 C 0 km/h
2740 10-06-2009 19:47:51 17.2 C 8.93 g/m*3 17.2 C 0 km/h
2741 10-06-2009 19:59:51 15.8 C 9.42 g/m*3 15.8 C 0 km/h
2742 10-06-2009 20:11:51 15.6 C 9.84 g/m*3 15.6 C 0 km/h
2743 10-06-2009 20:23:51 15.5 C 9.52 g/m*3 15.5 C 0 km/h
2744 10-06-2009 20:35:51 15.6 C 9.44 g/m*3 15.6 C 0 km/h
2745 10-06-2009 20:47:50 15.8 C 9.69 g/m*3 15.8 C 0 km/h
2746 10-06-2009 20:59:50 15.4 C 9.59 g/m*3 15.4 C 0 km/h
2747 10-06-2009 21:11:50 15.5 C 9.65 g/m*3 15.5 C 0 km/h
2748 10-06-2009 21:23:51 15.6 C 9.71 g/m*3 15.6 C 0 km/h
2749 10-06-2009 21:35:50 15.6 C 9.31 g/m*3 15.6 C 0 km/h
2750 10-06-2009 21:47:50 15.8 C 9.15 g/m*3 15.8 C 0 km/h
Sensor: Nr:Datum:Temp:Abs-Feuchte:Windchill:Wind:
Aussen-T/F 2751 10-06-2009 21:59:50 15.5 C 9.12 g/m*3 15.5 C 0 km/h
2752 10-06-2009 22:11:50 14.5 C 9.83 g/m*3 14.5 C 0 km/h
2753 10-06-2009 22:24:50 14.3 C 10.07 g/m*3 14.3 C 0 km/h
2754 10-06-2009 22:36:50 14.1 C 10.19 g/m*3 14.1 C 0 km/h
2755 10-06-2009 22:48:50 14.2 C 10.38 g/m*3 14.2 C 0 km/h
2756 10-06-2009 23:00:50 14.2 C 10.5 g/m*3 14.2 C 0 km/h
2757 10-06-2009 23:12:51 14.2 C 10.62 g/m*3 14.2 C 0 km/h
2758 10-06-2009 23:24:51 14 C 10.49 g/m*3 14 C 0 km/h
2759 10-06-2009 23:36:51 14.1 C 10.56 g/m*3 14.1 C 0 km/h
2760 10-06-2009 23:48:51 14.4 C 10.51 g/m*3 14.4 C 0 km/h
2761 11-06-2009 00:00:51 14.5 C 10.45 g/m*3 14.5 C 0 km/h
2762 11-06-2009 00:12:51 14.2 C 10.14 g/m*3 14.2 C 0 km/h
2763 11-06-2009 00:24:51 14.2 C 10.26 g/m*3 14.2 C 0 km/h
2764 11-06-2009 00:36:51 14.1 C 10.19 g/m*3 14.1 C 0 km/h
2765 11-06-2009 00:48:51 14 C 10.25 g/m*3 14 C 0 km/h
2766 11-06-2009 01:00:51 13.8 C 10.25 g/m*3 13.8 C 0 km/h
2767 11-06-2009 01:12:51 13.9 C 10.43 g/m*3 13.9 C 0 km/h
2768 11-06-2009 01:24:51 13.9 C 10.67 g/m*3 13.9 C 0 km/h
2769 11-06-2009 01:36:51 13.9 C 10.79 g/m*3 13.9 C 0 km/h
2770 11-06-2009 01:48:51 13.9 C 10.91 g/m*3 13.9 C 0 km/h
2771 11-06-2009 02:00:51 14 C 10.98 g/m*3 14 C 0 km/h
2772 11-06-2009 02:12:51 13.9 C 11.03 g/m*3 13.9 C 0 km/h
2773 11-06-2009 02:24:51 13.9 C 11.03 g/m*3 13.9 C 0 km/h
2774 11-06-2009 02:36:51 14 C 11.1 g/m*3 14 C 0 km/h
2775 11-06-2009 02:48:51 14 C 11.1 g/m*3 14 C 0 km/h
Sensor: Nr:Datum:Temp:Abs-Feuchte:Windchill:Wind:
Aussen-T/F 2776 11-06-2009 03:00:52 14 C 11.1 g/m*3 14 C 0 km/h
2777 11-06-2009 03:12:52 14.1 C 11.29 g/m*3 14.1 C 0 km/h
2778 11-06-2009 03:24:52 14.2 C 11.36 g/m*3 14.2 C 0 km/h
2779 11-06-2009 03:36:52 14.2 C 11.36 g/m*3 14.2 C 0 km/h
2780 11-06-2009 03:48:52 14 C 11.22 g/m*3 14 C 0 km/h
2781 11-06-2009 04:00:52 14 C 11.22 g/m*3 14 C 0 km/h
2782 11-06-2009 04:12:52 14 C 11.34 g/m*3 14 C 0 km/h
2783 11-06-2009 04:24:52 14 C 11.34 g/m*3 14 C 0 km/h
2784 11-06-2009 04:36:52 14.1 C 11.41 g/m*3 14.1 C 0 km/h
2785 11-06-2009 04:48:52 14.2 C 11.48 g/m*3 14.2 C 0 km/h
2786 11-06-2009 05:00:52 14.2 C 11.48 g/m*3 14.2 C 0 km/h
2787 11-06-2009 05:12:52 14.2 C 11.48 g/m*3 14.2 C 0 km/h
2788 11-06-2009 05:24:52 14.4 C 11.5 g/m*3 14.4 C 0 km/h
2789 11-06-2009 05:36:52 14.6 C 11.26 g/m*3 14.6 C 0 km/h
2790 11-06-2009 05:48:52 14.5 C 11.07 g/m*3 14.5 C 0 km/h
2791 11-06-2009 06:00:52 14.6 C 11.14 g/m*3 14.6 C 0 km/h
2792 11-06-2009 06:12:52 14.2 C 10.87 g/m*3 14.2 C 0 km/h
2793 11-06-2009 06:24:52 14.2 C 10.87 g/m*3 14.2 C 0 km/h
2794 11-06-2009 06:36:52 14.3 C 10.93 g/m*3 14.3 C 0 km/h
2795 11-06-2009 06:48:53 14.4 C 11 g/m*3 14.4 C 0 km/h
2796 11-06-2009 07:00:53 14.4 C 10.75 g/m*3 14.4 C 0 km/h
2797 11-06-2009 07:12:53 14.5 C 10.82 g/m*3 14.5 C 0 km/h
2798 11-06-2009 07:24:53 14.5 C 10.94 g/m*3 14.5 C 0 km/h
2799 11-06-2009 07:36:53 14.8 C 11.02 g/m*3 14.8 C 0 km/h
2800 11-06-2009 07:48:53 14.7 C 10.32 g/m*3 14.7 C 0 km/h
Sensor: Nr:Datum:Temp:Abs-Feuchte:Windchill:Wind:
Aussen-T/F 2801 11-06-2009 08:00:53 14.7 C 10.2 g/m*3 14.7 C 0 km/h
2802 11-06-2009 08:12:53 14.7 C 9.57 g/m*3 14.7 C 0 km/h
2803 11-06-2009 08:24:53 14.7 C 9.57 g/m*3 14.7 C 0 km/h
2804 11-06-2009 08:36:50 14.8 C 9.5 g/m*3 14.8 C 0 km/h
2805 11-06-2009 08:48:49 14.9 C 8.92 g/m*3 14.9 C 0 km/h
2806 11-06-2009 09:00:50 15 C 8.72 g/m*3 15 C 0 km/h
2807 11-06-2009 09:12:50 15 C 8.33 g/m*3 15 C 0 km/h
2808 11-06-2009 09:24:49 15.3 C 8.23 g/m*3 15.3 C 0 km/h
2809 11-06-2009 09:36:49 15.1 C 7.74 g/m*3 15.1 C 0 km/h
2810 11-06-2009 09:48:02 15 C 7.82 g/m*3 15 C 0 km/h
2811 11-06-2009 10:00:02 15 C 7.82 g/m*3 15 C 0 km/h
2812 11-06-2009 10:12:01 14.9 C 8.03 g/m*3 14.9 C 0 km/h
2813 11-06-2009 10:24:02 15.1 C 7.87 g/m*3 15.1 C 0 km/h
2814 11-06-2009 10:36:01 15.5 C 7.8 g/m*3 15.5 C 0 km/h
2815 11-06-2009 10:48:01 15.7 C 7.89 g/m*3 15.7 C 0 km/h
2816 11-06-2009 11:00:01 15.2 C 8.05 g/m*3 15.2 C 0 km/h
2817 11-06-2009 11:12:01 15.3 C 7.84 g/m*3 15.3 C 0 km/h
2818 11-06-2009 11:24:01 15.5 C 7.53 g/m*3 15.5 C 0 km/h
2819 11-06-2009 11:36:01 15.4 C 7.23 g/m*3 15.4 C 0 km/h
2820 11-06-2009 11:48:01 15.3 C 7.05 g/m*3 15.3 C 0 km/h
2821 11-06-2009 12:00:01 15.2 C 6.75 g/m*3 15.2 C 0 km/h
2822 11-06-2009 12:12:01 15.2 C 6.62 g/m*3 15.2 C 0 km/h
2823 11-06-2009 12:24:00 15.3 C 6.53 g/m*3 15.3 C 0 km/h
2824 11-06-2009 12:36:00 15.4 C 6.57 g/m*3 15.4 C 0 km/h
2825 11-06-2009 12:48:00 15.3 C 6.66 g/m*3 15.3 C 0 km/h
Sensor: Nr:Datum:Temp:Abs-Feuchte:Windchill:Wind:
Aussen-T/F 2826 11-06-2009 13:00:00 15.2 C 6.62 g/m*3 15.2 C 0 km/h
2827 11-06-2009 13:12:00 15.3 C 6.66 g/m*3 15.3 C 0 km/h
2828 11-06-2009 13:24:59 15.4 C 6.96 g/m*3 15.4 C 0 km/h
2829 11-06-2009 13:36:00 15.2 C 6.88 g/m*3 15.2 C 0 km/h
2830 11-06-2009 13:48:59 15.4 C 6.96 g/m*3 15.4 C 0 km/h
2831 11-06-2009 14:00:59 15.5 C 7.67 g/m*3 15.5 C 0 km/h
2832 11-06-2009 14:12:59 15.8 C 7.81 g/m*3 15.8 C 0 km/h
2833 11-06-2009 14:24:00 17.3 C 7.66 g/m*3 17.3 C 0 km/h
2834 11-06-2009 14:36:59 16.9 C 7.05 g/m*3 16.9 C 0 km/h
2835 11-06-2009 14:48:59 16.2 C 7.45 g/m*3 16.2 C 0 km/h
2836 11-06-2009 15:00:58 16.4 C 7.4 g/m*3 16.4 C 0 km/h
2837 11-06-2009 15:12:58 16.3 C 7.63 g/m*3 16.3 C 0 km/h
2838 11-06-2009 15:24:59 16.8 C 7.43 g/m*3 16.8 C 0 km/h
2839 11-06-2009 15:36:59 16.8 C 7.29 g/m*3 16.8 C 0 km/h
2840 11-06-2009 15:48:58 17.5 C 7.45 g/m*3 17.5 C 0 km/h
2841 11-06-2009 16:00:59 16.7 C 7.82 g/m*3 16.7 C 0 km/h
2842 11-06-2009 16:12:59 16.4 C 8.1 g/m*3 16.4 C 0 km/h
2843 11-06-2009 16:24:58 17.3 C 8.1 g/m*3 17.3 C 0 km/h
2844 11-06-2009 16:36:58 16.6 C 7.63 g/m*3 16.6 C 0 km/h
2845 11-06-2009 16:48:58 16 C 7.9 g/m*3 16 C 0 km/h
2846 11-06-2009 17:00:58 16.2 C 7.72 g/m*3 16.2 C 0 km/h
2847 11-06-2009 17:12:59 16.4 C 7.82 g/m*3 16.4 C 0 km/h
2848 11-06-2009 17:24:57 16.4 C 8.37 g/m*3 16.4 C 0 km/h
2849 11-06-2009 17:36:57 18.3 C 8.6 g/m*3 18.3 C 0 km/h
2850 11-06-2009 17:48:57 17.5 C 8.05 g/m*3 17.5 C 0 km/h
Sensor: Nr:Datum:Temp:Abs-Feuchte:Windchill:Wind:
Aussen-T/F 2851 11-06-2009 18:00:57 16 C 8.31 g/m*3 16 C 0 km/h
2852 11-06-2009 18:12:57 14.4 C 9.02 g/m*3 14.4 C 0 km/h
2853 11-06-2009 18:24:57 13.2 C 9.19 g/m*3 13.2 C 0 km/h
2854 11-06-2009 18:36:57 13.3 C 9.7 g/m*3 13.3 C 0 km/h
2855 11-06-2009 18:48:57 14.2 C 10.38 g/m*3 14.2 C 0 km/h
2856 11-06-2009 19:00:56 14.2 C 10.38 g/m*3 14.2 C 0 km/h
2857 11-06-2009 19:12:56 15.3 C 10.84 g/m*3 15.3 C 0 km/h
2858 11-06-2009 19:24:56 16 C 10.49 g/m*3 16 C 0 km/h
2859 11-06-2009 19:36:57 16 C 10.63 g/m*3 16 C 0 km/h
2860 11-06-2009 19:48:56 14.9 C 10.07 g/m*3 14.9 C 0 km/h
2861 11-06-2009 20:00:07 14.4 C 9.89 g/m*3 14.4 C 0 km/h
2862 11-06-2009 20:12:07 13.4 C 9.65 g/m*3 13.4 C 0 km/h
2863 11-06-2009 20:24:07 11.9 C 8.68 g/m*3 11.9 C 0 km/h
2864 11-06-2009 20:36:07 11.9 C 8.79 g/m*3 11.9 C 0 km/h
2865 11-06-2009 20:48:56 12.3 C 8.9 g/m*3 12.3 C 0 km/h
2866 11-06-2009 21:00:56 12.5 C 9.02 g/m*3 12.5 C 0 km/h
2867 11-06-2009 21:12:56 12.5 C 8.8 g/m*3 12.5 C 0 km/h
2868 11-06-2009 21:24:56 12.6 C 8.85 g/m*3 12.6 C 0 km/h
2869 11-06-2009 21:36:56 12.5 C 8.8 g/m*3 12.5 C 0 km/h
2870 11-06-2009 21:48:56 12.3 C 8.8 g/m*3 12.3 C 0 km/h
2871 11-06-2009 22:01:57 12.3 C 8.8 g/m*3 12.3 C 0 km/h
2872 11-06-2009 22:13:57 12.4 C 8.85 g/m*3 12.4 C 0 km/h
2873 11-06-2009 22:25:57 12.4 C 8.74 g/m*3 12.4 C 0 km/h
2874 11-06-2009 22:37:57 12.5 C 8.69 g/m*3 12.5 C 0 km/h
2875 11-06-2009 22:49:57 12.4 C 8.74 g/m*3 12.4 C 0 km/h
Sensor: Nr:Datum:Temp:Abs-Feuchte:Windchill:Wind:
Aussen-T/F 2876 11-06-2009 23:01:57 12.4 C 8.74 g/m*3 12.4 C 0 km/h
2877 11-06-2009 23:13:57 12.4 C 8.63 g/m*3 12.4 C 0 km/h
2878 11-06-2009 23:25:57 12.1 C 8.47 g/m*3 12.1 C 0 km/h
2879 11-06-2009 23:37:58 12 C 8.42 g/m*3 12 C 0 km/h
2880 11-06-2009 23:49:58 12 C 8.31 g/m*3 12 C 0 km/h
2881 12-06-2009 00:01:58 11.5 C 8.16 g/m*3 11.5 C 0 km/h
2882 12-06-2009 00:13:58 11.4 C 8.11 g/m*3 11.4 C 0 km/h
2883 12-06-2009 00:25:58 11.3 C 8.06 g/m*3 11.3 C 0 km/h
2884 12-06-2009 00:37:58 11.5 C 8.16 g/m*3 11.5 C 0 km/h
2885 12-06-2009 00:49:58 11.7 C 8.16 g/m*3 11.7 C 0 km/h
2886 12-06-2009 01:01:58 11.6 C 8.21 g/m*3 11.6 C 0 km/h
2887 12-06-2009 01:13:58 11.1 C 8.26 g/m*3 11.1 C 0 km/h
2888 12-06-2009 01:25:58 10.8 C 8.4 g/m*3 10.8 C 0 km/h
2889 12-06-2009 01:37:58 10.6 C 8.49 g/m*3 10.6 C 0 km/h
2890 12-06-2009 01:49:58 10.5 C 8.53 g/m*3 10.5 C 0 km/h
2891 12-06-2009 02:01:58 10.4 C 8.58 g/m*3 10.4 C 0 km/h
2892 12-06-2009 02:13:58 10.3 C 8.52 g/m*3 10.3 C 0 km/h
2893 12-06-2009 02:25:58 10.4 C 8.48 g/m*3 10.4 C 0 km/h
2894 12-06-2009 02:37:58 10.3 C 8.24 g/m*3 10.3 C 0 km/h
2895 12-06-2009 02:49:58 10.3 C 8.14 g/m*3 10.3 C 0 km/h
2896 12-06-2009 03:01:58 10.4 C 8.1 g/m*3 10.4 C 0 km/h
2897 12-06-2009 03:13:58 10.4 C 8 g/m*3 10.4 C 0 km/h
2898 12-06-2009 03:25:59 10.2 C 7.9 g/m*3 10.2 C 0 km/h
2899 12-06-2009 03:37:59 10 C 7.89 g/m*3 10 C 0 km/h
2900 12-06-2009 03:49:59 9.9 C 7.94 g/m*3 9.9 C 0 km/h
Sensor: Nr:Datum:Temp:Abs-Feuchte:Windchill:Wind:
Aussen-T/F 2901 12-06-2009 04:01:59 9.9 C 8.03 g/m*3 9.9 C 0 km/h
2902 12-06-2009 04:13:59 10 C 7.99 g/m*3 10 C 0 km/h
2903 12-06-2009 04:25:59 9.8 C 8.07 g/m*3 9.8 C 0 km/h
2904 12-06-2009 04:37:59 9.6 C 7.97 g/m*3 9.6 C 0 km/h
2905 12-06-2009 04:49:59 9.4 C 7.96 g/m*3 9.4 C 0 km/h
2906 12-06-2009 05:01:59 9.5 C 8.1 g/m*3 9.5 C 0 km/h
2907 12-06-2009 05:13:59 9.6 C 8.06 g/m*3 9.6 C 0 km/h
2908 12-06-2009 05:25:59 9.2 C 7.86 g/m*3 9.2 C 0 km/h
2909 12-06-2009 05:37:59 9.1 C 7.72 g/m*3 9.1 C 0 km/h
2910 12-06-2009 05:49:59 9.1 C 7.72 g/m*3 9.1 C 0 km/h
2911 12-06-2009 06:01:59 9.2 C 7.77 g/m*3 9.2 C 0 km/h
2912 12-06-2009 06:13:59 9.1 C 7.72 g/m*3 9.1 C 0 km/h
2913 12-06-2009 06:25:58 9.1 C 7.72 g/m*3 9.1 C 0 km/h
2914 12-06-2009 06:37:57 9.2 C 7.77 g/m*3 9.2 C 0 km/h
2915 12-06-2009 06:49:57 9.3 C 7.82 g/m*3 9.3 C 0 km/h
2916 12-06-2009 07:01:57 9.7 C 7.84 g/m*3 9.7 C 0 km/h
2917 12-06-2009 07:13:57 10 C 7.61 g/m*3 10 C 0 km/h
2918 12-06-2009 07:25:57 10.1 C 7.56 g/m*3 10.1 C 0 km/h
2919 12-06-2009 07:37:56 10.2 C 7.52 g/m*3 10.2 C 0 km/h
2920 12-06-2009 07:49:56 10.4 C 7.61 g/m*3 10.4 C 0 km/h
2921 12-06-2009 08:01:57 10.5 C 7.57 g/m*3 10.5 C 0 km/h
2922 12-06-2009 08:13:57 10.8 C 7.71 g/m*3 10.8 C 0 km/h
2923 12-06-2009 08:25:56 11 C 7.51 g/m*3 11 C 0 km/h
2924 12-06-2009 08:37:56 11.2 C 7.5 g/m*3 11.2 C 0 km/h
2925 12-06-2009 08:49:56 11.7 C 7.74 g/m*3 11.7 C 0 km/h
Sensor: Nr:Datum:Temp:Abs-Feuchte:Windchill:Wind:
Aussen-T/F 2926 12-06-2009 09:01:56 12.1 C 7.83 g/m*3 12.1 C 0 km/h
2927 12-06-2009 09:13:56 12.4 C 7.87 g/m*3 12.4 C 0 km/h
2928 12-06-2009 09:25:56 12.9 C 8.11 g/m*3 12.9 C 0 km/h
2929 12-06-2009 09:37:56 13.4 C 8.14 g/m*3 13.4 C 0 km/h
2930 12-06-2009 09:49:55 14.1 C 8.01 g/m*3 14.1 C 0 km/h
2931 12-06-2009 10:01:55 15.4 C 8.28 g/m*3 15.4 C 0 km/h
2932 12-06-2009 10:13:55 16.9 C 8.05 g/m*3 16.9 C 0 km/h
2933 12-06-2009 10:25:55 17.3 C 7.51 g/m*3 17.3 C 0 km/h
2934 12-06-2009 10:37:55 17.5 C 7.16 g/m*3 17.5 C 0 km/h
2935 12-06-2009 10:49:54 17.2 C 6.74 g/m*3 17.2 C 0 km/h
2936 12-06-2009 11:01:55 16.8 C 6.58 g/m*3 16.8 C 0 km/h
2937 12-06-2009 11:13:55 17.1 C 6.11 g/m*3 17.1 C 0 km/h
2938 12-06-2009 11:25:55 17.9 C 5.5 g/m*3 17.9 C 0 km/h
2939 12-06-2009 11:37:54 18.3 C 5.47 g/m*3 18.3 C 0 km/h
2940 12-06-2009 11:49:55 18.7 C 5.6 g/m*3 18.7 C 0 km/h
2941 12-06-2009 12:01:54 18.9 C 5.51 g/m*3 18.9 C 0 km/h
2942 12-06-2009 12:13:54 17.4 C 5.93 g/m*3 17.4 C 0 km/h
2943 12-06-2009 12:25:54 18.5 C 5.85 g/m*3 18.5 C 0 km/h
2944 12-06-2009 12:37:53 20.4 C 5.31 g/m*3 20.4 C 0 km/h
2945 12-06-2009 12:49:54 20.7 C 4.68 g/m*3 20.7 C 0 km/h
2946 12-06-2009 13:01:53 18.1 C 5.1 g/m*3 18.1 C 0 km/h
2947 12-06-2009 13:13:53 20.9 C 5.65 g/m*3 20.9 C 0 km/h
2948 12-06-2009 13:25:53 23.3 C 4.6 g/m*3 23.3 C 0 km/h
2949 12-06-2009 13:37:54 21.8 C 5.56 g/m*3 21.8 C 0 km/h
2950 12-06-2009 13:49:53 20.6 C 5.37 g/m*3 20.6 C 0 km/h
Sensor: Nr:Datum:Temp:Abs-Feuchte:Windchill:Wind:
Aussen-T/F 2951 12-06-2009 14:01:53 21 C 4.95 g/m*3 21 C 0 km/h
2952 12-06-2009 14:13:53 21.2 C 4.63 g/m*3 21.2 C 0 km/h
2953 12-06-2009 14:25:53 21.3 C 4.85 g/m*3 21.3 C 0 km/h
2954 12-06-2009 14:37:53 21.3 C 5.22 g/m*3 21.3 C 0 km/h
2955 12-06-2009 14:49:52 21 C 4.95 g/m*3 21 C 0 km/h
2956 12-06-2009 15:01:52 20.7 C 5.58 g/m*3 20.7 C 0 km/h
2957 12-06-2009 15:13:52 21.8 C 5.56 g/m*3 21.8 C 0 km/h
2958 12-06-2009 15:25:52 21.6 C 5.12 g/m*3 21.6 C 0 km/h
2959 12-06-2009 15:37:52 21.6 C 5.31 g/m*3 21.6 C 0 km/h
2960 12-06-2009 15:49:52 21.5 C 5.28 g/m*3 21.5 C 0 km/h
2961 12-06-2009 16:01:52 21.7 C 5.34 g/m*3 21.7 C 0 km/h
2962 12-06-2009 16:13:52 21.4 C 5.25 g/m*3 21.4 C 0 km/h
2963 12-06-2009 16:25:52 22.2 C 5.3 g/m*3 22.2 C 0 km/h
2964 12-06-2009 16:37:51 23.1 C 5.37 g/m*3 23.1 C 0 km/h
2965 12-06-2009 16:49:52 23.6 C 5.32 g/m*3 23.6 C 0 km/h
2966 12-06-2009 17:01:51 22.7 C 5.05 g/m*3 22.7 C 0 km/h
2967 12-06-2009 17:13:51 22.2 C 4.91 g/m*3 22.2 C 0 km/h
2968 12-06-2009 17:25:51 21.6 C 5.12 g/m*3 21.6 C 0 km/h
2969 12-06-2009 17:37:51 23 C 4.73 g/m*3 23 C 0 km/h
2970 12-06-2009 17:49:51 22.7 C 5.05 g/m*3 22.7 C 0 km/h
2971 12-06-2009 18:01:51 22.2 C 4.91 g/m*3 22.2 C 0 km/h
2972 12-06-2009 18:13:51 21.8 C 4.99 g/m*3 21.8 C 0 km/h
2973 12-06-2009 18:25:50 22.7 C 5.05 g/m*3 22.7 C 0 km/h
2974 12-06-2009 18:37:51 22 C 5.05 g/m*3 22 C 0 km/h
2975 12-06-2009 18:49:50 22.7 C 5.05 g/m*3 22.7 C 0 km/h
Sensor: Nr:Datum:Temp:Abs-Feuchte:Windchill:Wind:
Aussen-T/F 2976 12-06-2009 19:01:50 22.7 C 5.05 g/m*3 22.7 C 0 km/h
2977 12-06-2009 19:13:50 22.9 C 5.11 g/m*3 22.9 C 0 km/h
2978 12-06-2009 19:25:50 23.1 C 5.17 g/m*3 23.1 C 0 km/h
2979 12-06-2009 19:37:50 22.9 C 5.11 g/m*3 22.9 C 0 km/h
2980 12-06-2009 19:49:49 22.1 C 4.88 g/m*3 22.1 C 0 km/h
2981 12-06-2009 20:01:50 21.5 C 4.9 g/m*3 21.5 C 0 km/h
2982 12-06-2009 20:13:50 21.5 C 5.09 g/m*3 21.5 C 0 km/h
2983 12-06-2009 20:25:50 20.4 C 5.31 g/m*3 20.4 C 0 km/h
2984 12-06-2009 20:37:49 20.2 C 5.25 g/m*3 20.2 C 0 km/h
2985 12-06-2009 20:49:50 20 C 5.18 g/m*3 20 C 0 km/h
2986 12-06-2009 21:01:48 19.7 C 5.43 g/m*3 19.7 C 0 km/h
2987 12-06-2009 21:13:48 19 C 5.54 g/m*3 19 C 0 km/h
2988 12-06-2009 21:25:49 18.2 C 5.28 g/m*3 18.2 C 0 km/h
2989 12-06-2009 21:37:49 17.8 C 5.46 g/m*3 17.8 C 0 km/h
2990 12-06-2009 21:49:48 17.3 C 5.45 g/m*3 17.3 C 0 km/h
2991 12-06-2009 22:01:49 16.8 C 5.43 g/m*3 16.8 C 0 km/h
2992 12-06-2009 22:13:49 16.5 C 5.48 g/m*3 16.5 C 0 km/h
2993 12-06-2009 22:26:50 16.2 C 5.52 g/m*3 16.2 C 0 km/h
2994 12-06-2009 22:38:50 15.8 C 5.52 g/m*3 15.8 C 0 km/h
2995 12-06-2009 22:50:50 15.5 C 5.95 g/m*3 15.5 C 0 km/h
2996 12-06-2009 23:02:50 15 C 6.03 g/m*3 15 C 0 km/h
2997 12-06-2009 23:14:50 14.6 C 6.13 g/m*3 14.6 C 0 km/h
2998 12-06-2009 23:26:50 14.3 C 6.27 g/m*3 14.3 C 0 km/h
2999 12-06-2009 23:38:50 13.9 C 6.59 g/m*3 13.9 C 0 km/h
3000 12-06-2009 23:50:50 13.4 C 6.63 g/m*3 13.4 C 0 km/h
Sensor: Nr:Datum:Temp:Abs-Feuchte:Windchill:Wind:
Aussen-T/F 3001 13-06-2009 00:02:50 13.2 C 6.77 g/m*3 13.2 C 0 km/h
3002 13-06-2009 00:14:50 13 C 6.8 g/m*3 13 C 0 km/h
3003 13-06-2009 00:26:50 12.7 C 7.01 g/m*3 12.7 C 0 km/h
3004 13-06-2009 00:38:50 12.4 C 6.88 g/m*3 12.4 C 0 km/h
3005 13-06-2009 00:50:50 12.2 C 6.8 g/m*3 12.2 C 0 km/h
3006 13-06-2009 01:02:50 12.1 C 6.86 g/m*3 12.1 C 0 km/h
3007 13-06-2009 01:14:50 11.8 C 6.95 g/m*3 11.8 C 0 km/h
3008 13-06-2009 01:26:50 11.5 C 6.92 g/m*3 11.5 C 0 km/h
3009 13-06-2009 01:38:50 11.3 C 6.83 g/m*3 11.3 C 0 km/h
3010 13-06-2009 01:50:51 11.1 C 6.65 g/m*3 11.1 C 0 km/h
3011 13-06-2009 02:02:51 10.9 C 6.76 g/m*3 10.9 C 0 km/h
3012 13-06-2009 02:14:51 10.7 C 6.78 g/m*3 10.7 C 0 km/h
3013 13-06-2009 02:26:51 10.6 C 6.83 g/m*3 10.6 C 0 km/h
3014 13-06-2009 02:38:51 10.3 C 6.9 g/m*3 10.3 C 0 km/h
3015 13-06-2009 02:50:51 10.2 C 6.85 g/m*3 10.2 C 0 km/h
3016 13-06-2009 03:02:51 9.9 C 6.91 g/m*3 9.9 C 0 km/h
3017 13-06-2009 03:14:51 9.7 C 6.91 g/m*3 9.7 C 0 km/h
3018 13-06-2009 03:26:51 9.5 C 6.92 g/m*3 9.5 C 0 km/h
3019 13-06-2009 03:38:51 9.5 C 6.92 g/m*3 9.5 C 0 km/h
3020 13-06-2009 03:50:51 9.2 C 6.97 g/m*3 9.2 C 0 km/h
3021 13-06-2009 04:02:51 9 C 6.88 g/m*3 9 C 0 km/h
3022 13-06-2009 04:14:51 8.9 C 7.01 g/m*3 8.9 C 0 km/h
3023 13-06-2009 04:26:51 8.7 C 6.92 g/m*3 8.7 C 0 km/h
3024 13-06-2009 04:38:51 8.6 C 6.87 g/m*3 8.6 C 0 km/h
3025 13-06-2009 04:50:51 8.5 C 6.83 g/m*3 8.5 C 0 km/h
Sensor: Nr:Datum:Temp:Abs-Feuchte:Windchill:Wind:
Aussen-T/F 3026 13-06-2009 05:02:51 8.4 C 6.79 g/m*3 8.4 C 0 km/h
3027 13-06-2009 05:14:51 8.3 C 6.66 g/m*3 8.3 C 0 km/h
3028 13-06-2009 05:26:51 8.2 C 6.7 g/m*3 8.2 C 0 km/h
3029 13-06-2009 05:38:51 8.1 C 6.66 g/m*3 8.1 C 0 km/h
3030 13-06-2009 05:50:51 8.1 C 6.74 g/m*3 8.1 C 0 km/h
3031 13-06-2009 06:02:49 8.2 C 6.78 g/m*3 8.2 C 0 km/h
3032 13-06-2009 06:14:50 8.3 C 6.91 g/m*3 8.3 C 0 km/h
3033 13-06-2009 06:26:51 8.2 C 6.95 g/m*3 8.2 C 0 km/h
3034 13-06-2009 06:38:49 8.4 C 7.04 g/m*3 8.4 C 0 km/h
3035 13-06-2009 06:50:49 8.4 C 7.04 g/m*3 8.4 C 0 km/h
3036 13-06-2009 07:02:49 8.6 C 7.13 g/m*3 8.6 C 0 km/h
3037 13-06-2009 07:14:49 8.7 C 7.18 g/m*3 8.7 C 0 km/h
3038 13-06-2009 07:26:49 8.8 C 7.14 g/m*3 8.8 C 0 km/h
3039 13-06-2009 07:38:49 9.1 C 7.19 g/m*3 9.1 C 0 km/h
3040 13-06-2009 07:50:49 9.3 C 7.19 g/m*3 9.3 C 0 km/h
3041 13-06-2009 08:02:49 9.7 C 7.38 g/m*3 9.7 C 0 km/h
3042 13-06-2009 08:14:48 10 C 7.05 g/m*3 10 C 0 km/h
3043 13-06-2009 08:26:48 10.2 C 6.95 g/m*3 10.2 C 0 km/h
3044 13-06-2009 08:38:48 10.6 C 7.12 g/m*3 10.6 C 0 km/h
3045 13-06-2009 08:50:48 11.7 C 7.22 g/m*3 11.7 C 0 km/h
3046 13-06-2009 09:02:47 12.5 C 7.04 g/m*3 12.5 C 0 km/h
3047 13-06-2009 09:14:48 13.3 C 7.16 g/m*3 13.3 C 0 km/h
3048 13-06-2009 09:26:48 14 C 7 g/m*3 14 C 0 km/h
3049 13-06-2009 09:38:48 14.6 C 7.01 g/m*3 14.6 C 0 km/h
3050 13-06-2009 09:50:47 15.2 C 7.01 g/m*3 15.2 C 0 km/h
Sensor: Nr:Datum:Temp:Abs-Feuchte:Windchill:Wind:
Aussen-T/F 3051 13-06-2009 10:02:48 15.4 C 6.96 g/m*3 15.4 C 0 km/h
3052 13-06-2009 10:14:47 15.7 C 6.96 g/m*3 15.7 C 0 km/h
3053 13-06-2009 10:26:47 16.8 C 7.29 g/m*3 16.8 C 0 km/h
3054 13-06-2009 10:38:47 17.3 C 6.78 g/m*3 17.3 C 0 km/h
3055 13-06-2009 10:50:47 18.4 C 6.76 g/m*3 18.4 C 0 km/h
3056 13-06-2009 11:02:47 18.9 C 6.8 g/m*3 18.9 C 0 km/h
3057 13-06-2009 11:14:47 19.6 C 6.75 g/m*3 19.6 C 0 km/h
3058 13-06-2009 11:26:47 19.9 C 6.36 g/m*3 19.9 C 0 km/h
3059 13-06-2009 11:38:46 20.9 C 6.74 g/m*3 20.9 C 0 km/h
3060 13-06-2009 11:50:47 20.4 C 6.19 g/m*3 20.4 C 0 km/h
3061 13-06-2009 12:02:46 21.6 C 5.88 g/m*3 21.6 C 0 km/h
3062 13-06-2009 12:14:46 21.3 C 5.78 g/m*3 21.3 C 0 km/h
3063 13-06-2009 12:26:46 23.6 C 6.38 g/m*3 23.6 C 0 km/h
3064 13-06-2009 12:38:46 24.2 C 6.16 g/m*3 24.2 C 0 km/h
3065 13-06-2009 12:50:46 24.4 C 5.79 g/m*3 24.4 C 0 km/h
3066 13-06-2009 13:02:45 25.3 C 6.09 g/m*3 25.3 C 0 km/h
3067 13-06-2009 13:14:45 25 C 5.75 g/m*3 25 C 0 km/h
3068 13-06-2009 13:26:45 25.5 C 5.68 g/m*3 25.5 C 0 km/h
3069 13-06-2009 13:38:46 26.6 C 5.54 g/m*3 26.6 C 0 km/h
3070 13-06-2009 13:50:45 27.1 C 5.69 g/m*3 27.1 C 0 km/h
3071 13-06-2009 14:02:45 26.9 C 5.37 g/m*3 26.9 C 0 km/h
3072 13-06-2009 14:14:45 25 C 5.75 g/m*3 25 C 0 km/h
3073 13-06-2009 14:26:45 25.4 C 6.12 g/m*3 25.4 C 0 km/h
3074 13-06-2009 14:38:45 25.4 C 6.12 g/m*3 25.4 C 0 km/h
3075 13-06-2009 14:50:45 26.5 C 6.51 g/m*3 26.5 C 0 km/h
Sensor: Nr:Datum:Temp:Abs-Feuchte:Windchill:Wind:
Aussen-T/F 3076 13-06-2009 15:02:44 25.8 C 6.02 g/m*3 25.8 C 0 km/h
3077 13-06-2009 15:14:44 26 C 6.33 g/m*3 26 C 0 km/h
3078 13-06-2009 15:26:44 26.7 C 6.33 g/m*3 26.7 C 0 km/h
3079 13-06-2009 15:38:44 28.1 C 6.29 g/m*3 28.1 C 0 km/h
3080 13-06-2009 15:50:44 28.8 C 6.25 g/m*3 28.8 C 0 km/h
3081 13-06-2009 16:02:44 28.2 C 6.05 g/m*3 28.2 C 0 km/h
3082 13-06-2009 16:14:44 28.4 C 6.12 g/m*3 28.4 C 0 km/h
3083 13-06-2009 16:26:44 27.5 C 5.82 g/m*3 27.5 C 0 km/h
3084 13-06-2009 16:38:44 27.9 C 6.76 g/m*3 27.9 C 0 km/h
3085 13-06-2009 16:50:43 29.9 C 6.33 g/m*3 29.9 C 0 km/h
3086 13-06-2009 17:02:44 30.5 C 6.23 g/m*3 30.5 C 0 km/h
3087 13-06-2009 17:14:43 30.9 C 6.37 g/m*3 30.9 C 0 km/h
3088 13-06-2009 17:26:43 30.1 C 6.1 g/m*3 30.1 C 0 km/h
3089 13-06-2009 17:38:43 29.8 C 6 g/m*3 29.8 C 0 km/h
3090 13-06-2009 17:50:43 28.8 C 6.25 g/m*3 28.8 C 0 km/h
3091 13-06-2009 18:02:43 27.9 C 6.22 g/m*3 27.9 C 0 km/h
3092 13-06-2009 18:14:43 28 C 5.98 g/m*3 28 C 0 km/h
3093 13-06-2009 18:26:43 27.3 C 6.02 g/m*3 27.3 C 0 km/h
3094 13-06-2009 18:38:42 27.5 C 6.08 g/m*3 27.5 C 0 km/h
3095 13-06-2009 18:50:43 27.4 C 6.05 g/m*3 27.4 C 0 km/h
3096 13-06-2009 19:02:42 27 C 6.18 g/m*3 27 C 0 km/h
3097 13-06-2009 19:14:42 27.8 C 6.19 g/m*3 27.8 C 0 km/h
3098 13-06-2009 19:26:42 27.7 C 6.42 g/m*3 27.7 C 0 km/h
3099 13-06-2009 19:38:42 27.6 C 6.38 g/m*3 27.6 C 0 km/h
3100 13-06-2009 19:50:42 26.9 C 6.4 g/m*3 26.9 C 0 km/h
Sensor: Nr:Datum:Temp:Abs-Feuchte:Windchill:Wind:
Aussen-T/F 3101 13-06-2009 20:02:41 26.8 C 6.36 g/m*3 26.8 C 0 km/h
3102 13-06-2009 20:14:42 26.1 C 6.37 g/m*3 26.1 C 0 km/h
3103 13-06-2009 20:26:42 26.1 C 6.37 g/m*3 26.1 C 0 km/h
3104 13-06-2009 20:38:42 25.5 C 6.63 g/m*3 25.5 C 0 km/h
3105 13-06-2009 20:50:41 24.6 C 7.2 g/m*3 24.6 C 0 km/h
3106 13-06-2009 21:02:42 23.7 C 7.7 g/m*3 23.7 C 0 km/h
3107 13-06-2009 21:14:41 22.7 C 7.88 g/m*3 22.7 C 0 km/h
3108 13-06-2009 21:26:41 21.6 C 7.59 g/m*3 21.6 C 0 km/h
3109 13-06-2009 21:38:41 20.7 C 7.56 g/m*3 20.7 C 0 km/h
3110 13-06-2009 21:50:40 19.8 C 7.52 g/m*3 19.8 C 0 km/h
3111 13-06-2009 22:02:41 19.5 C 7.72 g/m*3 19.5 C 0 km/h
3112 13-06-2009 22:14:40 19.1 C 7.54 g/m*3 19.1 C 0 km/h
3113 13-06-2009 22:26:40 19.1 C 7.54 g/m*3 19.1 C 0 km/h
3114 13-06-2009 22:38:41 18.9 C 7.45 g/m*3 18.9 C 0 km/h
3115 13-06-2009 22:51:41 18.6 C 7.64 g/m*3 18.6 C 0 km/h
3116 13-06-2009 23:03:41 18.2 C 7.46 g/m*3 18.2 C 0 km/h
3117 13-06-2009 23:15:41 18.1 C 7.57 g/m*3 18.1 C 0 km/h
3118 13-06-2009 23:27:41 17.9 C 7.79 g/m*3 17.9 C 0 km/h
3119 13-06-2009 23:39:41 17.3 C 7.51 g/m*3 17.3 C 0 km/h
3120 13-06-2009 23:51:41 17 C 7.52 g/m*3 17 C 0 km/h
3121 14-06-2009 00:03:41 16.8 C 7.72 g/m*3 16.8 C 0 km/h
3122 14-06-2009 00:15:41 16.5 C 7.72 g/m*3 16.5 C 0 km/h
3123 14-06-2009 00:27:41 16.3 C 7.77 g/m*3 16.3 C 0 km/h
3124 14-06-2009 00:39:41 16 C 8.04 g/m*3 16 C 0 km/h
3125 14-06-2009 00:51:41 15.6 C 8.11 g/m*3 15.6 C 0 km/h
Sensor: Nr:Datum:Temp:Abs-Feuchte:Windchill:Wind:
Aussen-T/F 3126 14-06-2009 01:03:41 15.6 C 7.98 g/m*3 15.6 C 0 km/h
3127 14-06-2009 01:15:41 15.4 C 7.88 g/m*3 15.4 C 0 km/h
3128 14-06-2009 01:27:41 15.2 C 7.79 g/m*3 15.2 C 0 km/h
3129 14-06-2009 01:39:41 15 C 8.08 g/m*3 15 C 0 km/h
3130 14-06-2009 01:51:41 14.8 C 8.11 g/m*3 14.8 C 0 km/h
3131 14-06-2009 02:03:41 14.7 C 8.18 g/m*3 14.7 C 0 km/h
3132 14-06-2009 02:15:41 14.6 C 8.26 g/m*3 14.6 C 0 km/h
3133 14-06-2009 02:27:42 14.3 C 8.23 g/m*3 14.3 C 0 km/h
3134 14-06-2009 02:39:42 14.1 C 8.37 g/m*3 14.1 C 0 km/h
3135 14-06-2009 02:51:42 14 C 8.44 g/m*3 14 C 0 km/h
3136 14-06-2009 03:03:42 13.9 C 8.51 g/m*3 13.9 C 0 km/h
3137 14-06-2009 03:15:42 13.6 C 8.36 g/m*3 13.6 C 0 km/h
3138 14-06-2009 03:27:42 13.6 C 8.36 g/m*3 13.6 C 0 km/h
3139 14-06-2009 03:39:42 13.4 C 8.37 g/m*3 13.4 C 0 km/h
3140 14-06-2009 03:51:42 13.4 C 8.37 g/m*3 13.4 C 0 km/h
3141 14-06-2009 04:03:42 13.1 C 8.22 g/m*3 13.1 C 0 km/h
3142 14-06-2009 04:15:42 12.9 C 8.23 g/m*3 12.9 C 0 km/h
3143 14-06-2009 04:27:42 12.8 C 8.29 g/m*3 12.8 C 0 km/h
3144 14-06-2009 04:39:42 12.7 C 8.35 g/m*3 12.7 C 0 km/h
3145 14-06-2009 04:51:42 12.5 C 8.25 g/m*3 12.5 C 0 km/h
3146 14-06-2009 05:03:42 12.4 C 8.3 g/m*3 12.4 C 0 km/h
3147 14-06-2009 05:15:42 12.2 C 8.2 g/m*3 12.2 C 0 km/h
3148 14-06-2009 05:27:42 12.2 C 8.31 g/m*3 12.2 C 0 km/h
3149 14-06-2009 05:39:42 12.1 C 8.26 g/m*3 12.1 C 0 km/h
3150 14-06-2009 05:51:42 12 C 8.31 g/m*3 12 C 0 km/h
Sensor: Nr:Datum:Temp:Abs-Feuchte:Windchill:Wind:
Aussen-T/F 3151 14-06-2009 06:03:42 12 C 8.31 g/m*3 12 C 0 km/h
3152 14-06-2009 06:15:43 12.4 C 8.52 g/m*3 12.4 C 0 km/h
3153 14-06-2009 06:27:43 12.8 C 8.62 g/m*3 12.8 C 0 km/h
3154 14-06-2009 06:39:43 13 C 8.62 g/m*3 13 C 0 km/h
3155 14-06-2009 06:51:43 13.2 C 8.61 g/m*3 13.2 C 0 km/h
3156 14-06-2009 07:03:43 13 C 8.51 g/m*3 13 C 0 km/h
3157 14-06-2009 07:15:43 13 C 8.62 g/m*3 13 C 0 km/h
3158 14-06-2009 07:27:43 13.1 C 8.67 g/m*3 13.1 C 0 km/h
3159 14-06-2009 07:39:43 13.4 C 8.72 g/m*3 13.4 C 0 km/h
3160 14-06-2009 07:51:43 13.4 C 8.72 g/m*3 13.4 C 0 km/h
3161 14-06-2009 08:03:41 13.6 C 8.71 g/m*3 13.6 C 0 km/h
3162 14-06-2009 08:15:41 13.6 C 8.71 g/m*3 13.6 C 0 km/h
3163 14-06-2009 08:27:41 13.8 C 8.58 g/m*3 13.8 C 0 km/h
3164 14-06-2009 08:39:41 14.2 C 8.55 g/m*3 14.2 C 0 km/h
3165 14-06-2009 08:51:40 14.8 C 8.87 g/m*3 14.8 C 0 km/h
3166 14-06-2009 09:03:41 15.3 C 8.88 g/m*3 15.3 C 0 km/h
3167 14-06-2009 09:15:41 15.9 C 8.94 g/m*3 15.9 C 0 km/h
3168 14-06-2009 09:27:41 16.7 C 9.24 g/m*3 16.7 C 0 km/h
3169 14-06-2009 09:39:41 17.6 C 9.3 g/m*3 17.6 C 0 km/h
3170 14-06-2009 09:51:40 18.3 C 9.07 g/m*3 18.3 C 0 km/h
3171 14-06-2009 10:03:40 19.4 C 9.34 g/m*3 19.4 C 0 km/h
3172 14-06-2009 10:15:40 20.1 C 9.21 g/m*3 20.1 C 0 km/h
3173 14-06-2009 10:27:40 20.8 C 9.05 g/m*3 20.8 C 0 km/h
3174 14-06-2009 10:39:39 21.6 C 8.72 g/m*3 21.6 C 0 km/h
3175 14-06-2009 10:51:40 21.7 C 8.39 g/m*3 21.7 C 0 km/h
Sensor: Nr:Datum:Temp:Abs-Feuchte:Windchill:Wind:
Aussen-T/F 3176 14-06-2009 11:03:39 22.5 C 8.39 g/m*3 22.5 C 0 km/h
3177 14-06-2009 11:15:39 23.7 C 8.77 g/m*3 23.7 C 0 km/h
3178 14-06-2009 11:27:39 24.8 C 8.88 g/m*3 24.8 C 0 km/h
3179 14-06-2009 11:39:40 25.5 C 8.52 g/m*3 25.5 C 0 km/h
3180 14-06-2009 11:51:39 26.1 C 7.59 g/m*3 26.1 C 0 km/h
3181 14-06-2009 12:03:39 26.8 C 7.64 g/m*3 26.8 C 0 km/h
3182 14-06-2009 12:15:39 26.4 C 7.22 g/m*3 26.4 C 0 km/h
3183 14-06-2009 12:27:39 27 C 7.72 g/m*3 27 C 0 km/h
3184 14-06-2009 12:39:39 26.1 C 7.1 g/m*3 26.1 C 0 km/h
3185 14-06-2009 12:51:38 27.9 C 7.3 g/m*3 27.9 C 0 km/h
3186 14-06-2009 13:03:39 27.5 C 7.14 g/m*3 27.5 C 0 km/h
3187 14-06-2009 13:15:38 28.3 C 7.46 g/m*3 28.3 C 0 km/h
3188 14-06-2009 13:27:38 28.2 C 7.42 g/m*3 28.2 C 0 km/h
3189 14-06-2009 13:39:38 28.2 C 7.42 g/m*3 28.2 C 0 km/h
3190 14-06-2009 13:51:37 27.8 C 6.99 g/m*3 27.8 C 0 km/h
3191 14-06-2009 14:03:38 28.7 C 7.63 g/m*3 28.7 C 0 km/h
3192 14-06-2009 14:15:38 28.9 C 7.71 g/m*3 28.9 C 0 km/h
3193 14-06-2009 14:27:38 28.3 C 7.74 g/m*3 28.3 C 0 km/h
3194 14-06-2009 14:39:37 28.6 C 7.59 g/m*3 28.6 C 0 km/h
3195 14-06-2009 14:51:38 28.6 C 7.59 g/m*3 28.6 C 0 km/h
3196 14-06-2009 15:03:37 29.1 C 7.51 g/m*3 29.1 C 0 km/h
3197 14-06-2009 15:15:37 29.6 C 7.42 g/m*3 29.6 C 0 km/h
3198 14-06-2009 15:27:37 29.6 C 7.42 g/m*3 29.6 C 0 km/h
3199 14-06-2009 15:39:36 30.2 C 7.66 g/m*3 30.2 C 0 km/h
3200 14-06-2009 15:51:37 30.3 C 7.09 g/m*3 30.3 C 0 km/h
Sensor: Nr:Datum:Temp:Abs-Feuchte:Windchill:Wind:
Aussen-T/F 3201 14-06-2009 16:03:36 30.4 C 7.13 g/m*3 30.4 C 0 km/h
3202 14-06-2009 16:15:36 30.3 C 7.09 g/m*3 30.3 C 0 km/h
3203 14-06-2009 16:27:36 30.9 C 7 g/m*3 30.9 C 0 km/h
3204 14-06-2009 16:39:37 31.5 C 7.23 g/m*3 31.5 C 0 km/h
3205 14-06-2009 16:51:36 30.8 C 6.65 g/m*3 30.8 C 0 km/h
3206 14-06-2009 17:03:36 31.2 C 6.47 g/m*3 31.2 C 0 km/h
3207 14-06-2009 17:15:36 31 C 6.72 g/m*3 31 C 0 km/h
3208 14-06-2009 17:27:36 31.2 C 6.47 g/m*3 31.2 C 0 km/h
3209 14-06-2009 17:39:36 30.7 C 7.24 g/m*3 30.7 C 0 km/h
3210 14-06-2009 17:51:35 26.2 C 8.86 g/m*3 26.2 C 0 km/h
3211 14-06-2009 18:03:36 24.8 C 10.7 g/m*3 24.8 C 0 km/h
3212 14-06-2009 18:15:35 26.4 C 9.71 g/m*3 26.4 C 0 km/h
3213 14-06-2009 18:27:35 27.9 C 10.01 g/m*3 27.9 C 0 km/h
3214 14-06-2009 18:39:35 27.2 C 9.63 g/m*3 27.2 C 0 km/h
3215 14-06-2009 18:51:35 25.1 C 10.88 g/m*3 25.1 C 0 km/h
3216 14-06-2009 19:03:35 24.6 C 11.93 g/m*3 24.6 C 0 km/h
3217 14-06-2009 19:15:35 22.4 C 14.1 g/m*3 22.4 C 0 km/h
3218 14-06-2009 19:27:35 22 C 15.72 g/m*3 22 C 0 km/h
3219 14-06-2009 19:39:34 22.4 C 16.09 g/m*3 22.4 C 0 km/h
3220 14-06-2009 19:51:35 22.3 C 15.6 g/m*3 22.3 C 0 km/h
3221 14-06-2009 20:03:34 21.8 C 14.97 g/m*3 21.8 C 0 km/h
3222 14-06-2009 20:15:34 21.6 C 14.79 g/m*3 21.6 C 0 km/h
3223 14-06-2009 20:27:34 21.2 C 14.27 g/m*3 21.2 C 0 km/h
3224 14-06-2009 20:39:34 20.7 C 14.4 g/m*3 20.7 C 0 km/h
3225 14-06-2009 20:51:34 20.6 C 14.86 g/m*3 20.6 C 0 km/h
Sensor: Nr:Datum:Temp:Abs-Feuchte:Windchill:Wind:
Aussen-T/F 3226 14-06-2009 21:03:34 20.4 C 14.86 g/m*3